Darstellungsparameter: Aktuell verwendete Einstellungen:
Skalierung der Graphiken ... ?
xyx+y,   Skalierungsfaktor:      Skalierung: Modus: x, Faktor: 1
Darstellungszeitraum ... ?
Vom - - bis: - -   Zeitraum: 30.10.2008 - 19.11.2008
Min/Max/Avg-Anzeige ... ?
Zeige MMA aktuell
Zeige MMA Monat
Zeige MMA alles
Zeige --A aktuell
Zeige --A Monat
Zeige --A alles
Keine MMA-Anzeige
MMA:
Average (ber die Originaldaten)
MMA-Basis: 17.04.2019 - 19.05.2019
Quicknavigation für Darstellung... ?
Tage:      1T, 2T, 3T, 5T -1T -2T -3T -5T +1T +2T +3T +5T
Wochen: 1W, 2W, 3W -1W -2W -3W +1W +2W +3W
Monate: 1M, 3M, 6M -1M -3M -6M +1M +3M +6M
Jahre:    1J, 3J, 5J, 10J -1J -3J -5J -10J +1J +3J +5J +10J
Nutze für die Darstellung ... ?
Originaldaten oder Mittelwerte auf ...
Stundenbasis Tagesbasis Wochenbasis
Monatsbasis Jahresbasis      Datenbasis: Original-Daten
Darstellen als:
Statistik (Auto) Statistik J:M      Darstellung:
Zur Graphik,    zurück zur Übersicht aller Sensoren.
 
Tabellarische Datenbersicht: ?
 
Sensor: Nr:Datum:Temp:Abs-Feuchte:Windchill:Wind:
Aussen-T/F 1 30-10-2008 00:16:14 5 C 5.71 g/m*3 5 C 0 km/h
2 30-10-2008 00:41:14 4.9 C 5.74 g/m*3 4.9 C 0 km/h
3 30-10-2008 01:06:14 4.7 C 5.73 g/m*3 4.7 C 0 km/h
4 30-10-2008 01:31:14 4.8 C 5.83 g/m*3 4.8 C 0 km/h
5 30-10-2008 01:56:14 4.8 C 5.83 g/m*3 4.8 C 0 km/h
6 30-10-2008 02:21:14 5 C 5.84 g/m*3 5 C 0 km/h
7 30-10-2008 02:46:14 4.8 C 5.83 g/m*3 4.8 C 0 km/h
8 30-10-2008 03:11:14 4.8 C 5.9 g/m*3 4.8 C 0 km/h
9 30-10-2008 03:36:14 4.7 C 5.93 g/m*3 4.7 C 0 km/h
10 30-10-2008 04:01:14 4.7 C 6 g/m*3 4.7 C 0 km/h
11 30-10-2008 04:26:14 4.5 C 5.98 g/m*3 4.5 C 0 km/h
12 30-10-2008 04:51:14 4.5 C 5.98 g/m*3 4.5 C 0 km/h
13 30-10-2008 05:16:14 4.5 C 6.05 g/m*3 4.5 C 0 km/h
14 30-10-2008 05:41:14 4.5 C 6.05 g/m*3 4.5 C 0 km/h
15 30-10-2008 06:06:14 4.2 C 5.93 g/m*3 4.2 C 0 km/h
16 30-10-2008 06:31:14 4.2 C 5.93 g/m*3 4.2 C 0 km/h
17 30-10-2008 06:56:14 4.1 C 5.89 g/m*3 4.1 C 0 km/h
18 30-10-2008 07:21:14 3.9 C 5.87 g/m*3 3.9 C 0 km/h
19 30-10-2008 07:46:14 3.9 C 5.94 g/m*3 3.9 C 0 km/h
20 30-10-2008 08:11:15 4 C 5.98 g/m*3 4 C 0 km/h
21 30-10-2008 08:36:15 4.2 C 6.06 g/m*3 4.2 C 0 km/h
22 30-10-2008 09:01:15 4.6 C 6.22 g/m*3 4.6 C 0 km/h
23 30-10-2008 09:26:15 4.8 C 6.3 g/m*3 4.8 C 0 km/h
24 30-10-2008 09:51:15 4.8 C 6.24 g/m*3 4.8 C 0 km/h
25 30-10-2008 10:16:15 4.7 C 6 g/m*3 4.7 C 0 km/h
Sensor: Nr:Datum:Temp:Abs-Feuchte:Windchill:Wind:
Aussen-T/F 26 30-10-2008 10:41:15 4.7 C 5.93 g/m*3 4.7 C 0 km/h
27 30-10-2008 11:06:15 5.1 C 6.02 g/m*3 5.1 C 0 km/h
28 30-10-2008 11:31:15 5.3 C 6.1 g/m*3 5.3 C 0 km/h
29 30-10-2008 11:56:15 5.8 C 6.23 g/m*3 5.8 C 0 km/h
30 30-10-2008 12:21:15 5.7 C 6.05 g/m*3 5.7 C 0 km/h
31 30-10-2008 12:46:15 5.6 C 6.08 g/m*3 5.6 C 0 km/h
32 30-10-2008 13:11:15 5.7 C 6.12 g/m*3 5.7 C 0 km/h
33 30-10-2008 13:36:15 5.3 C 5.82 g/m*3 5.3 C 0 km/h
34 30-10-2008 14:01:15 5.7 C 6.05 g/m*3 5.7 C 0 km/h
35 30-10-2008 14:26:15 5.6 C 6.08 g/m*3 5.6 C 0 km/h
36 30-10-2008 14:51:15 5.4 C 6 g/m*3 5.4 C 0 km/h
37 30-10-2008 15:16:15 5.8 C 6.16 g/m*3 5.8 C 0 km/h
38 30-10-2008 15:41:15 5.7 C 6.05 g/m*3 5.7 C 0 km/h
39 30-10-2008 16:06:15 5.7 C 6.12 g/m*3 5.7 C 0 km/h
40 30-10-2008 16:31:15 5.7 C 6.19 g/m*3 5.7 C 0 km/h
41 30-10-2008 16:56:16 5.4 C 6.07 g/m*3 5.4 C 0 km/h
42 30-10-2008 17:21:16 4.8 C 5.9 g/m*3 4.8 C 0 km/h
43 30-10-2008 17:46:16 4.7 C 5.86 g/m*3 4.7 C 0 km/h
44 30-10-2008 18:11:16 4.8 C 5.97 g/m*3 4.8 C 0 km/h
45 30-10-2008 18:36:16 4.6 C 5.89 g/m*3 4.6 C 0 km/h
46 30-10-2008 19:01:16 4.6 C 6.02 g/m*3 4.6 C 0 km/h
47 30-10-2008 19:26:16 4.6 C 6.02 g/m*3 4.6 C 0 km/h
48 30-10-2008 19:51:16 4.6 C 6.09 g/m*3 4.6 C 0 km/h
49 30-10-2008 20:16:16 4.4 C 6.01 g/m*3 4.4 C 0 km/h
50 30-10-2008 20:41:16 4.5 C 6.11 g/m*3 4.5 C 0 km/h
Sensor: Nr:Datum:Temp:Abs-Feuchte:Windchill:Wind:
Aussen-T/F 51 30-10-2008 21:06:16 4.4 C 6.07 g/m*3 4.4 C 0 km/h
52 30-10-2008 21:31:16 4.3 C 6.03 g/m*3 4.3 C 0 km/h
53 30-10-2008 21:56:16 4.3 C 6.03 g/m*3 4.3 C 0 km/h
54 30-10-2008 22:21:16 4.3 C 6.1 g/m*3 4.3 C 0 km/h
55 30-10-2008 22:46:16 4.3 C 6.1 g/m*3 4.3 C 0 km/h
56 30-10-2008 23:11:16 4.1 C 6.02 g/m*3 4.1 C 0 km/h
57 30-10-2008 23:36:16 3.9 C 5.94 g/m*3 3.9 C 0 km/h
58 31-10-2008 00:01:16 3.8 C 5.96 g/m*3 3.8 C 0 km/h
59 31-10-2008 00:26:16 3.7 C 5.92 g/m*3 3.7 C 0 km/h
60 31-10-2008 00:51:16 3.4 C 5.8 g/m*3 3.4 C 0 km/h
61 31-10-2008 01:16:16 3.2 C 5.72 g/m*3 3.2 C 0 km/h
62 31-10-2008 01:41:17 2.8 C 5.57 g/m*3 2.8 C 0 km/h
63 31-10-2008 02:06:17 2.7 C 5.54 g/m*3 2.7 C 0 km/h
64 31-10-2008 02:31:17 2.9 C 5.61 g/m*3 2.9 C 0 km/h
65 31-10-2008 02:56:17 3.2 C 5.72 g/m*3 3.2 C 0 km/h
66 31-10-2008 03:21:17 3.1 C 5.69 g/m*3 3.1 C 0 km/h
67 31-10-2008 03:46:17 3 C 5.65 g/m*3 3 C 0 km/h
68 31-10-2008 04:11:17 3.1 C 5.69 g/m*3 3.1 C 0 km/h
69 31-10-2008 04:36:17 3.2 C 5.72 g/m*3 3.2 C 0 km/h
70 31-10-2008 05:01:17 3.3 C 5.76 g/m*3 3.3 C 0 km/h
71 31-10-2008 05:26:17 3.6 C 5.88 g/m*3 3.6 C 0 km/h
72 31-10-2008 05:51:17 3.7 C 5.92 g/m*3 3.7 C 0 km/h
73 31-10-2008 06:16:17 3.8 C 5.96 g/m*3 3.8 C 0 km/h
74 31-10-2008 06:41:17 4 C 6.04 g/m*3 4 C 0 km/h
75 31-10-2008 07:06:17 4 C 6.04 g/m*3 4 C 0 km/h
Sensor: Nr:Datum:Temp:Abs-Feuchte:Windchill:Wind:
Aussen-T/F 76 31-10-2008 07:31:17 4 C 6.04 g/m*3 4 C 0 km/h
77 31-10-2008 07:56:17 4.1 C 6.08 g/m*3 4.1 C 0 km/h
78 31-10-2008 08:21:17 4.3 C 6.16 g/m*3 4.3 C 0 km/h
79 31-10-2008 08:46:17 4.5 C 6.24 g/m*3 4.5 C 0 km/h
80 31-10-2008 09:11:17 4.9 C 6.41 g/m*3 4.9 C 0 km/h
81 31-10-2008 09:36:17 5.4 C 6.63 g/m*3 5.4 C 0 km/h
82 31-10-2008 10:01:17 5.8 C 6.81 g/m*3 5.8 C 0 km/h
83 31-10-2008 10:26:18 6.3 C 6.74 g/m*3 6.3 C 0 km/h
84 31-10-2008 10:51:18 6.5 C 6.6 g/m*3 6.5 C 0 km/h
85 31-10-2008 11:16:18 7.1 C 6.55 g/m*3 7.1 C 0 km/h
86 31-10-2008 11:41:18 7 C 6.51 g/m*3 7 C 0 km/h
87 31-10-2008 12:06:18 7 C 6.66 g/m*3 7 C 0 km/h
88 31-10-2008 12:31:18 7.8 C 7.02 g/m*3 7.8 C 0 km/h
89 31-10-2008 12:56:18 8 C 6.7 g/m*3 8 C 0 km/h
90 31-10-2008 13:21:18 8 C 6.7 g/m*3 8 C 0 km/h
91 31-10-2008 13:46:18 8.8 C 6.7 g/m*3 8.8 C 0 km/h
92 31-10-2008 14:11:18 9.5 C 6.74 g/m*3 9.5 C 0 km/h
93 31-10-2008 14:36:18 10 C 6.77 g/m*3 10 C 0 km/h
94 31-10-2008 15:01:18 11.2 C 6.99 g/m*3 11.2 C 0 km/h
95 31-10-2008 15:26:18 11.1 C 6.35 g/m*3 11.1 C 0 km/h
96 31-10-2008 15:51:18 10.2 C 6.38 g/m*3 10.2 C 0 km/h
97 31-10-2008 16:16:18 9.6 C 6.5 g/m*3 9.6 C 0 km/h
98 31-10-2008 16:41:18 8.9 C 6.48 g/m*3 8.9 C 0 km/h
99 31-10-2008 17:06:18 8.4 C 6.53 g/m*3 8.4 C 0 km/h
100 31-10-2008 17:31:18 8.1 C 6.32 g/m*3 8.1 C 0 km/h
Sensor: Nr:Datum:Temp:Abs-Feuchte:Windchill:Wind:
Aussen-T/F 101 31-10-2008 17:56:18 7.9 C 6.32 g/m*3 7.9 C 0 km/h
102 31-10-2008 18:21:18 7.3 C 6.32 g/m*3 7.3 C 0 km/h
103 31-10-2008 18:46:19 6.8 C 6.42 g/m*3 6.8 C 0 km/h
104 31-10-2008 19:11:19 7 C 6.51 g/m*3 7 C 0 km/h
105 31-10-2008 19:36:19 6.8 C 6.5 g/m*3 6.8 C 0 km/h
106 31-10-2008 20:01:19 6.7 C 6.53 g/m*3 6.7 C 0 km/h
107 31-10-2008 20:26:19 6.5 C 6.52 g/m*3 6.5 C 0 km/h
108 31-10-2008 20:51:19 6.4 C 6.56 g/m*3 6.4 C 0 km/h
109 31-10-2008 21:16:19 6.2 C 6.47 g/m*3 6.2 C 0 km/h
110 31-10-2008 21:41:19 6.2 C 6.55 g/m*3 6.2 C 0 km/h
111 31-10-2008 22:06:19 6.2 C 6.55 g/m*3 6.2 C 0 km/h
112 31-10-2008 22:31:19 6.2 C 6.55 g/m*3 6.2 C 0 km/h
113 31-10-2008 22:56:19 6.3 C 6.66 g/m*3 6.3 C 0 km/h
114 31-10-2008 23:21:19 6.5 C 6.75 g/m*3 6.5 C 0 km/h
115 31-10-2008 23:46:19 6.5 C 6.67 g/m*3 6.5 C 0 km/h
116 01-11-2008 00:11:19 6.4 C 6.63 g/m*3 6.4 C 0 km/h
117 01-11-2008 00:36:19 6.3 C 6.66 g/m*3 6.3 C 0 km/h
118 01-11-2008 01:01:19 6.4 C 6.71 g/m*3 6.4 C 0 km/h
119 01-11-2008 01:26:19 6.4 C 6.78 g/m*3 6.4 C 0 km/h
120 01-11-2008 01:51:19 6.4 C 6.85 g/m*3 6.4 C 0 km/h
121 01-11-2008 02:16:19 6.3 C 6.81 g/m*3 6.3 C 0 km/h
122 01-11-2008 02:41:19 6.2 C 6.84 g/m*3 6.2 C 0 km/h
123 01-11-2008 03:06:19 6.2 C 6.91 g/m*3 6.2 C 0 km/h
124 01-11-2008 03:31:20 6 C 6.82 g/m*3 6 C 0 km/h
125 01-11-2008 03:56:20 5.9 C 6.85 g/m*3 5.9 C 0 km/h
Sensor: Nr:Datum:Temp:Abs-Feuchte:Windchill:Wind:
Aussen-T/F 126 01-11-2008 04:21:20 6 C 6.9 g/m*3 6 C 0 km/h
127 01-11-2008 04:46:20 5.9 C 6.85 g/m*3 5.9 C 0 km/h
128 01-11-2008 05:11:20 6 C 6.9 g/m*3 6 C 0 km/h
129 01-11-2008 05:36:20 6 C 6.9 g/m*3 6 C 0 km/h
130 01-11-2008 06:01:20 5.9 C 6.85 g/m*3 5.9 C 0 km/h
131 01-11-2008 06:26:20 5.9 C 6.85 g/m*3 5.9 C 0 km/h
132 01-11-2008 06:51:20 5.7 C 6.76 g/m*3 5.7 C 0 km/h
133 01-11-2008 07:16:20 5.5 C 6.67 g/m*3 5.5 C 0 km/h
134 01-11-2008 07:41:20 5.3 C 6.58 g/m*3 5.3 C 0 km/h
135 01-11-2008 08:06:20 5.6 C 6.72 g/m*3 5.6 C 0 km/h
136 01-11-2008 08:31:20 5.9 C 6.85 g/m*3 5.9 C 0 km/h
137 01-11-2008 08:56:20 6.5 C 7.12 g/m*3 6.5 C 0 km/h
138 01-11-2008 09:21:20 7.1 C 7.41 g/m*3 7.1 C 0 km/h
139 01-11-2008 09:46:20 7.4 C 7.55 g/m*3 7.4 C 0 km/h
140 01-11-2008 10:11:20 7.9 C 7.56 g/m*3 7.9 C 0 km/h
141 01-11-2008 10:36:20 8.2 C 7.2 g/m*3 8.2 C 0 km/h
142 01-11-2008 11:01:20 8.5 C 7.09 g/m*3 8.5 C 0 km/h
143 01-11-2008 11:26:20 8.7 C 7.01 g/m*3 8.7 C 0 km/h
144 01-11-2008 11:51:20 9.3 C 6.74 g/m*3 9.3 C 0 km/h
145 01-11-2008 12:16:21 9.6 C 6.78 g/m*3 9.6 C 0 km/h
146 01-11-2008 12:41:21 10 C 6.58 g/m*3 10 C 0 km/h
147 01-11-2008 13:06:21 10 C 6.58 g/m*3 10 C 0 km/h
148 01-11-2008 13:31:21 10.3 C 6.7 g/m*3 10.3 C 0 km/h
149 01-11-2008 13:56:21 10.3 C 6.8 g/m*3 10.3 C 0 km/h
150 01-11-2008 14:21:21 10.4 C 6.84 g/m*3 10.4 C 0 km/h
Sensor: Nr:Datum:Temp:Abs-Feuchte:Windchill:Wind:
Aussen-T/F 151 01-11-2008 14:46:21 10.5 C 6.89 g/m*3 10.5 C 0 km/h
152 01-11-2008 15:11:21 10.8 C 6.92 g/m*3 10.8 C 0 km/h
153 01-11-2008 15:36:21 10.5 C 7.18 g/m*3 10.5 C 0 km/h
154 01-11-2008 16:01:21 10.1 C 7.28 g/m*3 10.1 C 0 km/h
155 01-11-2008 16:26:21 9.8 C 7.52 g/m*3 9.8 C 0 km/h
156 01-11-2008 16:51:21 9.5 C 7.55 g/m*3 9.5 C 0 km/h
157 01-11-2008 17:16:21 9.4 C 7.6 g/m*3 9.4 C 0 km/h
158 01-11-2008 17:41:21 9.5 C 7.74 g/m*3 9.5 C 0 km/h
159 01-11-2008 18:06:21 9.4 C 7.69 g/m*3 9.4 C 0 km/h
160 01-11-2008 18:31:21 9.2 C 7.59 g/m*3 9.2 C 0 km/h
161 01-11-2008 18:56:21 9.2 C 7.68 g/m*3 9.2 C 0 km/h
162 01-11-2008 19:21:21 9.2 C 7.68 g/m*3 9.2 C 0 km/h
163 01-11-2008 19:46:21 9.2 C 7.68 g/m*3 9.2 C 0 km/h
164 01-11-2008 20:11:21 9 C 7.41 g/m*3 9 C 0 km/h
165 01-11-2008 20:36:22 8.9 C 7.53 g/m*3 8.9 C 0 km/h
166 01-11-2008 21:01:22 8.7 C 7.52 g/m*3 8.7 C 0 km/h
167 01-11-2008 21:26:22 8.4 C 7.38 g/m*3 8.4 C 0 km/h
168 01-11-2008 21:51:22 8.3 C 7.42 g/m*3 8.3 C 0 km/h
169 01-11-2008 22:16:22 8.6 C 7.65 g/m*3 8.6 C 0 km/h
170 01-11-2008 22:41:22 8.6 C 7.73 g/m*3 8.6 C 0 km/h
171 01-11-2008 23:06:22 8.5 C 7.68 g/m*3 8.5 C 0 km/h
172 01-11-2008 23:31:22 8.4 C 7.63 g/m*3 8.4 C 0 km/h
173 01-11-2008 23:56:22 8.4 C 7.72 g/m*3 8.4 C 0 km/h
174 02-11-2008 00:21:22 8.5 C 7.77 g/m*3 8.5 C 0 km/h
175 02-11-2008 00:46:22 8.5 C 7.85 g/m*3 8.5 C 0 km/h
Sensor: Nr:Datum:Temp:Abs-Feuchte:Windchill:Wind:
Aussen-T/F 176 02-11-2008 01:11:22 9.6 C 7.79 g/m*3 9.6 C 0 km/h
177 02-11-2008 01:36:22 9.8 C 7.42 g/m*3 9.8 C 0 km/h
178 02-11-2008 02:01:22 9.3 C 7.46 g/m*3 9.3 C 0 km/h
179 02-11-2008 02:26:22 9.4 C 7.51 g/m*3 9.4 C 0 km/h
180 02-11-2008 02:51:22 9 C 7.41 g/m*3 9 C 0 km/h
181 02-11-2008 03:16:22 8.9 C 7.53 g/m*3 8.9 C 0 km/h
182 02-11-2008 03:41:22 8.5 C 7.43 g/m*3 8.5 C 0 km/h
183 02-11-2008 04:06:22 8.3 C 7.5 g/m*3 8.3 C 0 km/h
184 02-11-2008 04:31:22 8.1 C 7.49 g/m*3 8.1 C 0 km/h
185 02-11-2008 04:56:22 7.9 C 7.47 g/m*3 7.9 C 0 km/h
186 02-11-2008 05:21:23 7.6 C 7.41 g/m*3 7.6 C 0 km/h
187 02-11-2008 05:46:23 7.6 C 7.41 g/m*3 7.6 C 0 km/h
188 02-11-2008 06:11:23 7.4 C 7.4 g/m*3 7.4 C 0 km/h
189 02-11-2008 06:36:23 7.5 C 7.52 g/m*3 7.5 C 0 km/h
190 02-11-2008 07:01:23 7.4 C 7.48 g/m*3 7.4 C 0 km/h
191 02-11-2008 07:26:23 7.3 C 7.43 g/m*3 7.3 C 0 km/h
192 02-11-2008 07:51:23 7.1 C 7.33 g/m*3 7.1 C 0 km/h
193 02-11-2008 08:16:23 7.3 C 7.43 g/m*3 7.3 C 0 km/h
194 02-11-2008 08:41:23 7.6 C 7.65 g/m*3 7.6 C 0 km/h
195 02-11-2008 09:06:23 7.6 C 7.65 g/m*3 7.6 C 0 km/h
196 02-11-2008 09:31:23 8.1 C 7.82 g/m*3 8.1 C 0 km/h
197 02-11-2008 09:56:23 8.7 C 8.13 g/m*3 8.7 C 0 km/h
198 02-11-2008 10:21:23 9.5 C 8.47 g/m*3 9.5 C 0 km/h
199 02-11-2008 10:46:23 10.1 C 8.42 g/m*3 10.1 C 0 km/h
200 02-11-2008 11:11:23 10.8 C 8.2 g/m*3 10.8 C 0 km/h
Sensor: Nr:Datum:Temp:Abs-Feuchte:Windchill:Wind:
Aussen-T/F 201 02-11-2008 11:36:23 11.5 C 8.06 g/m*3 11.5 C 0 km/h
202 02-11-2008 12:01:23 12.5 C 8.25 g/m*3 12.5 C 0 km/h
203 02-11-2008 12:26:23 13.4 C 8.02 g/m*3 13.4 C 0 km/h
204 02-11-2008 12:51:23 13.5 C 7.84 g/m*3 13.5 C 0 km/h
205 02-11-2008 13:16:23 13.8 C 7.74 g/m*3 13.8 C 0 km/h
206 02-11-2008 13:41:24 14.1 C 7.89 g/m*3 14.1 C 0 km/h
207 02-11-2008 14:06:24 15.4 C 7.88 g/m*3 15.4 C 0 km/h
208 02-11-2008 14:31:24 14.8 C 7.73 g/m*3 14.8 C 0 km/h
209 02-11-2008 14:56:24 14.4 C 7.91 g/m*3 14.4 C 0 km/h
210 02-11-2008 15:21:24 14.4 C 7.91 g/m*3 14.4 C 0 km/h
211 02-11-2008 15:46:24 13.8 C 8.1 g/m*3 13.8 C 0 km/h
212 02-11-2008 16:11:24 13.5 C 8.19 g/m*3 13.5 C 0 km/h
213 02-11-2008 16:36:24 12.6 C 8.19 g/m*3 12.6 C 0 km/h
214 02-11-2008 17:01:24 11.8 C 8.1 g/m*3 11.8 C 0 km/h
215 02-11-2008 17:26:24 11.2 C 8.01 g/m*3 11.2 C 0 km/h
216 02-11-2008 17:51:24 10.6 C 8 g/m*3 10.6 C 0 km/h
217 02-11-2008 18:16:24 10.7 C 8.15 g/m*3 10.7 C 0 km/h
218 02-11-2008 18:41:24 10.1 C 7.85 g/m*3 10.1 C 0 km/h
219 02-11-2008 19:06:24 9.9 C 7.94 g/m*3 9.9 C 0 km/h
220 02-11-2008 19:31:24 9.8 C 7.89 g/m*3 9.8 C 0 km/h
221 02-11-2008 19:56:24 9.6 C 7.88 g/m*3 9.6 C 0 km/h
222 02-11-2008 20:21:24 9.4 C 7.87 g/m*3 9.4 C 0 km/h
223 02-11-2008 20:46:24 9.2 C 7.86 g/m*3 9.2 C 0 km/h
224 02-11-2008 21:11:24 9.1 C 7.81 g/m*3 9.1 C 0 km/h
225 02-11-2008 21:36:24 9.1 C 7.9 g/m*3 9.1 C 0 km/h
Sensor: Nr:Datum:Temp:Abs-Feuchte:Windchill:Wind:
Aussen-T/F 226 02-11-2008 22:01:24 9.2 C 7.95 g/m*3 9.2 C 0 km/h
227 02-11-2008 22:26:25 9 C 7.85 g/m*3 9 C 0 km/h
228 02-11-2008 22:51:25 8.7 C 7.7 g/m*3 8.7 C 0 km/h
229 02-11-2008 23:16:25 8.6 C 7.73 g/m*3 8.6 C 0 km/h
230 02-11-2008 23:41:25 8.2 C 7.62 g/m*3 8.2 C 0 km/h
231 03-11-2008 00:06:25 8.1 C 7.57 g/m*3 8.1 C 0 km/h
232 03-11-2008 00:31:25 8 C 7.52 g/m*3 8 C 0 km/h
233 03-11-2008 00:56:25 7.7 C 7.46 g/m*3 7.7 C 0 km/h
234 03-11-2008 01:21:25 7.8 C 7.59 g/m*3 7.8 C 0 km/h
235 03-11-2008 01:46:25 8 C 7.69 g/m*3 8 C 0 km/h
236 03-11-2008 02:11:25 8 C 7.69 g/m*3 8 C 0 km/h
237 03-11-2008 02:36:25 8 C 7.69 g/m*3 8 C 0 km/h
238 03-11-2008 03:01:25 8.5 C 8.03 g/m*3 8.5 C 0 km/h
239 03-11-2008 03:26:25 8.9 C 8.23 g/m*3 8.9 C 0 km/h
240 03-11-2008 03:51:25 9 C 8.11 g/m*3 9 C 0 km/h
241 03-11-2008 04:16:25 9.1 C 8.07 g/m*3 9.1 C 0 km/h
242 03-11-2008 04:41:25 9.1 C 7.99 g/m*3 9.1 C 0 km/h
243 03-11-2008 05:06:25 9.2 C 7.95 g/m*3 9.2 C 0 km/h
244 03-11-2008 05:31:25 9.2 C 7.86 g/m*3 9.2 C 0 km/h
245 03-11-2008 05:56:25 9.1 C 7.81 g/m*3 9.1 C 0 km/h
246 03-11-2008 06:21:25 9.2 C 7.86 g/m*3 9.2 C 0 km/h
247 03-11-2008 06:46:25 9.2 C 7.77 g/m*3 9.2 C 0 km/h
248 03-11-2008 07:11:26 9.2 C 7.77 g/m*3 9.2 C 0 km/h
249 03-11-2008 07:36:26 9.2 C 7.77 g/m*3 9.2 C 0 km/h
250 03-11-2008 08:01:26 9.4 C 7.87 g/m*3 9.4 C 0 km/h
Sensor: Nr:Datum:Temp:Abs-Feuchte:Windchill:Wind:
Aussen-T/F 251 03-11-2008 08:26:26 9.5 C 7.92 g/m*3 9.5 C 0 km/h
252 03-11-2008 08:51:26 9.8 C 8.07 g/m*3 9.8 C 0 km/h
253 03-11-2008 09:16:26 10.1 C 7.94 g/m*3 10.1 C 0 km/h
254 03-11-2008 09:41:26 10.2 C 7.9 g/m*3 10.2 C 0 km/h
255 03-11-2008 10:06:26 10.4 C 7.81 g/m*3 10.4 C 0 km/h
256 03-11-2008 10:31:26 10.5 C 7.76 g/m*3 10.5 C 0 km/h
257 03-11-2008 10:56:26 11.1 C 7.96 g/m*3 11.1 C 0 km/h
258 03-11-2008 11:21:26 11.4 C 7.8 g/m*3 11.4 C 0 km/h
259 03-11-2008 11:46:26 11.7 C 7.84 g/m*3 11.7 C 0 km/h
260 03-11-2008 12:11:26 12.7 C 8.24 g/m*3 12.7 C 0 km/h
261 03-11-2008 12:36:26 13.1 C 7.99 g/m*3 13.1 C 0 km/h
262 03-11-2008 13:01:26 13.4 C 7.9 g/m*3 13.4 C 0 km/h
263 03-11-2008 13:26:26 13.4 C 7.9 g/m*3 13.4 C 0 km/h
264 03-11-2008 13:51:26 13.5 C 7.72 g/m*3 13.5 C 0 km/h
265 03-11-2008 14:16:26 13.6 C 7.77 g/m*3 13.6 C 0 km/h
266 03-11-2008 14:41:26 14.4 C 7.79 g/m*3 14.4 C 0 km/h
267 03-11-2008 15:06:27 14 C 7.84 g/m*3 14 C 0 km/h
268 03-11-2008 15:31:27 13.3 C 8.09 g/m*3 13.3 C 0 km/h
269 03-11-2008 15:56:27 13.2 C 8.27 g/m*3 13.2 C 0 km/h
270 03-11-2008 16:21:27 12.7 C 8.24 g/m*3 12.7 C 0 km/h
271 03-11-2008 16:46:27 12.3 C 8.25 g/m*3 12.3 C 0 km/h
272 03-11-2008 17:11:27 11.5 C 8.06 g/m*3 11.5 C 0 km/h
273 03-11-2008 17:36:27 10.8 C 8.01 g/m*3 10.8 C 0 km/h
274 03-11-2008 18:01:27 10.1 C 7.85 g/m*3 10.1 C 0 km/h
275 03-11-2008 18:26:27 9.7 C 7.93 g/m*3 9.7 C 0 km/h
Sensor: Nr:Datum:Temp:Abs-Feuchte:Windchill:Wind:
Aussen-T/F 276 03-11-2008 18:51:27 9.3 C 7.82 g/m*3 9.3 C 0 km/h
277 03-11-2008 19:16:27 9 C 7.76 g/m*3 9 C 0 km/h
278 03-11-2008 19:41:27 8.5 C 7.6 g/m*3 8.5 C 0 km/h
279 03-11-2008 20:06:27 8.4 C 7.63 g/m*3 8.4 C 0 km/h
280 03-11-2008 20:31:27 8.1 C 7.49 g/m*3 8.1 C 0 km/h
281 03-11-2008 20:56:27 7.9 C 7.56 g/m*3 7.9 C 0 km/h
282 03-11-2008 21:21:27 7.5 C 7.36 g/m*3 7.5 C 0 km/h
283 03-11-2008 21:46:27 7.1 C 7.18 g/m*3 7.1 C 0 km/h
284 03-11-2008 22:11:27 6.8 C 7.11 g/m*3 6.8 C 0 km/h
285 03-11-2008 22:36:27 6.6 C 7.02 g/m*3 6.6 C 0 km/h
286 03-11-2008 23:01:27 6.4 C 6.93 g/m*3 6.4 C 0 km/h
287 03-11-2008 23:26:28 6.7 C 7.14 g/m*3 6.7 C 0 km/h
288 03-11-2008 23:51:28 7.1 C 7.33 g/m*3 7.1 C 0 km/h
289 04-11-2008 00:16:28 6.9 C 7.31 g/m*3 6.9 C 0 km/h
290 04-11-2008 00:41:28 6.7 C 7.22 g/m*3 6.7 C 0 km/h
291 04-11-2008 01:06:28 6.8 C 7.27 g/m*3 6.8 C 0 km/h
292 04-11-2008 01:31:28 6.8 C 7.27 g/m*3 6.8 C 0 km/h
293 04-11-2008 01:56:28 6.6 C 7.17 g/m*3 6.6 C 0 km/h
294 04-11-2008 02:21:28 6.5 C 7.12 g/m*3 6.5 C 0 km/h
295 04-11-2008 02:46:28 6.7 C 7.22 g/m*3 6.7 C 0 km/h
296 04-11-2008 03:11:28 6.8 C 7.27 g/m*3 6.8 C 0 km/h
297 04-11-2008 03:36:28 6.8 C 7.27 g/m*3 6.8 C 0 km/h
298 04-11-2008 04:01:28 6.8 C 7.27 g/m*3 6.8 C 0 km/h
299 04-11-2008 04:26:28 6.7 C 7.22 g/m*3 6.7 C 0 km/h
300 04-11-2008 04:51:28 6.8 C 7.27 g/m*3 6.8 C 0 km/h
Sensor: Nr:Datum:Temp:Abs-Feuchte:Windchill:Wind:
Aussen-T/F 301 04-11-2008 05:16:28 6.4 C 7.08 g/m*3 6.4 C 0 km/h
302 04-11-2008 05:41:28 6.3 C 7.03 g/m*3 6.3 C 0 km/h
303 04-11-2008 06:06:28 6.2 C 6.99 g/m*3 6.2 C 0 km/h
304 04-11-2008 06:31:28 6.3 C 7.03 g/m*3 6.3 C 0 km/h
305 04-11-2008 06:56:28 6.4 C 7.08 g/m*3 6.4 C 0 km/h
306 04-11-2008 07:21:29 6.4 C 7.08 g/m*3 6.4 C 0 km/h
307 04-11-2008 07:46:29 6.5 C 7.12 g/m*3 6.5 C 0 km/h
308 04-11-2008 08:11:29 6.6 C 7.17 g/m*3 6.6 C 0 km/h
309 04-11-2008 08:36:29 6.6 C 7.17 g/m*3 6.6 C 0 km/h
310 04-11-2008 09:01:29 6.9 C 7.31 g/m*3 6.9 C 0 km/h
311 04-11-2008 09:26:29 7.4 C 7.55 g/m*3 7.4 C 0 km/h
312 04-11-2008 09:51:29 7.7 C 7.7 g/m*3 7.7 C 0 km/h
313 04-11-2008 10:16:29 8.1 C 7.9 g/m*3 8.1 C 0 km/h
314 04-11-2008 10:41:29 7.8 C 7.75 g/m*3 7.8 C 0 km/h
315 04-11-2008 11:06:29 8.5 C 8.03 g/m*3 8.5 C 0 km/h
316 04-11-2008 11:31:29 9 C 8.11 g/m*3 9 C 0 km/h
317 04-11-2008 11:56:29 9 C 7.93 g/m*3 9 C 0 km/h
318 04-11-2008 12:21:29 9.1 C 7.81 g/m*3 9.1 C 0 km/h
319 04-11-2008 12:46:29 9.7 C 8.11 g/m*3 9.7 C 0 km/h
320 04-11-2008 13:11:29 12 C 8.85 g/m*3 12 C 0 km/h
321 04-11-2008 13:36:29 13.7 C 8.05 g/m*3 13.7 C 0 km/h
322 04-11-2008 14:01:29 14.5 C 8.46 g/m*3 14.5 C 0 km/h
323 04-11-2008 14:26:29 14.4 C 8.41 g/m*3 14.4 C 0 km/h
324 04-11-2008 14:51:29 14.4 C 8.41 g/m*3 14.4 C 0 km/h
325 04-11-2008 15:16:30 13.9 C 8.51 g/m*3 13.9 C 0 km/h
Sensor: Nr:Datum:Temp:Abs-Feuchte:Windchill:Wind:
Aussen-T/F 326 04-11-2008 15:41:30 13.4 C 8.49 g/m*3 13.4 C 0 km/h
327 04-11-2008 16:06:30 12.8 C 8.4 g/m*3 12.8 C 0 km/h
328 04-11-2008 16:31:30 12.1 C 8.36 g/m*3 12.1 C 0 km/h
329 04-11-2008 16:56:30 11.8 C 8.21 g/m*3 11.8 C 0 km/h
330 04-11-2008 17:21:30 11.9 C 8.26 g/m*3 11.9 C 0 km/h
331 04-11-2008 17:46:30 11.1 C 8.16 g/m*3 11.1 C 0 km/h
332 04-11-2008 18:11:30 10.9 C 8.26 g/m*3 10.9 C 0 km/h
333 04-11-2008 18:36:30 10.8 C 8.4 g/m*3 10.8 C 0 km/h
334 04-11-2008 19:01:30 10.6 C 8.39 g/m*3 10.6 C 0 km/h
335 04-11-2008 19:26:30 10.4 C 8.29 g/m*3 10.4 C 0 km/h
336 04-11-2008 19:51:30 10.2 C 8.28 g/m*3 10.2 C 0 km/h
337 04-11-2008 20:16:30 10.1 C 8.32 g/m*3 10.1 C 0 km/h
338 04-11-2008 20:41:30 9.7 C 8.2 g/m*3 9.7 C 0 km/h
339 04-11-2008 21:06:30 9.3 C 8.09 g/m*3 9.3 C 0 km/h
340 04-11-2008 21:31:30 9.1 C 7.99 g/m*3 9.1 C 0 km/h
341 04-11-2008 21:56:30 9.1 C 8.07 g/m*3 9.1 C 0 km/h
342 04-11-2008 22:21:30 9.1 C 8.16 g/m*3 9.1 C 0 km/h
343 04-11-2008 22:46:30 8.7 C 8.04 g/m*3 8.7 C 0 km/h
344 04-11-2008 23:11:31 8.4 C 7.89 g/m*3 8.4 C 0 km/h
345 04-11-2008 23:36:31 9 C 8.2 g/m*3 9 C 0 km/h
346 05-11-2008 00:01:31 8.7 C 8.04 g/m*3 8.7 C 0 km/h
347 05-11-2008 00:26:31 8.7 C 8.04 g/m*3 8.7 C 0 km/h
348 05-11-2008 00:51:31 8.6 C 7.99 g/m*3 8.6 C 0 km/h
349 05-11-2008 01:16:31 8.7 C 8.04 g/m*3 8.7 C 0 km/h
350 05-11-2008 01:41:31 8.8 C 7.92 g/m*3 8.8 C 0 km/h
Sensor: Nr:Datum:Temp:Abs-Feuchte:Windchill:Wind:
Aussen-T/F 351 05-11-2008 02:06:31 8.7 C 7.7 g/m*3 8.7 C 0 km/h
352 05-11-2008 02:31:31 8.5 C 7.6 g/m*3 8.5 C 0 km/h
353 05-11-2008 02:56:31 8.4 C 7.55 g/m*3 8.4 C 0 km/h
354 05-11-2008 03:21:31 8.3 C 7.5 g/m*3 8.3 C 0 km/h
355 05-11-2008 03:46:31 8.4 C 7.55 g/m*3 8.4 C 0 km/h
356 05-11-2008 04:11:31 8.2 C 7.37 g/m*3 8.2 C 0 km/h
357 05-11-2008 04:36:31 7.9 C 7.39 g/m*3 7.9 C 0 km/h
358 05-11-2008 05:01:31 8.2 C 7.45 g/m*3 8.2 C 0 km/h
359 05-11-2008 05:26:31 8.4 C 7.55 g/m*3 8.4 C 0 km/h
360 05-11-2008 05:51:31 8.4 C 7.55 g/m*3 8.4 C 0 km/h
361 05-11-2008 06:16:31 8.4 C 7.38 g/m*3 8.4 C 0 km/h
362 05-11-2008 06:41:31 8.5 C 7.34 g/m*3 8.5 C 0 km/h
363 05-11-2008 07:06:31 8.4 C 7.21 g/m*3 8.4 C 0 km/h
364 05-11-2008 07:31:32 8.4 C 7.21 g/m*3 8.4 C 0 km/h
365 05-11-2008 07:56:32 8.5 C 7.26 g/m*3 8.5 C 0 km/h
366 05-11-2008 08:21:32 8.7 C 7.35 g/m*3 8.7 C 0 km/h
367 05-11-2008 08:46:32 8.9 C 7.45 g/m*3 8.9 C 0 km/h
368 05-11-2008 09:11:32 9.2 C 7.5 g/m*3 9.2 C 0 km/h
369 05-11-2008 09:36:32 9.8 C 7.79 g/m*3 9.8 C 0 km/h
370 05-11-2008 10:01:32 10 C 7.42 g/m*3 10 C 0 km/h
371 05-11-2008 10:26:32 10.7 C 7.46 g/m*3 10.7 C 0 km/h
372 05-11-2008 10:51:32 10.7 C 7.46 g/m*3 10.7 C 0 km/h
373 05-11-2008 11:16:32 10.9 C 7.46 g/m*3 10.9 C 0 km/h
374 05-11-2008 11:41:32 11 C 7.51 g/m*3 11 C 0 km/h
375 05-11-2008 12:06:32 11.1 C 7.45 g/m*3 11.1 C 0 km/h
Sensor: Nr:Datum:Temp:Abs-Feuchte:Windchill:Wind:
Aussen-T/F 376 05-11-2008 12:31:32 11 C 7.41 g/m*3 11 C 0 km/h
377 05-11-2008 12:56:32 10.8 C 7.51 g/m*3 10.8 C 0 km/h
378 05-11-2008 13:21:32 11 C 7.61 g/m*3 11 C 0 km/h
379 05-11-2008 13:46:32 11.2 C 7.6 g/m*3 11.2 C 0 km/h
380 05-11-2008 14:11:32 11.2 C 7.7 g/m*3 11.2 C 0 km/h
381 05-11-2008 14:36:32 11.4 C 7.8 g/m*3 11.4 C 0 km/h
382 05-11-2008 15:01:32 11.5 C 7.64 g/m*3 11.5 C 0 km/h
383 05-11-2008 15:26:33 11.5 C 7.64 g/m*3 11.5 C 0 km/h
384 05-11-2008 15:51:33 11.4 C 7.7 g/m*3 11.4 C 0 km/h
385 05-11-2008 16:16:33 11.1 C 7.66 g/m*3 11.1 C 0 km/h
386 05-11-2008 16:41:33 10.9 C 7.76 g/m*3 10.9 C 0 km/h
387 05-11-2008 17:06:33 10.7 C 7.66 g/m*3 10.7 C 0 km/h
388 05-11-2008 17:31:33 10.5 C 7.66 g/m*3 10.5 C 0 km/h
389 05-11-2008 17:56:33 10.5 C 7.76 g/m*3 10.5 C 0 km/h
390 05-11-2008 18:21:33 10.4 C 7.81 g/m*3 10.4 C 0 km/h
391 05-11-2008 18:46:33 10.4 C 7.81 g/m*3 10.4 C 0 km/h
392 05-11-2008 19:11:33 10.4 C 7.9 g/m*3 10.4 C 0 km/h
393 05-11-2008 19:36:33 10.3 C 7.85 g/m*3 10.3 C 0 km/h
394 05-11-2008 20:01:33 10.3 C 7.85 g/m*3 10.3 C 0 km/h
395 05-11-2008 20:26:33 10.3 C 7.95 g/m*3 10.3 C 0 km/h
396 05-11-2008 20:51:33 10.2 C 7.9 g/m*3 10.2 C 0 km/h
397 05-11-2008 21:16:33 10.2 C 7.9 g/m*3 10.2 C 0 km/h
398 05-11-2008 21:41:33 10.2 C 7.9 g/m*3 10.2 C 0 km/h
399 05-11-2008 22:06:33 10.2 C 7.9 g/m*3 10.2 C 0 km/h
400 05-11-2008 22:31:33 10.2 C 7.99 g/m*3 10.2 C 0 km/h
Sensor: Nr:Datum:Temp:Abs-Feuchte:Windchill:Wind:
Aussen-T/F 401 05-11-2008 22:56:33 10.2 C 7.99 g/m*3 10.2 C 0 km/h
402 05-11-2008 23:21:34 10.2 C 7.99 g/m*3 10.2 C 0 km/h
403 05-11-2008 23:46:34 10 C 7.99 g/m*3 10 C 0 km/h
404 06-11-2008 00:11:34 10 C 7.99 g/m*3 10 C 0 km/h
405 06-11-2008 00:36:34 10 C 7.99 g/m*3 10 C 0 km/h
406 06-11-2008 01:01:34 10 C 7.99 g/m*3 10 C 0 km/h
407 06-11-2008 01:26:34 9.9 C 8.12 g/m*3 9.9 C 0 km/h
408 06-11-2008 01:51:34 9.8 C 8.07 g/m*3 9.8 C 0 km/h
409 06-11-2008 02:16:34 9.8 C 7.98 g/m*3 9.8 C 0 km/h
410 06-11-2008 02:41:34 9.7 C 7.84 g/m*3 9.7 C 0 km/h
411 06-11-2008 03:06:34 9.5 C 7.74 g/m*3 9.5 C 0 km/h
412 06-11-2008 03:31:34 9.3 C 7.73 g/m*3 9.3 C 0 km/h
413 06-11-2008 03:56:34 8.9 C 7.62 g/m*3 8.9 C 0 km/h
414 06-11-2008 04:21:34 8.5 C 7.43 g/m*3 8.5 C 0 km/h
415 06-11-2008 04:46:34 8.6 C 7.48 g/m*3 8.6 C 0 km/h
416 06-11-2008 05:11:34 8.9 C 7.71 g/m*3 8.9 C 0 km/h
417 06-11-2008 05:36:34 9 C 7.58 g/m*3 9 C 0 km/h
418 06-11-2008 06:01:34 9 C 7.58 g/m*3 9 C 0 km/h
419 06-11-2008 06:26:34 9.3 C 7.64 g/m*3 9.3 C 0 km/h
420 06-11-2008 06:51:34 9.3 C 7.46 g/m*3 9.3 C 0 km/h
421 06-11-2008 07:16:34 9.3 C 7.46 g/m*3 9.3 C 0 km/h
422 06-11-2008 07:41:35 9.1 C 7.36 g/m*3 9.1 C 0 km/h
423 06-11-2008 08:06:35 9.4 C 7.51 g/m*3 9.4 C 0 km/h
424 06-11-2008 08:31:35 9.7 C 7.56 g/m*3 9.7 C 0 km/h
425 06-11-2008 08:56:35 10 C 7.42 g/m*3 10 C 0 km/h
Sensor: Nr:Datum:Temp:Abs-Feuchte:Windchill:Wind:
Aussen-T/F 426 06-11-2008 09:21:35 10.3 C 7.47 g/m*3 10.3 C 0 km/h
427 06-11-2008 09:46:35 10.6 C 7.12 g/m*3 10.6 C 0 km/h
428 06-11-2008 10:11:35 11 C 7.01 g/m*3 11 C 0 km/h
429 06-11-2008 10:36:35 11.3 C 7.04 g/m*3 11.3 C 0 km/h
430 06-11-2008 11:01:35 12.1 C 7.18 g/m*3 12.1 C 0 km/h
431 06-11-2008 11:26:35 12.4 C 7.1 g/m*3 12.4 C 0 km/h
432 06-11-2008 11:51:35 12.2 C 6.91 g/m*3 12.2 C 0 km/h
433 06-11-2008 12:16:35 12.2 C 6.91 g/m*3 12.2 C 0 km/h
434 06-11-2008 12:41:35 12.1 C 6.97 g/m*3 12.1 C 0 km/h
435 06-11-2008 13:06:35 12.6 C 7.08 g/m*3 12.6 C 0 km/h
436 06-11-2008 13:31:35 12.7 C 7.01 g/m*3 12.7 C 0 km/h
437 06-11-2008 13:56:35 12.4 C 7.1 g/m*3 12.4 C 0 km/h
438 06-11-2008 14:21:35 13 C 7.14 g/m*3 13 C 0 km/h
439 06-11-2008 14:46:35 13.1 C 6.96 g/m*3 13.1 C 0 km/h
440 06-11-2008 15:11:35 13 C 6.92 g/m*3 13 C 0 km/h
441 06-11-2008 15:36:36 12.6 C 6.97 g/m*3 12.6 C 0 km/h
442 06-11-2008 16:01:36 12.4 C 6.99 g/m*3 12.4 C 0 km/h
443 06-11-2008 16:26:36 11.8 C 6.95 g/m*3 11.8 C 0 km/h
444 06-11-2008 16:51:36 11.4 C 6.98 g/m*3 11.4 C 0 km/h
445 06-11-2008 17:16:36 11.1 C 6.95 g/m*3 11.1 C 0 km/h
446 06-11-2008 17:41:36 10.9 C 7.06 g/m*3 10.9 C 0 km/h
447 06-11-2008 18:06:36 10.1 C 6.9 g/m*3 10.1 C 0 km/h
448 06-11-2008 18:31:36 10.1 C 7 g/m*3 10.1 C 0 km/h
449 06-11-2008 18:56:36 10.2 C 7.04 g/m*3 10.2 C 0 km/h
450 06-11-2008 19:21:36 10.4 C 7.13 g/m*3 10.4 C 0 km/h
Sensor: Nr:Datum:Temp:Abs-Feuchte:Windchill:Wind:
Aussen-T/F 451 06-11-2008 19:46:36 10.3 C 7.09 g/m*3 10.3 C 0 km/h
452 06-11-2008 20:11:36 10.2 C 7.14 g/m*3 10.2 C 0 km/h
453 06-11-2008 20:36:36 10.3 C 7.28 g/m*3 10.3 C 0 km/h
454 06-11-2008 21:01:36 10.2 C 7.23 g/m*3 10.2 C 0 km/h
455 06-11-2008 21:26:36 10.4 C 7.23 g/m*3 10.4 C 0 km/h
456 06-11-2008 21:51:36 10.3 C 7.18 g/m*3 10.3 C 0 km/h
457 06-11-2008 22:16:36 10.2 C 7.33 g/m*3 10.2 C 0 km/h
458 06-11-2008 22:41:36 10.2 C 7.33 g/m*3 10.2 C 0 km/h
459 06-11-2008 23:06:36 10.1 C 7.28 g/m*3 10.1 C 0 km/h
460 06-11-2008 23:31:37 10.2 C 7.23 g/m*3 10.2 C 0 km/h
461 06-11-2008 23:56:37 10.2 C 7.23 g/m*3 10.2 C 0 km/h
462 07-11-2008 00:21:37 10.1 C 7.19 g/m*3 10.1 C 0 km/h
463 07-11-2008 00:46:37 10.1 C 7.19 g/m*3 10.1 C 0 km/h
464 07-11-2008 01:11:37 10 C 7.24 g/m*3 10 C 0 km/h
465 07-11-2008 01:36:37 10 C 7.24 g/m*3 10 C 0 km/h
466 07-11-2008 02:01:37 10 C 7.14 g/m*3 10 C 0 km/h
467 07-11-2008 02:26:37 10 C 7.14 g/m*3 10 C 0 km/h
468 07-11-2008 02:51:37 9.9 C 7.28 g/m*3 9.9 C 0 km/h
469 07-11-2008 03:16:37 9.9 C 7.19 g/m*3 9.9 C 0 km/h
470 07-11-2008 03:41:37 10 C 7.14 g/m*3 10 C 0 km/h
471 07-11-2008 04:06:37 10.2 C 7.14 g/m*3 10.2 C 0 km/h
472 07-11-2008 04:31:37 10.1 C 7.19 g/m*3 10.1 C 0 km/h
473 07-11-2008 04:56:37 10.3 C 7.28 g/m*3 10.3 C 0 km/h
474 07-11-2008 05:21:37 10.3 C 7.28 g/m*3 10.3 C 0 km/h
475 07-11-2008 05:46:37 10.2 C 7.23 g/m*3 10.2 C 0 km/h
Sensor: Nr:Datum:Temp:Abs-Feuchte:Windchill:Wind:
Aussen-T/F 476 07-11-2008 06:11:37 10.1 C 7.19 g/m*3 10.1 C 0 km/h
477 07-11-2008 06:36:37 10 C 7.14 g/m*3 10 C 0 km/h
478 07-11-2008 07:01:37 10.1 C 7.09 g/m*3 10.1 C 0 km/h
479 07-11-2008 07:26:38 10.1 C 7 g/m*3 10.1 C 0 km/h
480 07-11-2008 07:51:38 9.8 C 7.05 g/m*3 9.8 C 0 km/h
481 07-11-2008 08:16:38 9.6 C 7.15 g/m*3 9.6 C 0 km/h
482 07-11-2008 08:41:38 10.3 C 6.99 g/m*3 10.3 C 0 km/h
483 07-11-2008 09:06:38 10.8 C 7.02 g/m*3 10.8 C 0 km/h
484 07-11-2008 09:31:38 11 C 6.91 g/m*3 11 C 0 km/h
485 07-11-2008 09:56:38 11.1 C 6.95 g/m*3 11.1 C 0 km/h
486 07-11-2008 10:21:38 11.3 C 7.04 g/m*3 11.3 C 0 km/h
487 07-11-2008 10:46:38 11.2 C 6.89 g/m*3 11.2 C 0 km/h
488 07-11-2008 11:11:38 11.6 C 6.96 g/m*3 11.6 C 0 km/h
489 07-11-2008 11:36:38 12.2 C 6.91 g/m*3 12.2 C 0 km/h
490 07-11-2008 12:01:38 12.7 C 6.9 g/m*3 12.7 C 0 km/h
491 07-11-2008 12:26:38 13.1 C 6.85 g/m*3 13.1 C 0 km/h
492 07-11-2008 12:51:38 13.2 C 6.77 g/m*3 13.2 C 0 km/h
493 07-11-2008 13:16:38 13.8 C 6.91 g/m*3 13.8 C 0 km/h
494 07-11-2008 13:41:38 13.6 C 6.71 g/m*3 13.6 C 0 km/h
495 07-11-2008 14:06:38 13.8 C 7.03 g/m*3 13.8 C 0 km/h
496 07-11-2008 14:31:38 14.5 C 7.09 g/m*3 14.5 C 0 km/h
497 07-11-2008 14:56:38 14 C 7 g/m*3 14 C 0 km/h
498 07-11-2008 15:21:38 13.8 C 7.27 g/m*3 13.8 C 0 km/h
499 07-11-2008 15:46:39 13.5 C 7.37 g/m*3 13.5 C 0 km/h
500 07-11-2008 16:11:39 13.1 C 7.3 g/m*3 13.1 C 0 km/h
Sensor: Nr:Datum:Temp:Abs-Feuchte:Windchill:Wind:
Aussen-T/F 501 07-11-2008 16:36:39 12.7 C 7.57 g/m*3 12.7 C 0 km/h
502 07-11-2008 17:01:39 12.4 C 7.43 g/m*3 12.4 C 0 km/h
503 07-11-2008 17:26:39 11.8 C 7.26 g/m*3 11.8 C 0 km/h
504 07-11-2008 17:51:39 11.1 C 7.15 g/m*3 11.1 C 0 km/h
505 07-11-2008 18:16:39 10.4 C 7.23 g/m*3 10.4 C 0 km/h
506 07-11-2008 18:41:39 10.4 C 7.42 g/m*3 10.4 C 0 km/h
507 07-11-2008 19:06:39 10.7 C 7.56 g/m*3 10.7 C 0 km/h
508 07-11-2008 19:31:39 10.6 C 7.32 g/m*3 10.6 C 0 km/h
509 07-11-2008 19:56:39 10 C 7.33 g/m*3 10 C 0 km/h
510 07-11-2008 20:21:39 9.9 C 7.56 g/m*3 9.9 C 0 km/h
511 07-11-2008 20:46:39 9.5 C 7.37 g/m*3 9.5 C 0 km/h
512 07-11-2008 21:11:39 9.1 C 7.36 g/m*3 9.1 C 0 km/h
513 07-11-2008 21:36:39 8.7 C 7.44 g/m*3 8.7 C 0 km/h
514 07-11-2008 22:01:39 8.4 C 7.38 g/m*3 8.4 C 0 km/h
515 07-11-2008 22:26:39 7.9 C 7.31 g/m*3 7.9 C 0 km/h
516 07-11-2008 22:51:39 7.5 C 7.12 g/m*3 7.5 C 0 km/h
517 07-11-2008 23:16:39 7.3 C 7.03 g/m*3 7.3 C 0 km/h
518 07-11-2008 23:41:40 7.3 C 7.11 g/m*3 7.3 C 0 km/h
519 08-11-2008 00:06:40 7.3 C 7.19 g/m*3 7.3 C 0 km/h
520 08-11-2008 00:31:40 6.9 C 7.08 g/m*3 6.9 C 0 km/h
521 08-11-2008 00:56:40 7.1 C 7.18 g/m*3 7.1 C 0 km/h
522 08-11-2008 01:21:40 7 C 7.13 g/m*3 7 C 0 km/h
523 08-11-2008 01:46:40 7.2 C 7.3 g/m*3 7.2 C 0 km/h
524 08-11-2008 02:11:40 7.3 C 7.35 g/m*3 7.3 C 0 km/h
525 08-11-2008 02:36:40 7.5 C 7.44 g/m*3 7.5 C 0 km/h
Sensor: Nr:Datum:Temp:Abs-Feuchte:Windchill:Wind:
Aussen-T/F 526 08-11-2008 03:01:40 7.8 C 7.59 g/m*3 7.8 C 0 km/h
527 08-11-2008 03:26:40 7.9 C 7.56 g/m*3 7.9 C 0 km/h
528 08-11-2008 03:51:40 8.1 C 7.57 g/m*3 8.1 C 0 km/h
529 08-11-2008 04:16:40 8.2 C 7.62 g/m*3 8.2 C 0 km/h
530 08-11-2008 04:41:40 8.3 C 7.67 g/m*3 8.3 C 0 km/h
531 08-11-2008 05:06:40 8.3 C 7.59 g/m*3 8.3 C 0 km/h
532 08-11-2008 05:31:40 8 C 7.44 g/m*3 8 C 0 km/h
533 08-11-2008 05:56:40 8.6 C 7.82 g/m*3 8.6 C 0 km/h
534 08-11-2008 06:21:40 8.6 C 7.65 g/m*3 8.6 C 0 km/h
535 08-11-2008 06:46:40 8.5 C 7.6 g/m*3 8.5 C 0 km/h
536 08-11-2008 07:11:40 8.5 C 7.77 g/m*3 8.5 C 0 km/h
537 08-11-2008 07:36:41 8 C 7.52 g/m*3 8 C 0 km/h
538 08-11-2008 08:01:41 7.9 C 7.64 g/m*3 7.9 C 0 km/h
539 08-11-2008 08:26:41 7.3 C 7.27 g/m*3 7.3 C 0 km/h
540 08-11-2008 08:51:41 7.2 C 7.3 g/m*3 7.2 C 0 km/h
541 08-11-2008 09:16:41 7.6 C 7.57 g/m*3 7.6 C 0 km/h
542 08-11-2008 09:41:41 8.2 C 7.87 g/m*3 8.2 C 0 km/h
543 08-11-2008 10:06:41 8.7 C 8.13 g/m*3 8.7 C 0 km/h
544 08-11-2008 10:31:41 8.9 C 7.88 g/m*3 8.9 C 0 km/h
545 08-11-2008 10:56:41 9.3 C 7.28 g/m*3 9.3 C 0 km/h
546 08-11-2008 11:21:41 9.7 C 6.36 g/m*3 9.7 C 0 km/h
547 08-11-2008 11:46:41 10.3 C 6.03 g/m*3 10.3 C 0 km/h
548 08-11-2008 12:11:41 10.9 C 5.97 g/m*3 10.9 C 0 km/h
549 08-11-2008 12:36:41 11.7 C 5.86 g/m*3 11.7 C 0 km/h
550 08-11-2008 13:01:41 12.2 C 5.4 g/m*3 12.2 C 0 km/h
Sensor: Nr:Datum:Temp:Abs-Feuchte:Windchill:Wind:
Aussen-T/F 551 08-11-2008 13:26:41 12.4 C 5.14 g/m*3 12.4 C 0 km/h
552 08-11-2008 13:51:01 12 C 5.33 g/m*3 12 C 0 km/h
553 08-11-2008 14:16:01 11.9 C 5.51 g/m*3 11.9 C 0 km/h
554 08-11-2008 14:41:01 12 C 5.44 g/m*3 12 C 0 km/h
555 08-11-2008 15:06:02 11.8 C 5.79 g/m*3 11.8 C 0 km/h
556 08-11-2008 15:31:02 12 C 5.86 g/m*3 12 C 0 km/h
557 08-11-2008 15:56:02 11.2 C 5.98 g/m*3 11.2 C 0 km/h
558 08-11-2008 16:21:02 10.2 C 5.8 g/m*3 10.2 C 0 km/h
559 08-11-2008 16:46:02 9.5 C 6.01 g/m*3 9.5 C 0 km/h
560 08-11-2008 17:11:02 8.8 C 6.09 g/m*3 8.8 C 0 km/h
561 08-11-2008 17:36:02 8.2 C 6.03 g/m*3 8.2 C 0 km/h
562 08-11-2008 18:01:02 7.7 C 6.08 g/m*3 7.7 C 0 km/h
563 08-11-2008 18:26:01 7.4 C 6.04 g/m*3 7.4 C 0 km/h
564 08-11-2008 18:51:01 7.2 C 6.12 g/m*3 7.2 C 0 km/h
565 08-11-2008 19:16:02 6.8 C 6.12 g/m*3 6.8 C 0 km/h
566 08-11-2008 19:41:02 6.5 C 6.15 g/m*3 6.5 C 0 km/h
567 08-11-2008 20:06:02 6.1 C 5.99 g/m*3 6.1 C 0 km/h
568 08-11-2008 20:31:02 5.8 C 6.02 g/m*3 5.8 C 0 km/h
569 08-11-2008 20:56:02 5.6 C 6.08 g/m*3 5.6 C 0 km/h
570 08-11-2008 21:21:02 5.3 C 5.96 g/m*3 5.3 C 0 km/h
571 08-11-2008 21:46:02 5.2 C 6.06 g/m*3 5.2 C 0 km/h
572 08-11-2008 22:11:03 5.1 C 6.02 g/m*3 5.1 C 0 km/h
573 08-11-2008 22:36:03 4.7 C 6 g/m*3 4.7 C 0 km/h
574 08-11-2008 23:01:02 4.9 C 6.14 g/m*3 4.9 C 0 km/h
575 08-11-2008 23:26:02 5.3 C 6.38 g/m*3 5.3 C 0 km/h
Sensor: Nr:Datum:Temp:Abs-Feuchte:Windchill:Wind:
Aussen-T/F 576 08-11-2008 23:50:02 5.8 C 6.66 g/m*3 5.8 C 0 km/h
577 09-11-2008 00:02:03 6.4 C 6.85 g/m*3 6.4 C 0 km/h
578 09-11-2008 00:14:03 6.7 C 6.84 g/m*3 6.7 C 0 km/h
579 09-11-2008 00:26:03 6.7 C 6.76 g/m*3 6.7 C 0 km/h
580 09-11-2008 00:38:03 7 C 6.74 g/m*3 7 C 0 km/h
581 09-11-2008 00:50:02 7 C 6.59 g/m*3 7 C 0 km/h
582 09-11-2008 01:02:03 6.6 C 6.42 g/m*3 6.6 C 0 km/h
583 09-11-2008 01:14:03 6.7 C 6.53 g/m*3 6.7 C 0 km/h
584 09-11-2008 01:26:02 6.5 C 6.37 g/m*3 6.5 C 0 km/h
585 09-11-2008 01:38:03 6.5 C 6.45 g/m*3 6.5 C 0 km/h
586 09-11-2008 01:50:02 6.4 C 6.41 g/m*3 6.4 C 0 km/h
587 09-11-2008 02:02:01 7.1 C 6.63 g/m*3 7.1 C 0 km/h
588 09-11-2008 02:14:01 7.5 C 6.56 g/m*3 7.5 C 0 km/h
589 09-11-2008 02:26:02 7.3 C 6.4 g/m*3 7.3 C 0 km/h
590 09-11-2008 02:38:01 7.6 C 6.53 g/m*3 7.6 C 0 km/h
591 09-11-2008 02:50:01 7.5 C 6.32 g/m*3 7.5 C 0 km/h
592 09-11-2008 03:02:01 7.7 C 6.49 g/m*3 7.7 C 0 km/h
593 09-11-2008 03:14:02 8 C 6.45 g/m*3 8 C 0 km/h
594 09-11-2008 03:26:02 8 C 6.45 g/m*3 8 C 0 km/h
595 09-11-2008 03:38:01 8.2 C 6.53 g/m*3 8.2 C 0 km/h
596 09-11-2008 03:50:01 8.8 C 6.61 g/m*3 8.8 C 0 km/h
597 09-11-2008 04:02:01 9.3 C 6.56 g/m*3 9.3 C 0 km/h
598 09-11-2008 04:14:01 9.4 C 6.51 g/m*3 9.4 C 0 km/h
599 09-11-2008 04:26:01 9.6 C 6.5 g/m*3 9.6 C 0 km/h
600 09-11-2008 04:38:01 9.3 C 6.47 g/m*3 9.3 C 0 km/h
Sensor: Nr:Datum:Temp:Abs-Feuchte:Windchill:Wind:
Aussen-T/F 601 09-11-2008 04:50:02 9.3 C 6.56 g/m*3 9.3 C 0 km/h
602 09-11-2008 05:02:01 9.2 C 6.52 g/m*3 9.2 C 0 km/h
603 09-11-2008 05:14:01 9.6 C 6.6 g/m*3 9.6 C 0 km/h
604 09-11-2008 05:26:02 9.7 C 6.64 g/m*3 9.7 C 0 km/h
605 09-11-2008 05:38:01 9.7 C 6.64 g/m*3 9.7 C 0 km/h
606 09-11-2008 05:50:02 9.6 C 6.6 g/m*3 9.6 C 0 km/h
607 09-11-2008 06:02:01 9.6 C 6.69 g/m*3 9.6 C 0 km/h
608 09-11-2008 06:14:01 9.6 C 6.6 g/m*3 9.6 C 0 km/h
609 09-11-2008 06:26:02 9.8 C 6.68 g/m*3 9.8 C 0 km/h
610 09-11-2008 06:38:01 9.7 C 6.64 g/m*3 9.7 C 0 km/h
611 09-11-2008 06:50:02 9.7 C 6.64 g/m*3 9.7 C 0 km/h
612 09-11-2008 07:02:01 9.9 C 6.82 g/m*3 9.9 C 0 km/h
613 09-11-2008 07:14:01 10 C 6.77 g/m*3 10 C 0 km/h
614 09-11-2008 07:26:02 9.8 C 6.87 g/m*3 9.8 C 0 km/h
615 09-11-2008 07:38:01 9.4 C 7.15 g/m*3 9.4 C 0 km/h
616 09-11-2008 07:50:01 9.2 C 7.41 g/m*3 9.2 C 0 km/h
617 09-11-2008 08:02:01 9.3 C 7.64 g/m*3 9.3 C 0 km/h
618 09-11-2008 08:14:01 9.1 C 7.72 g/m*3 9.1 C 0 km/h
619 09-11-2008 08:26:01 9.3 C 7.82 g/m*3 9.3 C 0 km/h
620 09-11-2008 08:38:01 9.4 C 7.96 g/m*3 9.4 C 0 km/h
621 09-11-2008 08:50:01 9.4 C 7.96 g/m*3 9.4 C 0 km/h
622 09-11-2008 09:02:02 9.6 C 8.15 g/m*3 9.6 C 0 km/h
623 09-11-2008 09:14:02 9.6 C 8.15 g/m*3 9.6 C 0 km/h
624 09-11-2008 09:26:01 9.7 C 8.2 g/m*3 9.7 C 0 km/h
625 09-11-2008 09:38:01 9.7 C 8.2 g/m*3 9.7 C 0 km/h
Sensor: Nr:Datum:Temp:Abs-Feuchte:Windchill:Wind:
Aussen-T/F 626 09-11-2008 09:50:01 9.8 C 8.35 g/m*3 9.8 C 0 km/h
627 09-11-2008 10:02:02 9.7 C 8.3 g/m*3 9.7 C 0 km/h
628 09-11-2008 10:14:02 9.7 C 8.3 g/m*3 9.7 C 0 km/h
629 09-11-2008 10:26:01 9.7 C 8.39 g/m*3 9.7 C 0 km/h
630 09-11-2008 10:38:02 9.8 C 8.44 g/m*3 9.8 C 0 km/h
631 09-11-2008 10:50:01 9.8 C 8.54 g/m*3 9.8 C 0 km/h
632 09-11-2008 11:02:02 9.8 C 8.54 g/m*3 9.8 C 0 km/h
633 09-11-2008 11:14:02 9.9 C 8.59 g/m*3 9.9 C 0 km/h
634 09-11-2008 11:26:01 10.1 C 8.7 g/m*3 10.1 C 0 km/h
635 09-11-2008 11:38:02 10.3 C 8.81 g/m*3 10.3 C 0 km/h
636 09-11-2008 11:50:02 10.3 C 8.81 g/m*3 10.3 C 0 km/h
637 09-11-2008 12:02:02 10.4 C 8.87 g/m*3 10.4 C 0 km/h
638 09-11-2008 12:14:02 10.7 C 9.04 g/m*3 10.7 C 0 km/h
639 09-11-2008 12:26:02 11 C 9.11 g/m*3 11 C 0 km/h
640 09-11-2008 12:38:02 10.8 C 8.99 g/m*3 10.8 C 0 km/h
641 09-11-2008 12:50:02 10.9 C 9.05 g/m*3 10.9 C 0 km/h
642 09-11-2008 13:02:02 10.6 C 8.69 g/m*3 10.6 C 0 km/h
643 09-11-2008 13:14:02 10.5 C 8.44 g/m*3 10.5 C 0 km/h
644 09-11-2008 13:26:02 10.6 C 8.39 g/m*3 10.6 C 0 km/h
645 09-11-2008 13:38:02 10.3 C 8.24 g/m*3 10.3 C 0 km/h
646 09-11-2008 13:50:02 9.8 C 7.61 g/m*3 9.8 C 0 km/h
647 09-11-2008 14:02:02 9.5 C 7.1 g/m*3 9.5 C 0 km/h
648 09-11-2008 14:14:02 9.7 C 7.19 g/m*3 9.7 C 0 km/h
649 09-11-2008 14:26:01 9.5 C 7.28 g/m*3 9.5 C 0 km/h
650 09-11-2008 14:38:02 9.6 C 7.51 g/m*3 9.6 C 0 km/h
Sensor: Nr:Datum:Temp:Abs-Feuchte:Windchill:Wind:
Aussen-T/F 651 09-11-2008 14:50:01 9.7 C 7.56 g/m*3 9.7 C 0 km/h
652 09-11-2008 15:02:01 9.8 C 7.24 g/m*3 9.8 C 0 km/h
653 09-11-2008 15:14:01 10.1 C 6.9 g/m*3 10.1 C 0 km/h
654 09-11-2008 15:26:02 10 C 6.95 g/m*3 10 C 0 km/h
655 09-11-2008 15:38:02 10.1 C 6.9 g/m*3 10.1 C 0 km/h
656 09-11-2008 15:50:01 9.9 C 7 g/m*3 9.9 C 0 km/h
657 09-11-2008 16:02:03 9.8 C 7.14 g/m*3 9.8 C 0 km/h
658 09-11-2008 16:14:03 9.6 C 7.15 g/m*3 9.6 C 0 km/h
659 09-11-2008 16:26:01 9.4 C 7.15 g/m*3 9.4 C 0 km/h
660 09-11-2008 16:38:02 9.2 C 7.23 g/m*3 9.2 C 0 km/h
661 09-11-2008 16:50:02 9.1 C 7.19 g/m*3 9.1 C 0 km/h
662 09-11-2008 17:02:02 9.1 C 7.19 g/m*3 9.1 C 0 km/h
663 09-11-2008 17:14:02 9 C 7.14 g/m*3 9 C 0 km/h
664 09-11-2008 17:26:02 8.8 C 7.22 g/m*3 8.8 C 0 km/h
665 09-11-2008 17:38:03 8.7 C 7.26 g/m*3 8.7 C 0 km/h
666 09-11-2008 17:50:02 8.7 C 7.26 g/m*3 8.7 C 0 km/h
667 09-11-2008 18:02:02 8.6 C 7.22 g/m*3 8.6 C 0 km/h
668 09-11-2008 18:14:02 8.5 C 7 g/m*3 8.5 C 0 km/h
669 09-11-2008 18:26:02 8.1 C 6.82 g/m*3 8.1 C 0 km/h
670 09-11-2008 18:38:02 7.9 C 6.82 g/m*3 7.9 C 0 km/h
671 09-11-2008 18:50:01 7.8 C 6.77 g/m*3 7.8 C 0 km/h
672 09-11-2008 19:02:02 7.6 C 6.69 g/m*3 7.6 C 0 km/h
673 09-11-2008 19:14:02 7.4 C 6.68 g/m*3 7.4 C 0 km/h
674 09-11-2008 19:26:03 7.4 C 6.76 g/m*3 7.4 C 0 km/h
675 09-11-2008 19:38:03 7.3 C 6.72 g/m*3 7.3 C 0 km/h
Sensor: Nr:Datum:Temp:Abs-Feuchte:Windchill:Wind:
Aussen-T/F 676 09-11-2008 19:50:02 7.4 C 6.84 g/m*3 7.4 C 0 km/h
677 09-11-2008 20:02:02 7.5 C 6.8 g/m*3 7.5 C 0 km/h
678 09-11-2008 20:14:02 7.4 C 6.76 g/m*3 7.4 C 0 km/h
679 09-11-2008 20:26:01 7.6 C 6.93 g/m*3 7.6 C 0 km/h
680 09-11-2008 20:38:02 7.4 C 6.76 g/m*3 7.4 C 0 km/h
681 09-11-2008 20:50:02 7.4 C 6.92 g/m*3 7.4 C 0 km/h
682 09-11-2008 21:02:01 7.6 C 7.01 g/m*3 7.6 C 0 km/h
683 09-11-2008 21:14:01 7.7 C 7.14 g/m*3 7.7 C 0 km/h
684 09-11-2008 21:26:02 7.9 C 7.23 g/m*3 7.9 C 0 km/h
685 09-11-2008 21:38:01 7.9 C 7.23 g/m*3 7.9 C 0 km/h
686 09-11-2008 21:50:02 7.9 C 7.31 g/m*3 7.9 C 0 km/h
687 09-11-2008 22:02:01 7.9 C 7.31 g/m*3 7.9 C 0 km/h
688 09-11-2008 22:14:01 7.8 C 7.35 g/m*3 7.8 C 0 km/h
689 09-11-2008 22:26:02 8 C 7.44 g/m*3 8 C 0 km/h
690 09-11-2008 22:38:01 8.3 C 7.67 g/m*3 8.3 C 0 km/h
691 09-11-2008 22:50:01 8.5 C 7.77 g/m*3 8.5 C 0 km/h
692 09-11-2008 23:02:01 8.5 C 7.77 g/m*3 8.5 C 0 km/h
693 09-11-2008 23:14:01 8.9 C 8.06 g/m*3 8.9 C 0 km/h
694 09-11-2008 23:26:01 9.3 C 8.27 g/m*3 9.3 C 0 km/h
695 09-11-2008 23:38:01 10.1 C 8.7 g/m*3 10.1 C 0 km/h
696 09-11-2008 23:50:01 11.4 C 9.34 g/m*3 11.4 C 0 km/h
697 10-11-2008 00:02:02 12 C 8.95 g/m*3 12 C 0 km/h
698 10-11-2008 00:14:02 12.1 C 8.69 g/m*3 12.1 C 0 km/h
699 10-11-2008 00:26:02 12.3 C 8.58 g/m*3 12.3 C 0 km/h
700 10-11-2008 00:38:02 12.3 C 8.58 g/m*3 12.3 C 0 km/h
Sensor: Nr:Datum:Temp:Abs-Feuchte:Windchill:Wind:
Aussen-T/F 701 10-11-2008 00:50:01 12.6 C 8.41 g/m*3 12.6 C 0 km/h
702 10-11-2008 01:02:02 12.9 C 8.34 g/m*3 12.9 C 0 km/h
703 10-11-2008 01:14:02 13 C 8.05 g/m*3 13 C 0 km/h
704 10-11-2008 01:26:01 13 C 7.94 g/m*3 13 C 0 km/h
705 10-11-2008 01:38:02 13 C 7.83 g/m*3 13 C 0 km/h
706 10-11-2008 01:50:02 13.1 C 7.53 g/m*3 13.1 C 0 km/h
707 10-11-2008 02:02:01 13 C 7.48 g/m*3 13 C 0 km/h
708 10-11-2008 02:14:01 13 C 7.48 g/m*3 13 C 0 km/h
709 10-11-2008 02:26:02 12.9 C 7.55 g/m*3 12.9 C 0 km/h
710 10-11-2008 02:38:01 12.5 C 7.81 g/m*3 12.5 C 0 km/h
711 10-11-2008 02:51:05 12 C 7.99 g/m*3 12 C 0 km/h
712 10-11-2008 03:03:05 11.8 C 8.21 g/m*3 11.8 C 0 km/h
713 10-11-2008 03:15:05 11.2 C 8.51 g/m*3 11.2 C 0 km/h
714 10-11-2008 03:27:05 11.1 C 8.66 g/m*3 11.1 C 0 km/h
715 10-11-2008 03:39:02 11.3 C 8.67 g/m*3 11.3 C 0 km/h
716 10-11-2008 03:51:02 11.6 C 8.52 g/m*3 11.6 C 0 km/h
717 10-11-2008 04:03:03 11.8 C 8.31 g/m*3 11.8 C 0 km/h
718 10-11-2008 04:15:02 11.9 C 8.26 g/m*3 11.9 C 0 km/h
719 10-11-2008 04:27:02 12 C 8.21 g/m*3 12 C 0 km/h
720 10-11-2008 04:39:03 12.3 C 8.25 g/m*3 12.3 C 0 km/h
721 10-11-2008 04:51:02 12.5 C 8.14 g/m*3 12.5 C 0 km/h
722 10-11-2008 05:03:02 12.5 C 8.14 g/m*3 12.5 C 0 km/h
723 10-11-2008 05:15:02 12.6 C 8.08 g/m*3 12.6 C 0 km/h
724 10-11-2008 05:27:02 12.8 C 8.06 g/m*3 12.8 C 0 km/h
725 10-11-2008 05:39:02 12.9 C 8 g/m*3 12.9 C 0 km/h
Sensor: Nr:Datum:Temp:Abs-Feuchte:Windchill:Wind:
Aussen-T/F 726 10-11-2008 05:51:01 13 C 7.83 g/m*3 13 C 0 km/h
727 10-11-2008 06:03:02 13 C 7.83 g/m*3 13 C 0 km/h
728 10-11-2008 06:15:02 13 C 7.83 g/m*3 13 C 0 km/h
729 10-11-2008 06:27:02 13 C 7.83 g/m*3 13 C 0 km/h
730 10-11-2008 06:39:02 13.1 C 7.76 g/m*3 13.1 C 0 km/h
731 10-11-2008 06:51:02 13 C 7.71 g/m*3 13 C 0 km/h
732 10-11-2008 07:03:02 13.1 C 7.76 g/m*3 13.1 C 0 km/h
733 10-11-2008 07:15:02 13.3 C 7.74 g/m*3 13.3 C 0 km/h
734 10-11-2008 07:27:02 13.2 C 7.69 g/m*3 13.2 C 0 km/h
735 10-11-2008 07:39:02 13.1 C 7.87 g/m*3 13.1 C 0 km/h
736 10-11-2008 07:51:02 12.8 C 8.18 g/m*3 12.8 C 0 km/h
737 10-11-2008 08:03:03 12.7 C 8.24 g/m*3 12.7 C 0 km/h
738 10-11-2008 08:15:02 13 C 8.28 g/m*3 13 C 0 km/h
739 10-11-2008 08:27:02 13 C 8.28 g/m*3 13 C 0 km/h
740 10-11-2008 08:39:03 12.8 C 8.4 g/m*3 12.8 C 0 km/h
741 10-11-2008 08:51:02 13 C 8.39 g/m*3 13 C 0 km/h
742 10-11-2008 09:03:01 13 C 8.28 g/m*3 13 C 0 km/h
743 10-11-2008 09:15:02 13 C 8.28 g/m*3 13 C 0 km/h
744 10-11-2008 09:27:03 13.2 C 8.27 g/m*3 13.2 C 0 km/h
745 10-11-2008 09:39:01 13.4 C 8.14 g/m*3 13.4 C 0 km/h
746 10-11-2008 09:51:02 13.5 C 8.07 g/m*3 13.5 C 0 km/h
747 10-11-2008 10:03:01 13.7 C 8.05 g/m*3 13.7 C 0 km/h
748 10-11-2008 10:15:02 13.7 C 7.93 g/m*3 13.7 C 0 km/h
749 10-11-2008 10:27:02 13.7 C 7.93 g/m*3 13.7 C 0 km/h
750 10-11-2008 10:39:01 13.8 C 7.98 g/m*3 13.8 C 0 km/h
Sensor: Nr:Datum:Temp:Abs-Feuchte:Windchill:Wind:
Aussen-T/F 751 10-11-2008 10:51:01 14 C 7.96 g/m*3 14 C 0 km/h
752 10-11-2008 11:03:01 14 C 8.08 g/m*3 14 C 0 km/h
753 10-11-2008 11:15:01 13.8 C 8.22 g/m*3 13.8 C 0 km/h
754 10-11-2008 11:27:01 14 C 8.2 g/m*3 14 C 0 km/h
755 10-11-2008 11:39:01 14.2 C 8.06 g/m*3 14.2 C 0 km/h
756 10-11-2008 11:51:01 14.4 C 8.03 g/m*3 14.4 C 0 km/h
757 10-11-2008 12:03:02 14.7 C 7.93 g/m*3 14.7 C 0 km/h
758 10-11-2008 12:15:02 15.2 C 7.92 g/m*3 15.2 C 0 km/h
759 10-11-2008 12:27:02 15 C 7.82 g/m*3 15 C 0 km/h
760 10-11-2008 12:39:02 15.1 C 7.87 g/m*3 15.1 C 0 km/h
761 10-11-2008 12:51:02 14.9 C 7.9 g/m*3 14.9 C 0 km/h
762 10-11-2008 13:03:01 14.9 C 7.77 g/m*3 14.9 C 0 km/h
763 10-11-2008 13:15:02 15 C 7.69 g/m*3 15 C 0 km/h
764 10-11-2008 13:27:02 14.7 C 7.81 g/m*3 14.7 C 0 km/h
765 10-11-2008 13:39:02 14.8 C 7.85 g/m*3 14.8 C 0 km/h
766 10-11-2008 13:51:02 14.9 C 7.77 g/m*3 14.9 C 0 km/h
767 10-11-2008 14:03:02 15.3 C 7.84 g/m*3 15.3 C 0 km/h
768 10-11-2008 14:15:02 15.3 C 7.57 g/m*3 15.3 C 0 km/h
769 10-11-2008 14:27:02 15.1 C 7.74 g/m*3 15.1 C 0 km/h
770 10-11-2008 14:39:02 15 C 7.82 g/m*3 15 C 0 km/h
771 10-11-2008 14:51:02 14.8 C 7.85 g/m*3 14.8 C 0 km/h
772 10-11-2008 15:03:01 14.8 C 7.73 g/m*3 14.8 C 0 km/h
773 10-11-2008 15:15:02 14.8 C 7.73 g/m*3 14.8 C 0 km/h
774 10-11-2008 15:27:03 14.8 C 7.73 g/m*3 14.8 C 0 km/h
775 10-11-2008 15:39:01 14.9 C 7.77 g/m*3 14.9 C 0 km/h
Sensor: Nr:Datum:Temp:Abs-Feuchte:Windchill:Wind:
Aussen-T/F 776 10-11-2008 15:51:03 14.8 C 7.73 g/m*3 14.8 C 0 km/h
777 10-11-2008 16:03:02 14.8 C 7.73 g/m*3 14.8 C 0 km/h
778 10-11-2008 16:15:03 14.8 C 7.73 g/m*3 14.8 C 0 km/h
779 10-11-2008 16:27:03 14.7 C 7.81 g/m*3 14.7 C 0 km/h
780 10-11-2008 16:39:02 14.6 C 7.76 g/m*3 14.6 C 0 km/h
781 10-11-2008 16:51:02 14.5 C 7.84 g/m*3 14.5 C 0 km/h
782 10-11-2008 17:03:02 14.5 C 7.71 g/m*3 14.5 C 0 km/h
783 10-11-2008 17:15:02 14.6 C 7.63 g/m*3 14.6 C 0 km/h
784 10-11-2008 17:27:02 14.7 C 7.55 g/m*3 14.7 C 0 km/h
785 10-11-2008 17:39:02 14.7 C 7.55 g/m*3 14.7 C 0 km/h
786 10-11-2008 17:51:01 14.9 C 7.65 g/m*3 14.9 C 0 km/h
787 10-11-2008 18:03:02 15.1 C 7.48 g/m*3 15.1 C 0 km/h
788 10-11-2008 18:15:01 15.2 C 7.4 g/m*3 15.2 C 0 km/h
789 10-11-2008 18:27:01 15.2 C 7.4 g/m*3 15.2 C 0 km/h
790 10-11-2008 18:39:02 14.9 C 7.39 g/m*3 14.9 C 0 km/h
791 10-11-2008 18:51:02 15.1 C 7.22 g/m*3 15.1 C 0 km/h
792 10-11-2008 19:03:03 15.1 C 7.1 g/m*3 15.1 C 0 km/h
793 10-11-2008 19:15:02 15.2 C 7.14 g/m*3 15.2 C 0 km/h
794 10-11-2008 19:27:02 15 C 7.05 g/m*3 15 C 0 km/h
795 10-11-2008 19:39:03 15.1 C 7.1 g/m*3 15.1 C 0 km/h
796 10-11-2008 19:51:02 15.2 C 7.14 g/m*3 15.2 C 0 km/h
797 10-11-2008 20:03:02 15.1 C 7.22 g/m*3 15.1 C 0 km/h
798 10-11-2008 20:15:02 15.3 C 7.31 g/m*3 15.3 C 0 km/h
799 10-11-2008 20:27:02 15.3 C 7.31 g/m*3 15.3 C 0 km/h
800 10-11-2008 20:39:02 15.3 C 7.31 g/m*3 15.3 C 0 km/h
Sensor: Nr:Datum:Temp:Abs-Feuchte:Windchill:Wind:
Aussen-T/F 801 10-11-2008 20:51:02 15.4 C 7.36 g/m*3 15.4 C 0 km/h
802 10-11-2008 21:03:02 15.5 C 7.53 g/m*3 15.5 C 0 km/h
803 10-11-2008 21:15:02 15.5 C 7.53 g/m*3 15.5 C 0 km/h
804 10-11-2008 21:27:02 15.6 C 7.58 g/m*3 15.6 C 0 km/h
805 10-11-2008 21:39:02 15.4 C 7.75 g/m*3 15.4 C 0 km/h
806 10-11-2008 21:51:01 15.2 C 8.05 g/m*3 15.2 C 0 km/h
807 10-11-2008 22:03:02 15.3 C 7.97 g/m*3 15.3 C 0 km/h
808 10-11-2008 22:15:02 15.2 C 8.05 g/m*3 15.2 C 0 km/h
809 10-11-2008 22:27:02 15.5 C 7.93 g/m*3 15.5 C 0 km/h
810 10-11-2008 22:39:02 15.7 C 7.63 g/m*3 15.7 C 0 km/h
811 10-11-2008 22:52:02 15.8 C 7.67 g/m*3 15.8 C 0 km/h
812 10-11-2008 23:04:02 15.8 C 7.54 g/m*3 15.8 C 0 km/h
813 10-11-2008 23:16:02 15.9 C 7.58 g/m*3 15.9 C 0 km/h
814 10-11-2008 23:28:02 15.8 C 7.54 g/m*3 15.8 C 0 km/h
815 10-11-2008 23:40:02 15.8 C 7.54 g/m*3 15.8 C 0 km/h
816 10-11-2008 23:52:02 16 C 7.49 g/m*3 16 C 0 km/h
817 11-11-2008 00:04:02 16 C 7.49 g/m*3 16 C 0 km/h
818 11-11-2008 00:16:02 16 C 7.49 g/m*3 16 C 0 km/h
819 11-11-2008 00:28:02 15.8 C 7.67 g/m*3 15.8 C 0 km/h
820 11-11-2008 00:40:02 15.9 C 7.58 g/m*3 15.9 C 0 km/h
821 11-11-2008 00:52:02 16 C 7.49 g/m*3 16 C 0 km/h
822 11-11-2008 01:04:02 16.1 C 7.4 g/m*3 16.1 C 0 km/h
823 11-11-2008 01:16:02 16.1 C 7.4 g/m*3 16.1 C 0 km/h
824 11-11-2008 01:28:02 15.9 C 7.45 g/m*3 15.9 C 0 km/h
825 11-11-2008 01:40:02 15.7 C 7.49 g/m*3 15.7 C 0 km/h
Sensor: Nr:Datum:Temp:Abs-Feuchte:Windchill:Wind:
Aussen-T/F 826 11-11-2008 01:52:02 15.7 C 7.49 g/m*3 15.7 C 0 km/h
827 11-11-2008 02:04:02 15.4 C 7.36 g/m*3 15.4 C 0 km/h
828 11-11-2008 02:16:02 15.2 C 7.4 g/m*3 15.2 C 0 km/h
829 11-11-2008 02:28:02 15.2 C 7.4 g/m*3 15.2 C 0 km/h
830 11-11-2008 02:40:03 15.3 C 7.31 g/m*3 15.3 C 0 km/h
831 11-11-2008 02:52:03 15.2 C 7.27 g/m*3 15.2 C 0 km/h
832 11-11-2008 03:04:03 15.3 C 7.18 g/m*3 15.3 C 0 km/h
833 11-11-2008 03:16:03 15.1 C 7.1 g/m*3 15.1 C 0 km/h
834 11-11-2008 03:28:03 14.9 C 7.14 g/m*3 14.9 C 0 km/h
835 11-11-2008 03:40:03 14.7 C 7.05 g/m*3 14.7 C 0 km/h
836 11-11-2008 03:52:03 14.6 C 7.01 g/m*3 14.6 C 0 km/h
837 11-11-2008 04:04:03 14.4 C 6.92 g/m*3 14.4 C 0 km/h
838 11-11-2008 04:16:03 14.1 C 6.92 g/m*3 14.1 C 0 km/h
839 11-11-2008 04:28:03 14.1 C 6.92 g/m*3 14.1 C 0 km/h
840 11-11-2008 04:40:03 14 C 6.88 g/m*3 14 C 0 km/h
841 11-11-2008 04:52:03 13.6 C 6.94 g/m*3 13.6 C 0 km/h
842 11-11-2008 05:04:03 13.4 C 6.86 g/m*3 13.4 C 0 km/h
843 11-11-2008 05:16:03 13.3 C 6.93 g/m*3 13.3 C 0 km/h
844 11-11-2008 05:28:03 13.4 C 6.97 g/m*3 13.4 C 0 km/h
845 11-11-2008 05:40:03 13.5 C 6.9 g/m*3 13.5 C 0 km/h
846 11-11-2008 05:52:03 13.5 C 6.9 g/m*3 13.5 C 0 km/h
847 11-11-2008 06:04:03 13.4 C 7.09 g/m*3 13.4 C 0 km/h
848 11-11-2008 06:16:03 13.3 C 7.16 g/m*3 13.3 C 0 km/h
849 11-11-2008 06:28:03 13 C 7.37 g/m*3 13 C 0 km/h
850 11-11-2008 06:40:04 12.7 C 7.57 g/m*3 12.7 C 0 km/h
Sensor: Nr:Datum:Temp:Abs-Feuchte:Windchill:Wind:
Aussen-T/F 851 11-11-2008 06:52:04 12.2 C 7.66 g/m*3 12.2 C 0 km/h
852 11-11-2008 07:04:02 12 C 8.1 g/m*3 12 C 0 km/h
853 11-11-2008 07:16:02 12 C 8.21 g/m*3 12 C 0 km/h
854 11-11-2008 07:28:02 12.1 C 8.26 g/m*3 12.1 C 0 km/h
855 11-11-2008 07:40:03 13 C 8.17 g/m*3 13 C 0 km/h
856 11-11-2008 07:52:02 13.3 C 8.09 g/m*3 13.3 C 0 km/h
857 11-11-2008 08:04:01 13.2 C 8.04 g/m*3 13.2 C 0 km/h
858 11-11-2008 08:16:02 13.7 C 7.93 g/m*3 13.7 C 0 km/h
859 11-11-2008 08:28:03 14 C 7.72 g/m*3 14 C 0 km/h
860 11-11-2008 08:40:01 13.7 C 7.82 g/m*3 13.7 C 0 km/h
861 11-11-2008 08:52:02 13.8 C 7.98 g/m*3 13.8 C 0 km/h
862 11-11-2008 09:04:01 13.9 C 8.15 g/m*3 13.9 C 0 km/h
863 11-11-2008 09:16:02 13.5 C 8.19 g/m*3 13.5 C 0 km/h
864 11-11-2008 09:28:02 13.5 C 8.42 g/m*3 13.5 C 0 km/h
865 11-11-2008 09:40:01 13.4 C 8.49 g/m*3 13.4 C 0 km/h
866 11-11-2008 09:52:02 13.7 C 8.41 g/m*3 13.7 C 0 km/h
867 11-11-2008 10:04:01 13.8 C 8.22 g/m*3 13.8 C 0 km/h
868 11-11-2008 10:16:02 13.4 C 7.9 g/m*3 13.4 C 0 km/h
869 11-11-2008 10:28:02 13.4 C 7.79 g/m*3 13.4 C 0 km/h
870 11-11-2008 10:40:01 13.4 C 7.56 g/m*3 13.4 C 0 km/h
871 11-11-2008 10:52:02 13.5 C 7.6 g/m*3 13.5 C 0 km/h
872 11-11-2008 11:04:01 13.2 C 6.54 g/m*3 13.2 C 0 km/h
873 11-11-2008 11:16:02 12 C 6.5 g/m*3 12 C 0 km/h
874 11-11-2008 11:28:02 11.8 C 6.63 g/m*3 11.8 C 0 km/h
875 11-11-2008 11:40:02 11.6 C 6.55 g/m*3 11.6 C 0 km/h
Sensor: Nr:Datum:Temp:Abs-Feuchte:Windchill:Wind:
Aussen-T/F 876 11-11-2008 11:52:02 11.8 C 6.31 g/m*3 11.8 C 0 km/h
877 11-11-2008 12:04:01 11.8 C 6.31 g/m*3 11.8 C 0 km/h
878 11-11-2008 12:16:02 12 C 6.07 g/m*3 12 C 0 km/h
879 11-11-2008 12:28:02 12.3 C 5.86 g/m*3 12.3 C 0 km/h
880 11-11-2008 12:40:01 12.7 C 6.01 g/m*3 12.7 C 0 km/h
881 11-11-2008 12:52:01 13.1 C 5.93 g/m*3 13.1 C 0 km/h
882 11-11-2008 13:04:01 13 C 5.56 g/m*3 13 C 0 km/h
883 11-11-2008 13:16:01 12.9 C 5.75 g/m*3 12.9 C 0 km/h
884 11-11-2008 13:28:01 13.4 C 5.23 g/m*3 13.4 C 0 km/h
885 11-11-2008 13:40:01 13.5 C 5.03 g/m*3 13.5 C 0 km/h
886 11-11-2008 13:52:01 14.1 C 4.73 g/m*3 14.1 C 0 km/h
887 11-11-2008 14:04:02 13.8 C 4.89 g/m*3 13.8 C 0 km/h
888 11-11-2008 14:16:01 14.1 C 4.85 g/m*3 14.1 C 0 km/h
889 11-11-2008 14:28:01 14 C 4.95 g/m*3 14 C 0 km/h
890 11-11-2008 14:40:02 13.5 C 4.68 g/m*3 13.5 C 0 km/h
891 11-11-2008 14:52:02 13.1 C 4.56 g/m*3 13.1 C 0 km/h
892 11-11-2008 15:04:02 13 C 4.54 g/m*3 13 C 0 km/h
893 11-11-2008 15:16:02 12.8 C 4.7 g/m*3 12.8 C 0 km/h
894 11-11-2008 15:28:02 12.5 C 4.73 g/m*3 12.5 C 0 km/h
895 11-11-2008 15:40:02 12.2 C 4.96 g/m*3 12.2 C 0 km/h
896 11-11-2008 15:52:02 12.1 C 4.93 g/m*3 12.1 C 0 km/h
897 11-11-2008 16:04:01 12.1 C 4.93 g/m*3 12.1 C 0 km/h
898 11-11-2008 16:16:02 12.1 C 4.93 g/m*3 12.1 C 0 km/h
899 11-11-2008 16:28:03 12.1 C 5.15 g/m*3 12.1 C 0 km/h
900 11-11-2008 16:40:01 12 C 5.12 g/m*3 12 C 0 km/h
Sensor: Nr:Datum:Temp:Abs-Feuchte:Windchill:Wind:
Aussen-T/F 901 11-11-2008 16:52:01 11.9 C 5.08 g/m*3 11.9 C 0 km/h
902 11-11-2008 17:04:02 11.9 C 4.98 g/m*3 11.9 C 0 km/h
903 11-11-2008 17:16:02 11.9 C 4.87 g/m*3 11.9 C 0 km/h
904 11-11-2008 17:28:03 11.9 C 4.87 g/m*3 11.9 C 0 km/h
905 11-11-2008 17:40:01 11.7 C 4.92 g/m*3 11.7 C 0 km/h
906 11-11-2008 17:52:02 11.3 C 4.79 g/m*3 11.3 C 0 km/h
907 11-11-2008 18:04:01 11.1 C 4.83 g/m*3 11.1 C 0 km/h
908 11-11-2008 18:16:02 11.3 C 4.79 g/m*3 11.3 C 0 km/h
909 11-11-2008 18:28:02 11.4 C 4.82 g/m*3 11.4 C 0 km/h
910 11-11-2008 18:40:01 11.1 C 4.83 g/m*3 11.1 C 0 km/h
911 11-11-2008 18:52:01 11.2 C 4.87 g/m*3 11.2 C 0 km/h
912 11-11-2008 19:04:02 11.1 C 4.94 g/m*3 11.1 C 0 km/h
913 11-11-2008 19:16:01 11.1 C 5.04 g/m*3 11.1 C 0 km/h
914 11-11-2008 19:28:01 11.1 C 5.14 g/m*3 11.1 C 0 km/h
915 11-11-2008 19:40:01 11.1 C 5.14 g/m*3 11.1 C 0 km/h
916 11-11-2008 19:52:01 11.1 C 5.24 g/m*3 11.1 C 0 km/h
917 11-11-2008 20:04:02 11.1 C 5.24 g/m*3 11.1 C 0 km/h
918 11-11-2008 20:16:01 11.1 C 5.24 g/m*3 11.1 C 0 km/h
919 11-11-2008 20:28:01 11 C 5.31 g/m*3 11 C 0 km/h
920 11-11-2008 20:40:02 11 C 5.41 g/m*3 11 C 0 km/h
921 11-11-2008 20:52:02 11 C 5.51 g/m*3 11 C 0 km/h
922 11-11-2008 21:04:02 10.9 C 5.67 g/m*3 10.9 C 0 km/h
923 11-11-2008 21:16:02 10.8 C 5.63 g/m*3 10.8 C 0 km/h
924 11-11-2008 21:28:02 10.8 C 5.73 g/m*3 10.8 C 0 km/h
925 11-11-2008 21:40:02 10.8 C 5.73 g/m*3 10.8 C 0 km/h
Sensor: Nr:Datum:Temp:Abs-Feuchte:Windchill:Wind:
Aussen-T/F 926 11-11-2008 21:52:02 10.8 C 5.73 g/m*3 10.8 C 0 km/h
927 11-11-2008 22:04:01 10.7 C 5.8 g/m*3 10.7 C 0 km/h
928 11-11-2008 22:16:02 10.7 C 5.89 g/m*3 10.7 C 0 km/h
929 11-11-2008 22:28:02 9.5 C 6.64 g/m*3 9.5 C 0 km/h
930 11-11-2008 22:40:02 8.9 C 7.1 g/m*3 8.9 C 0 km/h
931 11-11-2008 22:52:02 8.7 C 7.26 g/m*3 8.7 C 0 km/h
932 11-11-2008 23:04:01 8.5 C 7.26 g/m*3 8.5 C 0 km/h
933 11-11-2008 23:16:02 8.4 C 7.21 g/m*3 8.4 C 0 km/h
934 11-11-2008 23:28:02 8.3 C 7.25 g/m*3 8.3 C 0 km/h
935 11-11-2008 23:40:01 8.3 C 7.33 g/m*3 8.3 C 0 km/h
936 11-11-2008 23:52:02 8.3 C 7.33 g/m*3 8.3 C 0 km/h
937 12-11-2008 00:04:02 8.3 C 7.33 g/m*3 8.3 C 0 km/h
938 12-11-2008 00:16:03 8.2 C 7.37 g/m*3 8.2 C 0 km/h
939 12-11-2008 00:28:03 8.1 C 7.32 g/m*3 8.1 C 0 km/h
940 12-11-2008 00:40:02 8.2 C 7.45 g/m*3 8.2 C 0 km/h
941 12-11-2008 00:52:01 8.1 C 7.41 g/m*3 8.1 C 0 km/h
942 12-11-2008 01:04:02 8.3 C 7.5 g/m*3 8.3 C 0 km/h
943 12-11-2008 01:16:01 8.3 C 7.5 g/m*3 8.3 C 0 km/h
944 12-11-2008 01:28:01 8.4 C 7.55 g/m*3 8.4 C 0 km/h
945 12-11-2008 01:40:02 8.5 C 7.51 g/m*3 8.5 C 0 km/h
946 12-11-2008 01:52:02 8.5 C 7.51 g/m*3 8.5 C 0 km/h
947 12-11-2008 02:04:02 8.2 C 7.2 g/m*3 8.2 C 0 km/h
948 12-11-2008 02:16:02 8.1 C 7.16 g/m*3 8.1 C 0 km/h
949 12-11-2008 02:28:02 8.1 C 7.16 g/m*3 8.1 C 0 km/h
950 12-11-2008 02:40:02 8 C 7.03 g/m*3 8 C 0 km/h
Sensor: Nr:Datum:Temp:Abs-Feuchte:Windchill:Wind:
Aussen-T/F 951 12-11-2008 02:53:03 8.1 C 6.99 g/m*3 8.1 C 0 km/h
952 12-11-2008 03:05:04 8 C 6.94 g/m*3 8 C 0 km/h
953 12-11-2008 03:17:03 7.6 C 6.85 g/m*3 7.6 C 0 km/h
954 12-11-2008 03:29:03 7.5 C 6.88 g/m*3 7.5 C 0 km/h
955 12-11-2008 03:41:01 7.3 C 6.79 g/m*3 7.3 C 0 km/h
956 12-11-2008 03:53:01 7.1 C 6.79 g/m*3 7.1 C 0 km/h
957 12-11-2008 04:05:02 7.3 C 6.95 g/m*3 7.3 C 0 km/h
958 12-11-2008 04:17:02 7.4 C 7 g/m*3 7.4 C 0 km/h
959 12-11-2008 04:29:02 7.2 C 6.91 g/m*3 7.2 C 0 km/h
960 12-11-2008 04:41:02 7.5 C 7.04 g/m*3 7.5 C 0 km/h
961 12-11-2008 04:53:02 7.7 C 7.14 g/m*3 7.7 C 0 km/h
962 12-11-2008 05:05:02 7.9 C 7.15 g/m*3 7.9 C 0 km/h
963 12-11-2008 05:17:01 7.9 C 7.15 g/m*3 7.9 C 0 km/h
964 12-11-2008 05:29:01 7.8 C 7.1 g/m*3 7.8 C 0 km/h
965 12-11-2008 05:41:02 7.6 C 7.01 g/m*3 7.6 C 0 km/h
966 12-11-2008 05:53:02 7.4 C 6.92 g/m*3 7.4 C 0 km/h
967 12-11-2008 06:05:02 7.4 C 6.92 g/m*3 7.4 C 0 km/h
968 12-11-2008 06:17:02 7.5 C 6.96 g/m*3 7.5 C 0 km/h
969 12-11-2008 06:29:02 7.8 C 6.94 g/m*3 7.8 C 0 km/h
970 12-11-2008 06:41:02 8 C 6.7 g/m*3 8 C 0 km/h
971 12-11-2008 06:53:01 8 C 6.7 g/m*3 8 C 0 km/h
972 12-11-2008 07:05:02 7.8 C 6.69 g/m*3 7.8 C 0 km/h
973 12-11-2008 07:17:01 7.5 C 6.56 g/m*3 7.5 C 0 km/h
974 12-11-2008 07:29:01 7.4 C 6.44 g/m*3 7.4 C 0 km/h
975 12-11-2008 07:41:01 7.2 C 6.44 g/m*3 7.2 C 0 km/h
Sensor: Nr:Datum:Temp:Abs-Feuchte:Windchill:Wind:
Aussen-T/F 976 12-11-2008 07:53:02 7.6 C 6.69 g/m*3 7.6 C 0 km/h
977 12-11-2008 08:05:02 7.8 C 6.61 g/m*3 7.8 C 0 km/h
978 12-11-2008 08:17:02 7.9 C 6.49 g/m*3 7.9 C 0 km/h
979 12-11-2008 08:29:02 8 C 6.45 g/m*3 8 C 0 km/h
980 12-11-2008 08:41:02 8.1 C 6.41 g/m*3 8.1 C 0 km/h
981 12-11-2008 08:53:02 7.9 C 6.49 g/m*3 7.9 C 0 km/h
982 12-11-2008 09:05:02 7.8 C 6.45 g/m*3 7.8 C 0 km/h
983 12-11-2008 09:17:02 7.6 C 6.44 g/m*3 7.6 C 0 km/h
984 12-11-2008 09:29:02 7.7 C 6.57 g/m*3 7.7 C 0 km/h
985 12-11-2008 09:41:02 8.2 C 6.7 g/m*3 8.2 C 0 km/h
986 12-11-2008 09:53:02 8.2 C 6.53 g/m*3 8.2 C 0 km/h
987 12-11-2008 10:05:01 8.2 C 6.53 g/m*3 8.2 C 0 km/h
988 12-11-2008 10:17:02 8.9 C 6.57 g/m*3 8.9 C 0 km/h
989 12-11-2008 10:29:02 9.3 C 6.38 g/m*3 9.3 C 0 km/h
990 12-11-2008 10:41:01 9.4 C 6.15 g/m*3 9.4 C 0 km/h
991 12-11-2008 10:53:02 9.6 C 6.32 g/m*3 9.6 C 0 km/h
992 12-11-2008 11:05:01 9.8 C 6.31 g/m*3 9.8 C 0 km/h
993 12-11-2008 11:17:02 10.2 C 6.38 g/m*3 10.2 C 0 km/h
994 12-11-2008 11:29:02 10.7 C 6.48 g/m*3 10.7 C 0 km/h
995 12-11-2008 11:41:01 10.6 C 6.44 g/m*3 10.6 C 0 km/h
996 12-11-2008 11:53:01 9.9 C 6.63 g/m*3 9.9 C 0 km/h
997 12-11-2008 12:05:01 10.4 C 6.84 g/m*3 10.4 C 0 km/h
998 12-11-2008 12:17:02 10.5 C 6.89 g/m*3 10.5 C 0 km/h
999 12-11-2008 12:29:02 10.4 C 6.65 g/m*3 10.4 C 0 km/h
1000 12-11-2008 12:41:01 10.9 C 6.76 g/m*3 10.9 C 0 km/h
Sensor: Nr:Datum:Temp:Abs-Feuchte:Windchill:Wind:
Aussen-T/F 1001 12-11-2008 12:53:01 11.2 C 6.39 g/m*3 11.2 C 0 km/h
1002 12-11-2008 13:05:01 11.8 C 6.31 g/m*3 11.8 C 0 km/h
1003 12-11-2008 13:17:01 11.7 C 6.38 g/m*3 11.7 C 0 km/h
1004 12-11-2008 13:29:01 11.1 C 6.04 g/m*3 11.1 C 0 km/h
1005 12-11-2008 13:41:01 11.5 C 6.09 g/m*3 11.5 C 0 km/h
1006 12-11-2008 13:53:01 11.5 C 5.89 g/m*3 11.5 C 0 km/h
1007 12-11-2008 14:05:02 11.2 C 5.88 g/m*3 11.2 C 0 km/h
1008 12-11-2008 14:17:01 11.9 C 5.93 g/m*3 11.9 C 0 km/h
1009 12-11-2008 14:29:01 11.7 C 5.75 g/m*3 11.7 C 0 km/h
1010 12-11-2008 14:41:02 11.2 C 5.78 g/m*3 11.2 C 0 km/h
1011 12-11-2008 14:53:02 10.9 C 5.97 g/m*3 10.9 C 0 km/h
1012 12-11-2008 15:05:02 12 C 5.97 g/m*3 12 C 0 km/h
1013 12-11-2008 15:17:01 12.3 C 5.86 g/m*3 12.3 C 0 km/h
1014 12-11-2008 15:29:01 11.8 C 5.79 g/m*3 11.8 C 0 km/h
1015 12-11-2008 15:41:02 11.1 C 5.84 g/m*3 11.1 C 0 km/h
1016 12-11-2008 15:53:02 10.7 C 5.89 g/m*3 10.7 C 0 km/h
1017 12-11-2008 16:05:02 10.8 C 5.93 g/m*3 10.8 C 0 km/h
1018 12-11-2008 16:17:02 10.8 C 5.93 g/m*3 10.8 C 0 km/h
1019 12-11-2008 16:29:02 10.4 C 5.88 g/m*3 10.4 C 0 km/h
1020 12-11-2008 16:41:02 9.9 C 5.98 g/m*3 9.9 C 0 km/h
1021 12-11-2008 16:53:02 9.6 C 5.95 g/m*3 9.6 C 0 km/h
1022 12-11-2008 17:05:01 9.5 C 6.01 g/m*3 9.5 C 0 km/h
1023 12-11-2008 17:17:02 9.2 C 6.07 g/m*3 9.2 C 0 km/h
1024 12-11-2008 17:29:02 8.7 C 6.05 g/m*3 8.7 C 0 km/h
1025 12-11-2008 17:41:01 8.3 C 5.98 g/m*3 8.3 C 0 km/h
Sensor: Nr:Datum:Temp:Abs-Feuchte:Windchill:Wind:
Aussen-T/F 1026 12-11-2008 17:53:03 8.1 C 6.07 g/m*3 8.1 C 0 km/h
1027 12-11-2008 18:05:02 7.8 C 6.04 g/m*3 7.8 C 0 km/h
1028 12-11-2008 18:17:02 7.8 C 6.2 g/m*3 7.8 C 0 km/h
1029 12-11-2008 18:29:02 7.6 C 6.2 g/m*3 7.6 C 0 km/h
1030 12-11-2008 18:41:02 7.6 C 6.2 g/m*3 7.6 C 0 km/h
1031 12-11-2008 18:53:03 7.8 C 6.28 g/m*3 7.8 C 0 km/h
1032 12-11-2008 19:05:02 7.7 C 6.24 g/m*3 7.7 C 0 km/h
1033 12-11-2008 19:17:02 7.6 C 6.2 g/m*3 7.6 C 0 km/h
1034 12-11-2008 19:29:02 7.8 C 6.37 g/m*3 7.8 C 0 km/h
1035 12-11-2008 19:41:02 7.7 C 6.32 g/m*3 7.7 C 0 km/h
1036 12-11-2008 19:53:02 7.8 C 6.45 g/m*3 7.8 C 0 km/h
1037 12-11-2008 20:05:01 7.9 C 6.41 g/m*3 7.9 C 0 km/h
1038 12-11-2008 20:17:02 7.9 C 6.41 g/m*3 7.9 C 0 km/h
1039 12-11-2008 20:29:02 7.8 C 6.45 g/m*3 7.8 C 0 km/h
1040 12-11-2008 20:41:01 7.7 C 6.41 g/m*3 7.7 C 0 km/h
1041 12-11-2008 20:53:02 7.4 C 6.28 g/m*3 7.4 C 0 km/h
1042 12-11-2008 21:05:01 7.1 C 6.24 g/m*3 7.1 C 0 km/h
1043 12-11-2008 21:17:02 7.1 C 6.32 g/m*3 7.1 C 0 km/h
1044 12-11-2008 21:29:02 7.1 C 6.32 g/m*3 7.1 C 0 km/h
1045 12-11-2008 21:41:01 7.1 C 6.32 g/m*3 7.1 C 0 km/h
1046 12-11-2008 21:53:01 7.1 C 6.4 g/m*3 7.1 C 0 km/h
1047 12-11-2008 22:05:02 7.2 C 6.44 g/m*3 7.2 C 0 km/h
1048 12-11-2008 22:17:02 7.1 C 6.32 g/m*3 7.1 C 0 km/h
1049 12-11-2008 22:29:02 6.8 C 6.27 g/m*3 6.8 C 0 km/h
1050 12-11-2008 22:41:01 6.3 C 6.14 g/m*3 6.3 C 0 km/h
Sensor: Nr:Datum:Temp:Abs-Feuchte:Windchill:Wind:
Aussen-T/F 1051 12-11-2008 22:53:01 6.2 C 6.18 g/m*3 6.2 C 0 km/h
1052 12-11-2008 23:05:02 6 C 6.1 g/m*3 6 C 0 km/h
1053 12-11-2008 23:17:01 5.7 C 6.05 g/m*3 5.7 C 0 km/h
1054 12-11-2008 23:29:01 5.5 C 6.04 g/m*3 5.5 C 0 km/h
1055 12-11-2008 23:41:02 5.2 C 5.92 g/m*3 5.2 C 0 km/h
1056 12-11-2008 23:53:02 5 C 5.84 g/m*3 5 C 0 km/h
1057 13-11-2008 00:05:02 5 C 5.91 g/m*3 5 C 0 km/h
1058 13-11-2008 00:17:02 4.8 C 5.9 g/m*3 4.8 C 0 km/h
1059 13-11-2008 00:29:02 4.7 C 5.93 g/m*3 4.7 C 0 km/h
1060 13-11-2008 00:41:02 4.8 C 6.04 g/m*3 4.8 C 0 km/h
1061 13-11-2008 00:53:02 4.8 C 6.04 g/m*3 4.8 C 0 km/h
1062 13-11-2008 01:05:02 4.7 C 6.06 g/m*3 4.7 C 0 km/h
1063 13-11-2008 01:17:02 4.9 C 6.21 g/m*3 4.9 C 0 km/h
1064 13-11-2008 01:29:02 4.8 C 6.17 g/m*3 4.8 C 0 km/h
1065 13-11-2008 01:41:02 4.7 C 6.06 g/m*3 4.7 C 0 km/h
1066 13-11-2008 01:53:02 4.5 C 5.98 g/m*3 4.5 C 0 km/h
1067 13-11-2008 02:05:03 4.2 C 5.86 g/m*3 4.2 C 0 km/h
1068 13-11-2008 02:17:02 4 C 5.79 g/m*3 4 C 0 km/h
1069 13-11-2008 02:29:02 3.7 C 5.8 g/m*3 3.7 C 0 km/h
1070 13-11-2008 02:41:03 3.7 C 5.8 g/m*3 3.7 C 0 km/h
1071 13-11-2008 02:53:01 3.6 C 5.82 g/m*3 3.6 C 0 km/h
1072 13-11-2008 03:05:01 3.6 C 5.82 g/m*3 3.6 C 0 km/h
1073 13-11-2008 03:17:02 3.6 C 5.88 g/m*3 3.6 C 0 km/h
1074 13-11-2008 03:29:02 3.7 C 5.92 g/m*3 3.7 C 0 km/h
1075 13-11-2008 03:41:02 3.6 C 5.88 g/m*3 3.6 C 0 km/h
Sensor: Nr:Datum:Temp:Abs-Feuchte:Windchill:Wind:
Aussen-T/F 1076 13-11-2008 03:53:02 3.5 C 5.84 g/m*3 3.5 C 0 km/h
1077 13-11-2008 04:05:01 3.8 C 5.96 g/m*3 3.8 C 0 km/h
1078 13-11-2008 04:17:02 3.9 C 6 g/m*3 3.9 C 0 km/h
1079 13-11-2008 04:29:02 3.8 C 5.96 g/m*3 3.8 C 0 km/h
1080 13-11-2008 04:41:01 4 C 6.04 g/m*3 4 C 0 km/h
1081 13-11-2008 04:53:02 4.2 C 6.06 g/m*3 4.2 C 0 km/h
1082 13-11-2008 05:05:01 4.3 C 6.1 g/m*3 4.3 C 0 km/h
1083 13-11-2008 05:17:02 4.5 C 6.18 g/m*3 4.5 C 0 km/h
1084 13-11-2008 05:29:02 4.5 C 6.11 g/m*3 4.5 C 0 km/h
1085 13-11-2008 05:41:01 4.6 C 6.15 g/m*3 4.6 C 0 km/h
1086 13-11-2008 05:53:02 4.8 C 6.17 g/m*3 4.8 C 0 km/h
1087 13-11-2008 06:05:01 4.7 C 6.13 g/m*3 4.7 C 0 km/h
1088 13-11-2008 06:17:02 4.7 C 6.13 g/m*3 4.7 C 0 km/h
1089 13-11-2008 06:29:02 4.8 C 6.17 g/m*3 4.8 C 0 km/h
1090 13-11-2008 06:41:01 4.8 C 6.17 g/m*3 4.8 C 0 km/h
1091 13-11-2008 06:53:01 4.8 C 6.17 g/m*3 4.8 C 0 km/h
1092 13-11-2008 07:05:01 4.8 C 6.1 g/m*3 4.8 C 0 km/h
1093 13-11-2008 07:17:02 4.8 C 6.1 g/m*3 4.8 C 0 km/h
1094 13-11-2008 07:29:02 5 C 6.18 g/m*3 5 C 0 km/h
1095 13-11-2008 07:41:01 5.1 C 6.22 g/m*3 5.1 C 0 km/h
1096 13-11-2008 07:53:01 5.1 C 6.16 g/m*3 5.1 C 0 km/h
1097 13-11-2008 08:05:05 5 C 6.12 g/m*3 5 C 0 km/h
1098 13-11-2008 08:17:02 5.1 C 6.16 g/m*3 5.1 C 0 km/h
1099 13-11-2008 08:29:02 5.3 C 6.24 g/m*3 5.3 C 0 km/h
1100 13-11-2008 08:41:01 5.4 C 6.28 g/m*3 5.4 C 0 km/h
Sensor: Nr:Datum:Temp:Abs-Feuchte:Windchill:Wind:
Aussen-T/F 1101 13-11-2008 08:53:01 5.6 C 6.36 g/m*3 5.6 C 0 km/h
1102 13-11-2008 09:05:01 5.7 C 6.33 g/m*3 5.7 C 0 km/h
1103 13-11-2008 09:17:02 5.8 C 6.3 g/m*3 5.8 C 0 km/h
1104 13-11-2008 09:29:02 6 C 6.31 g/m*3 6 C 0 km/h
1105 13-11-2008 09:41:01 6.3 C 6.37 g/m*3 6.3 C 0 km/h
1106 13-11-2008 09:53:01 6.6 C 6.49 g/m*3 6.6 C 0 km/h
1107 13-11-2008 10:05:02 6.9 C 6.54 g/m*3 6.9 C 0 km/h
1108 13-11-2008 10:17:01 7 C 6.35 g/m*3 7 C 0 km/h
1109 13-11-2008 10:29:01 7.2 C 6.2 g/m*3 7.2 C 0 km/h
1110 13-11-2008 10:41:02 7.3 C 6.24 g/m*3 7.3 C 0 km/h
1111 13-11-2008 10:53:01 7.1 C 6.16 g/m*3 7.1 C 0 km/h
1112 13-11-2008 11:05:02 7 C 6.12 g/m*3 7 C 0 km/h
1113 13-11-2008 11:17:01 7.5 C 6.32 g/m*3 7.5 C 0 km/h
1114 13-11-2008 11:29:01 8.1 C 6.24 g/m*3 8.1 C 0 km/h
1115 13-11-2008 11:41:02 8.3 C 6.15 g/m*3 8.3 C 0 km/h
1116 13-11-2008 11:53:01 8.7 C 6.23 g/m*3 8.7 C 0 km/h
1117 13-11-2008 12:05:02 8.6 C 6.1 g/m*3 8.6 C 0 km/h
1118 13-11-2008 12:17:02 8.8 C 6.18 g/m*3 8.8 C 0 km/h
1119 13-11-2008 12:29:02 9 C 6.08 g/m*3 9 C 0 km/h
1120 13-11-2008 12:41:02 9.2 C 6.07 g/m*3 9.2 C 0 km/h
1121 13-11-2008 12:53:01 9.3 C 6.02 g/m*3 9.3 C 0 km/h
1122 13-11-2008 13:05:02 9.4 C 5.97 g/m*3 9.4 C 0 km/h
1123 13-11-2008 13:17:01 9.5 C 5.92 g/m*3 9.5 C 0 km/h
1124 13-11-2008 13:29:01 9.6 C 5.95 g/m*3 9.6 C 0 km/h
1125 13-11-2008 13:41:02 9.6 C 5.86 g/m*3 9.6 C 0 km/h
Sensor: Nr:Datum:Temp:Abs-Feuchte:Windchill:Wind:
Aussen-T/F 1126 13-11-2008 13:53:01 9.8 C 5.85 g/m*3 9.8 C 0 km/h
1127 13-11-2008 14:05:02 9.9 C 5.79 g/m*3 9.9 C 0 km/h
1128 13-11-2008 14:17:01 9.9 C 5.79 g/m*3 9.9 C 0 km/h
1129 13-11-2008 14:29:01 10 C 5.83 g/m*3 10 C 0 km/h
1130 13-11-2008 14:41:02 10 C 5.83 g/m*3 10 C 0 km/h
1131 13-11-2008 14:53:01 10 C 5.83 g/m*3 10 C 0 km/h
1132 13-11-2008 15:05:01 9.8 C 5.85 g/m*3 9.8 C 0 km/h
1133 13-11-2008 15:17:01 9.8 C 5.94 g/m*3 9.8 C 0 km/h
1134 13-11-2008 15:29:01 9.8 C 5.94 g/m*3 9.8 C 0 km/h
1135 13-11-2008 15:41:02 9.7 C 5.9 g/m*3 9.7 C 0 km/h
1136 13-11-2008 15:53:02 9.6 C 5.95 g/m*3 9.6 C 0 km/h
1137 13-11-2008 16:05:01 9.5 C 5.92 g/m*3 9.5 C 0 km/h
1138 13-11-2008 16:17:02 9.4 C 6.06 g/m*3 9.4 C 0 km/h
1139 13-11-2008 16:29:02 9.2 C 6.16 g/m*3 9.2 C 0 km/h
1140 13-11-2008 16:41:01 8.9 C 6.22 g/m*3 8.9 C 0 km/h
1141 13-11-2008 16:53:01 8.7 C 6.23 g/m*3 8.7 C 0 km/h
1142 13-11-2008 17:05:01 8.5 C 6.23 g/m*3 8.5 C 0 km/h
1143 13-11-2008 17:17:01 8.4 C 6.28 g/m*3 8.4 C 0 km/h
1144 13-11-2008 17:29:01 8.2 C 6.28 g/m*3 8.2 C 0 km/h
1145 13-11-2008 17:41:01 8.2 C 6.2 g/m*3 8.2 C 0 km/h
1146 13-11-2008 17:53:01 8.1 C 6.16 g/m*3 8.1 C 0 km/h
1147 13-11-2008 18:05:02 8.1 C 6.16 g/m*3 8.1 C 0 km/h
1148 13-11-2008 18:17:01 7.9 C 6.08 g/m*3 7.9 C 0 km/h
1149 13-11-2008 18:29:01 7.7 C 6 g/m*3 7.7 C 0 km/h
1150 13-11-2008 18:41:02 7.7 C 6 g/m*3 7.7 C 0 km/h
Sensor: Nr:Datum:Temp:Abs-Feuchte:Windchill:Wind:
Aussen-T/F 1151 13-11-2008 18:53:01 7.6 C 6.04 g/m*3 7.6 C 0 km/h
1152 13-11-2008 19:05:02 7.7 C 6.08 g/m*3 7.7 C 0 km/h
1153 13-11-2008 19:17:01 7.6 C 6.04 g/m*3 7.6 C 0 km/h
1154 13-11-2008 19:29:01 7.5 C 6 g/m*3 7.5 C 0 km/h
1155 13-11-2008 19:41:02 7.3 C 5.93 g/m*3 7.3 C 0 km/h
1156 13-11-2008 19:53:02 7.3 C 6 g/m*3 7.3 C 0 km/h
1157 13-11-2008 20:05:01 7.1 C 5.93 g/m*3 7.1 C 0 km/h
1158 13-11-2008 20:17:01 7.1 C 6.01 g/m*3 7.1 C 0 km/h
1159 13-11-2008 20:29:01 7 C 5.97 g/m*3 7 C 0 km/h
1160 13-11-2008 20:41:01 6.9 C 6 g/m*3 6.9 C 0 km/h
1161 13-11-2008 20:53:02 6.5 C 5.85 g/m*3 6.5 C 0 km/h
1162 13-11-2008 21:05:01 6.1 C 5.7 g/m*3 6.1 C 0 km/h
1163 13-11-2008 21:17:02 5.9 C 5.77 g/m*3 5.9 C 0 km/h
1164 13-11-2008 21:29:02 5.8 C 5.73 g/m*3 5.8 C 0 km/h
1165 13-11-2008 21:41:01 5.6 C 5.73 g/m*3 5.6 C 0 km/h
1166 13-11-2008 21:53:01 5.4 C 5.65 g/m*3 5.4 C 0 km/h
1167 13-11-2008 22:05:02 5.1 C 5.61 g/m*3 5.1 C 0 km/h
1168 13-11-2008 22:17:01 4.8 C 5.63 g/m*3 4.8 C 0 km/h
1169 13-11-2008 22:29:01 4.6 C 5.56 g/m*3 4.6 C 0 km/h
1170 13-11-2008 22:41:02 4.4 C 5.55 g/m*3 4.4 C 0 km/h
1171 13-11-2008 22:53:01 4.3 C 5.51 g/m*3 4.3 C 0 km/h
1172 13-11-2008 23:05:01 4.4 C 5.62 g/m*3 4.4 C 0 km/h
1173 13-11-2008 23:17:02 4.2 C 5.61 g/m*3 4.2 C 0 km/h
1174 13-11-2008 23:29:02 3.8 C 5.46 g/m*3 3.8 C 0 km/h
1175 13-11-2008 23:41:02 3.7 C 5.48 g/m*3 3.7 C 0 km/h
Sensor: Nr:Datum:Temp:Abs-Feuchte:Windchill:Wind:
Aussen-T/F 1176 13-11-2008 23:53:01 3.5 C 5.41 g/m*3 3.5 C 0 km/h
1177 14-11-2008 00:05:02 3.5 C 5.47 g/m*3 3.5 C 0 km/h
1178 14-11-2008 00:17:02 3.5 C 5.47 g/m*3 3.5 C 0 km/h
1179 14-11-2008 00:29:02 3.6 C 5.57 g/m*3 3.6 C 0 km/h
1180 14-11-2008 00:41:02 3.6 C 5.57 g/m*3 3.6 C 0 km/h
1181 14-11-2008 00:53:02 3.4 C 5.5 g/m*3 3.4 C 0 km/h
1182 14-11-2008 01:05:02 3.1 C 5.39 g/m*3 3.1 C 0 km/h
1183 14-11-2008 01:17:02 2.7 C 5.24 g/m*3 2.7 C 0 km/h
1184 14-11-2008 01:29:02 2.6 C 5.27 g/m*3 2.6 C 0 km/h
1185 14-11-2008 01:41:01 2.6 C 5.27 g/m*3 2.6 C 0 km/h
1186 14-11-2008 01:53:01 2.5 C 5.23 g/m*3 2.5 C 0 km/h
1187 14-11-2008 02:05:01 2.2 C 5.13 g/m*3 2.2 C 0 km/h
1188 14-11-2008 02:17:01 2.2 C 5.13 g/m*3 2.2 C 0 km/h
1189 14-11-2008 02:29:01 2.1 C 5.09 g/m*3 2.1 C 0 km/h
1190 14-11-2008 02:41:01 2.5 C 5.29 g/m*3 2.5 C 0 km/h
1191 14-11-2008 02:54:06 2.3 C 5.22 g/m*3 2.3 C 0 km/h
1192 14-11-2008 03:06:06 2.5 C 5.29 g/m*3 2.5 C 0 km/h
1193 14-11-2008 03:18:07 2.3 C 5.22 g/m*3 2.3 C 0 km/h
1194 14-11-2008 03:30:07 2 C 5.11 g/m*3 2 C 0 km/h
1195 14-11-2008 03:42:02 1.9 C 5.13 g/m*3 1.9 C 0 km/h
1196 14-11-2008 03:54:02 1.7 C 5.06 g/m*3 1.7 C 0 km/h
1197 14-11-2008 04:06:02 1.9 C 5.19 g/m*3 1.9 C 0 km/h
1198 14-11-2008 04:18:02 1.8 C 5.15 g/m*3 1.8 C 0 km/h
1199 14-11-2008 04:30:02 1.9 C 5.19 g/m*3 1.9 C 0 km/h
1200 14-11-2008 04:42:02 2 C 5.22 g/m*3 2 C 0 km/h
Sensor: Nr:Datum:Temp:Abs-Feuchte:Windchill:Wind:
Aussen-T/F 1201 14-11-2008 04:54:02 2 C 5.22 g/m*3 2 C 0 km/h
1202 14-11-2008 05:06:02 2 C 5.28 g/m*3 2 C 0 km/h
1203 14-11-2008 05:18:02 2.1 C 5.31 g/m*3 2.1 C 0 km/h
1204 14-11-2008 05:30:02 2.2 C 5.35 g/m*3 2.2 C 0 km/h
1205 14-11-2008 05:42:02 2.2 C 5.35 g/m*3 2.2 C 0 km/h
1206 14-11-2008 05:54:01 2.2 C 5.35 g/m*3 2.2 C 0 km/h
1207 14-11-2008 06:06:02 2.3 C 5.39 g/m*3 2.3 C 0 km/h
1208 14-11-2008 06:18:02 2.2 C 5.29 g/m*3 2.2 C 0 km/h
1209 14-11-2008 06:30:02 2.1 C 5.26 g/m*3 2.1 C 0 km/h
1210 14-11-2008 06:42:01 2 C 5.22 g/m*3 2 C 0 km/h
1211 14-11-2008 06:54:01 1.8 C 5.15 g/m*3 1.8 C 0 km/h
1212 14-11-2008 07:06:02 1.7 C 5.06 g/m*3 1.7 C 0 km/h
1213 14-11-2008 07:18:02 1.5 C 4.99 g/m*3 1.5 C 0 km/h
1214 14-11-2008 07:30:02 1.4 C 4.91 g/m*3 1.4 C 0 km/h
1215 14-11-2008 07:42:02 1.6 C 5.03 g/m*3 1.6 C 0 km/h
1216 14-11-2008 07:54:02 1.9 C 5.13 g/m*3 1.9 C 0 km/h
1217 14-11-2008 08:06:02 2 C 5.11 g/m*3 2 C 0 km/h
1218 14-11-2008 08:18:01 2.2 C 5.18 g/m*3 2.2 C 0 km/h
1219 14-11-2008 08:30:01 2.1 C 5.09 g/m*3 2.1 C 0 km/h
1220 14-11-2008 08:42:02 2.2 C 5.13 g/m*3 2.2 C 0 km/h
1221 14-11-2008 08:54:02 2.5 C 5.17 g/m*3 2.5 C 0 km/h
1222 14-11-2008 09:06:02 2.9 C 5.26 g/m*3 2.9 C 0 km/h
1223 14-11-2008 09:18:02 3.3 C 5.34 g/m*3 3.3 C 0 km/h
1224 14-11-2008 09:30:02 3.6 C 5.45 g/m*3 3.6 C 0 km/h
1225 14-11-2008 09:42:02 3.9 C 5.49 g/m*3 3.9 C 0 km/h
Sensor: Nr:Datum:Temp:Abs-Feuchte:Windchill:Wind:
Aussen-T/F 1226 14-11-2008 09:54:02 4.2 C 5.48 g/m*3 4.2 C 0 km/h
1227 14-11-2008 10:06:01 4.5 C 5.52 g/m*3 4.5 C 0 km/h
1228 14-11-2008 10:18:02 4.7 C 5.53 g/m*3 4.7 C 0 km/h
1229 14-11-2008 10:30:02 4.6 C 5.29 g/m*3 4.6 C 0 km/h
1230 14-11-2008 10:42:01 5.1 C 5.27 g/m*3 5.1 C 0 km/h
1231 14-11-2008 10:54:03 5.6 C 5.16 g/m*3 5.6 C 0 km/h
1232 14-11-2008 11:06:02 5.7 C 5.12 g/m*3 5.7 C 0 km/h
1233 14-11-2008 11:18:02 6 C 5.23 g/m*3 6 C 0 km/h
1234 14-11-2008 11:30:02 6.8 C 4.97 g/m*3 6.8 C 0 km/h
1235 14-11-2008 11:42:02 7.5 C 4.72 g/m*3 7.5 C 0 km/h
1236 14-11-2008 11:54:02 8.2 C 4.61 g/m*3 8.2 C 0 km/h
1237 14-11-2008 12:06:02 8.8 C 4.44 g/m*3 8.8 C 0 km/h
1238 14-11-2008 12:18:02 9 C 4.32 g/m*3 9 C 0 km/h
1239 14-11-2008 12:30:02 9 C 4.32 g/m*3 9 C 0 km/h
1240 14-11-2008 12:42:02 8.9 C 4.38 g/m*3 8.9 C 0 km/h
1241 14-11-2008 12:54:02 9 C 4.41 g/m*3 9 C 0 km/h
1242 14-11-2008 13:06:02 8.9 C 4.38 g/m*3 8.9 C 0 km/h
1243 14-11-2008 13:18:02 9.1 C 4.35 g/m*3 9.1 C 0 km/h
1244 14-11-2008 13:30:02 9.1 C 4.35 g/m*3 9.1 C 0 km/h
1245 14-11-2008 13:42:02 8.9 C 4.38 g/m*3 8.9 C 0 km/h
1246 14-11-2008 13:54:01 8.8 C 4.44 g/m*3 8.8 C 0 km/h
1247 14-11-2008 14:06:02 8.8 C 4.61 g/m*3 8.8 C 0 km/h
1248 14-11-2008 14:18:02 8.7 C 4.84 g/m*3 8.7 C 0 km/h
1249 14-11-2008 14:30:02 8.6 C 4.81 g/m*3 8.6 C 0 km/h
1250 14-11-2008 14:42:02 8.5 C 4.87 g/m*3 8.5 C 0 km/h
Sensor: Nr:Datum:Temp:Abs-Feuchte:Windchill:Wind:
Aussen-T/F 1251 14-11-2008 14:54:02 8.5 C 4.95 g/m*3 8.5 C 0 km/h
1252 14-11-2008 15:06:02 8.2 C 5.19 g/m*3 8.2 C 0 km/h
1253 14-11-2008 15:18:01 7.9 C 5.5 g/m*3 7.9 C 0 km/h
1254 14-11-2008 15:30:01 7.8 C 5.63 g/m*3 7.8 C 0 km/h
1255 14-11-2008 15:42:02 7.6 C 5.64 g/m*3 7.6 C 0 km/h
1256 14-11-2008 15:54:02 7.5 C 5.76 g/m*3 7.5 C 0 km/h
1257 14-11-2008 16:06:02 7.8 C 5.79 g/m*3 7.8 C 0 km/h
1258 14-11-2008 16:18:02 7.9 C 5.83 g/m*3 7.9 C 0 km/h
1259 14-11-2008 16:30:02 8 C 5.87 g/m*3 8 C 0 km/h
1260 14-11-2008 16:42:02 8.1 C 5.82 g/m*3 8.1 C 0 km/h
1261 14-11-2008 16:54:02 8.1 C 5.74 g/m*3 8.1 C 0 km/h
1262 14-11-2008 17:06:02 8.1 C 5.82 g/m*3 8.1 C 0 km/h
1263 14-11-2008 17:18:01 8.1 C 5.82 g/m*3 8.1 C 0 km/h
1264 14-11-2008 17:30:01 8.1 C 5.82 g/m*3 8.1 C 0 km/h
1265 14-11-2008 17:42:02 8.1 C 5.74 g/m*3 8.1 C 0 km/h
1266 14-11-2008 17:54:02 8.1 C 5.82 g/m*3 8.1 C 0 km/h
1267 14-11-2008 18:06:02 8.1 C 5.82 g/m*3 8.1 C 0 km/h
1268 14-11-2008 18:18:02 8.1 C 5.74 g/m*3 8.1 C 0 km/h
1269 14-11-2008 18:30:02 8.1 C 5.74 g/m*3 8.1 C 0 km/h
1270 14-11-2008 18:42:02 8.1 C 5.74 g/m*3 8.1 C 0 km/h
1271 14-11-2008 18:54:02 8.1 C 5.74 g/m*3 8.1 C 0 km/h
1272 14-11-2008 19:06:02 8.2 C 5.86 g/m*3 8.2 C 0 km/h
1273 14-11-2008 19:18:02 8.1 C 5.74 g/m*3 8.1 C 0 km/h
1274 14-11-2008 19:30:03 8.1 C 5.82 g/m*3 8.1 C 0 km/h
1275 14-11-2008 19:42:02 8.1 C 5.82 g/m*3 8.1 C 0 km/h
Sensor: Nr:Datum:Temp:Abs-Feuchte:Windchill:Wind:
Aussen-T/F 1276 14-11-2008 19:54:01 8.1 C 5.82 g/m*3 8.1 C 0 km/h
1277 14-11-2008 20:06:02 8.1 C 5.82 g/m*3 8.1 C 0 km/h
1278 14-11-2008 20:18:01 8.1 C 5.91 g/m*3 8.1 C 0 km/h
1279 14-11-2008 20:30:01 8 C 5.95 g/m*3 8 C 0 km/h
1280 14-11-2008 20:42:02 8 C 5.95 g/m*3 8 C 0 km/h
1281 14-11-2008 20:54:02 8 C 5.95 g/m*3 8 C 0 km/h
1282 14-11-2008 21:06:02 8 C 5.95 g/m*3 8 C 0 km/h
1283 14-11-2008 21:18:02 8 C 5.95 g/m*3 8 C 0 km/h
1284 14-11-2008 21:30:02 8 C 5.95 g/m*3 8 C 0 km/h
1285 14-11-2008 21:42:02 7.9 C 6 g/m*3 7.9 C 0 km/h
1286 14-11-2008 21:54:02 7.9 C 6 g/m*3 7.9 C 0 km/h
1287 14-11-2008 22:06:01 8 C 5.95 g/m*3 8 C 0 km/h
1288 14-11-2008 22:18:02 8 C 5.95 g/m*3 8 C 0 km/h
1289 14-11-2008 22:30:02 8 C 5.95 g/m*3 8 C 0 km/h
1290 14-11-2008 22:43:01 8 C 6.04 g/m*3 8 C 0 km/h
1291 14-11-2008 22:55:01 8 C 6.12 g/m*3 8 C 0 km/h
1292 14-11-2008 23:07:01 8.1 C 6.16 g/m*3 8.1 C 0 km/h
1293 14-11-2008 23:19:01 8.2 C 6.28 g/m*3 8.2 C 0 km/h
1294 14-11-2008 23:31:01 8.2 C 6.28 g/m*3 8.2 C 0 km/h
1295 14-11-2008 23:43:01 8.1 C 6.24 g/m*3 8.1 C 0 km/h
1296 14-11-2008 23:55:01 8.1 C 6.32 g/m*3 8.1 C 0 km/h
1297 15-11-2008 00:07:01 8.1 C 6.32 g/m*3 8.1 C 0 km/h
1298 15-11-2008 00:19:01 8.1 C 6.32 g/m*3 8.1 C 0 km/h
1299 15-11-2008 00:31:01 8.1 C 6.41 g/m*3 8.1 C 0 km/h
1300 15-11-2008 00:43:02 8.1 C 6.41 g/m*3 8.1 C 0 km/h
Sensor: Nr:Datum:Temp:Abs-Feuchte:Windchill:Wind:
Aussen-T/F 1301 15-11-2008 00:55:02 8.1 C 6.49 g/m*3 8.1 C 0 km/h
1302 15-11-2008 01:07:02 8.1 C 6.49 g/m*3 8.1 C 0 km/h
1303 15-11-2008 01:19:02 8 C 6.45 g/m*3 8 C 0 km/h
1304 15-11-2008 01:31:02 8 C 6.53 g/m*3 8 C 0 km/h
1305 15-11-2008 01:43:02 8.1 C 6.57 g/m*3 8.1 C 0 km/h
1306 15-11-2008 01:55:02 8.1 C 6.57 g/m*3 8.1 C 0 km/h
1307 15-11-2008 02:07:02 8.2 C 6.62 g/m*3 8.2 C 0 km/h
1308 15-11-2008 02:19:02 8.2 C 6.62 g/m*3 8.2 C 0 km/h
1309 15-11-2008 02:31:02 8.2 C 6.62 g/m*3 8.2 C 0 km/h
1310 15-11-2008 02:43:02 8.2 C 6.62 g/m*3 8.2 C 0 km/h
1311 15-11-2008 02:55:02 8.2 C 6.62 g/m*3 8.2 C 0 km/h
1312 15-11-2008 03:07:02 8.2 C 6.62 g/m*3 8.2 C 0 km/h
1313 15-11-2008 03:19:02 8.2 C 6.62 g/m*3 8.2 C 0 km/h
1314 15-11-2008 03:31:02 8.2 C 6.62 g/m*3 8.2 C 0 km/h
1315 15-11-2008 03:43:02 8.2 C 6.7 g/m*3 8.2 C 0 km/h
1316 15-11-2008 03:55:02 8.2 C 6.7 g/m*3 8.2 C 0 km/h
1317 15-11-2008 04:07:02 8.2 C 6.7 g/m*3 8.2 C 0 km/h
1318 15-11-2008 04:19:02 8.2 C 6.7 g/m*3 8.2 C 0 km/h
1319 15-11-2008 04:31:03 8.3 C 6.83 g/m*3 8.3 C 0 km/h
1320 15-11-2008 04:43:03 8.4 C 6.87 g/m*3 8.4 C 0 km/h
1321 15-11-2008 04:55:03 8.5 C 6.92 g/m*3 8.5 C 0 km/h
1322 15-11-2008 05:07:03 8.5 C 6.92 g/m*3 8.5 C 0 km/h
1323 15-11-2008 05:19:03 8.6 C 6.96 g/m*3 8.6 C 0 km/h
1324 15-11-2008 05:31:03 8.7 C 7.01 g/m*3 8.7 C 0 km/h
1325 15-11-2008 05:43:03 8.8 C 6.96 g/m*3 8.8 C 0 km/h
Sensor: Nr:Datum:Temp:Abs-Feuchte:Windchill:Wind:
Aussen-T/F 1326 15-11-2008 05:55:03 8.8 C 6.96 g/m*3 8.8 C 0 km/h
1327 15-11-2008 06:07:03 8.8 C 6.96 g/m*3 8.8 C 0 km/h
1328 15-11-2008 06:19:03 8.8 C 6.96 g/m*3 8.8 C 0 km/h
1329 15-11-2008 06:31:03 8.8 C 6.96 g/m*3 8.8 C 0 km/h
1330 15-11-2008 06:43:03 8.9 C 7.01 g/m*3 8.9 C 0 km/h
1331 15-11-2008 06:55:03 8.9 C 7.01 g/m*3 8.9 C 0 km/h
1332 15-11-2008 07:07:03 9 C 6.96 g/m*3 9 C 0 km/h
1333 15-11-2008 07:19:03 9 C 6.96 g/m*3 9 C 0 km/h
1334 15-11-2008 07:31:03 9 C 6.96 g/m*3 9 C 0 km/h
1335 15-11-2008 07:43:03 9 C 7.05 g/m*3 9 C 0 km/h
1336 15-11-2008 07:55:03 9.4 C 7.15 g/m*3 9.4 C 0 km/h
1337 15-11-2008 08:07:03 9.1 C 7.01 g/m*3 9.1 C 0 km/h
1338 15-11-2008 08:19:01 9.3 C 7.1 g/m*3 9.3 C 0 km/h
1339 15-11-2008 08:31:01 9.3 C 7.1 g/m*3 9.3 C 0 km/h
1340 15-11-2008 08:43:01 9.3 C 7.01 g/m*3 9.3 C 0 km/h
1341 15-11-2008 08:55:02 9.3 C 7.01 g/m*3 9.3 C 0 km/h
1342 15-11-2008 09:07:02 9.4 C 7.05 g/m*3 9.4 C 0 km/h
1343 15-11-2008 09:19:03 9.5 C 7.1 g/m*3 9.5 C 0 km/h
1344 15-11-2008 09:31:02 9.5 C 7.01 g/m*3 9.5 C 0 km/h
1345 15-11-2008 09:43:02 9.6 C 7.05 g/m*3 9.6 C 0 km/h
1346 15-11-2008 09:55:02 9.6 C 7.05 g/m*3 9.6 C 0 km/h
1347 15-11-2008 10:07:02 9.6 C 7.05 g/m*3 9.6 C 0 km/h
1348 15-11-2008 10:19:02 9.7 C 7.01 g/m*3 9.7 C 0 km/h
1349 15-11-2008 10:31:02 9.7 C 7.01 g/m*3 9.7 C 0 km/h
1350 15-11-2008 10:43:03 9.8 C 7.05 g/m*3 9.8 C 0 km/h
Sensor: Nr:Datum:Temp:Abs-Feuchte:Windchill:Wind:
Aussen-T/F 1351 15-11-2008 10:55:01 9.8 C 7.05 g/m*3 9.8 C 0 km/h
1352 15-11-2008 11:07:02 9.8 C 7.05 g/m*3 9.8 C 0 km/h
1353 15-11-2008 11:19:01 9.9 C 7.1 g/m*3 9.9 C 0 km/h
1354 15-11-2008 11:31:02 10.1 C 7.09 g/m*3 10.1 C 0 km/h
1355 15-11-2008 11:43:02 10.2 C 7.04 g/m*3 10.2 C 0 km/h
1356 15-11-2008 11:55:02 10.4 C 7.13 g/m*3 10.4 C 0 km/h
1357 15-11-2008 12:07:02 10.4 C 7.04 g/m*3 10.4 C 0 km/h
1358 15-11-2008 12:19:02 10.6 C 7.03 g/m*3 10.6 C 0 km/h
1359 15-11-2008 12:31:02 10.6 C 7.03 g/m*3 10.6 C 0 km/h
1360 15-11-2008 12:43:02 10.7 C 7.07 g/m*3 10.7 C 0 km/h
1361 15-11-2008 12:55:02 10.8 C 7.02 g/m*3 10.8 C 0 km/h
1362 15-11-2008 13:07:01 11 C 6.91 g/m*3 11 C 0 km/h
1363 15-11-2008 13:19:02 11 C 6.81 g/m*3 11 C 0 km/h
1364 15-11-2008 13:31:02 11.1 C 6.85 g/m*3 11.1 C 0 km/h
1365 15-11-2008 13:43:02 11.2 C 6.79 g/m*3 11.2 C 0 km/h
1366 15-11-2008 13:55:02 11.3 C 6.83 g/m*3 11.3 C 0 km/h
1367 15-11-2008 14:07:02 11.3 C 6.83 g/m*3 11.3 C 0 km/h
1368 15-11-2008 14:19:02 11.3 C 6.83 g/m*3 11.3 C 0 km/h
1369 15-11-2008 14:31:02 11.4 C 6.88 g/m*3 11.4 C 0 km/h
1370 15-11-2008 14:43:02 11.4 C 6.88 g/m*3 11.4 C 0 km/h
1371 15-11-2008 14:55:02 11.4 C 6.88 g/m*3 11.4 C 0 km/h
1372 15-11-2008 15:07:02 11.3 C 6.94 g/m*3 11.3 C 0 km/h
1373 15-11-2008 15:19:02 11.3 C 6.94 g/m*3 11.3 C 0 km/h
1374 15-11-2008 15:31:02 11.3 C 6.94 g/m*3 11.3 C 0 km/h
1375 15-11-2008 15:43:02 11.2 C 6.99 g/m*3 11.2 C 0 km/h
Sensor: Nr:Datum:Temp:Abs-Feuchte:Windchill:Wind:
Aussen-T/F 1376 15-11-2008 15:55:02 11.2 C 6.99 g/m*3 11.2 C 0 km/h
1377 15-11-2008 16:07:02 11.1 C 7.05 g/m*3 11.1 C 0 km/h
1378 15-11-2008 16:19:02 11 C 7.01 g/m*3 11 C 0 km/h
1379 15-11-2008 16:31:02 11 C 7.11 g/m*3 11 C 0 km/h
1380 15-11-2008 16:43:02 11 C 7.11 g/m*3 11 C 0 km/h
1381 15-11-2008 16:55:01 11 C 7.11 g/m*3 11 C 0 km/h
1382 15-11-2008 17:07:02 10.9 C 7.16 g/m*3 10.9 C 0 km/h
1383 15-11-2008 17:19:02 10.9 C 7.26 g/m*3 10.9 C 0 km/h
1384 15-11-2008 17:31:02 10.9 C 7.26 g/m*3 10.9 C 0 km/h
1385 15-11-2008 17:43:02 10.8 C 7.22 g/m*3 10.8 C 0 km/h
1386 15-11-2008 17:55:02 10.8 C 7.31 g/m*3 10.8 C 0 km/h
1387 15-11-2008 18:07:03 10.8 C 7.31 g/m*3 10.8 C 0 km/h
1388 15-11-2008 18:19:02 10.7 C 7.27 g/m*3 10.7 C 0 km/h
1389 15-11-2008 18:31:03 10.8 C 7.31 g/m*3 10.8 C 0 km/h
1390 15-11-2008 18:43:03 10.7 C 7.27 g/m*3 10.7 C 0 km/h
1391 15-11-2008 18:55:02 10.7 C 7.27 g/m*3 10.7 C 0 km/h
1392 15-11-2008 19:07:02 10.7 C 7.27 g/m*3 10.7 C 0 km/h
1393 15-11-2008 19:19:02 10.7 C 7.27 g/m*3 10.7 C 0 km/h
1394 15-11-2008 19:31:02 10.7 C 7.27 g/m*3 10.7 C 0 km/h
1395 15-11-2008 19:43:02 10.7 C 7.27 g/m*3 10.7 C 0 km/h
1396 15-11-2008 19:55:01 10.7 C 7.37 g/m*3 10.7 C 0 km/h
1397 15-11-2008 20:07:02 10.7 C 7.37 g/m*3 10.7 C 0 km/h
1398 15-11-2008 20:19:01 10.6 C 7.32 g/m*3 10.6 C 0 km/h
1399 15-11-2008 20:31:01 10.6 C 7.32 g/m*3 10.6 C 0 km/h
1400 15-11-2008 20:43:01 10.6 C 7.42 g/m*3 10.6 C 0 km/h
Sensor: Nr:Datum:Temp:Abs-Feuchte:Windchill:Wind:
Aussen-T/F 1401 15-11-2008 20:55:02 10.6 C 7.42 g/m*3 10.6 C 0 km/h
1402 15-11-2008 21:07:02 10.5 C 7.47 g/m*3 10.5 C 0 km/h
1403 15-11-2008 21:19:02 10.5 C 7.47 g/m*3 10.5 C 0 km/h
1404 15-11-2008 21:31:02 10.5 C 7.47 g/m*3 10.5 C 0 km/h
1405 15-11-2008 21:43:02 10.5 C 7.57 g/m*3 10.5 C 0 km/h
1406 15-11-2008 21:55:02 10.5 C 7.57 g/m*3 10.5 C 0 km/h
1407 15-11-2008 22:07:01 10.5 C 7.57 g/m*3 10.5 C 0 km/h
1408 15-11-2008 22:19:02 10.5 C 7.57 g/m*3 10.5 C 0 km/h
1409 15-11-2008 22:31:01 10.5 C 7.57 g/m*3 10.5 C 0 km/h
1410 15-11-2008 22:43:01 10.4 C 7.52 g/m*3 10.4 C 0 km/h
1411 15-11-2008 22:55:02 10.4 C 7.61 g/m*3 10.4 C 0 km/h
1412 15-11-2008 23:07:01 10.4 C 7.61 g/m*3 10.4 C 0 km/h
1413 15-11-2008 23:20:02 10.4 C 7.61 g/m*3 10.4 C 0 km/h
1414 15-11-2008 23:32:02 10.4 C 7.61 g/m*3 10.4 C 0 km/h
1415 15-11-2008 23:44:02 10.4 C 7.61 g/m*3 10.4 C 0 km/h
1416 15-11-2008 23:56:03 10.3 C 7.66 g/m*3 10.3 C 0 km/h
1417 16-11-2008 00:08:03 10.2 C 7.71 g/m*3 10.2 C 0 km/h
1418 16-11-2008 00:20:03 10.1 C 7.85 g/m*3 10.1 C 0 km/h
1419 16-11-2008 00:32:03 10 C 7.8 g/m*3 10 C 0 km/h
1420 16-11-2008 00:44:03 10.1 C 7.94 g/m*3 10.1 C 0 km/h
1421 16-11-2008 00:56:03 10 C 7.89 g/m*3 10 C 0 km/h
1422 16-11-2008 01:08:03 10.1 C 7.94 g/m*3 10.1 C 0 km/h
1423 16-11-2008 01:20:03 10.1 C 7.94 g/m*3 10.1 C 0 km/h
1424 16-11-2008 01:32:03 10.1 C 7.94 g/m*3 10.1 C 0 km/h
1425 16-11-2008 01:44:03 10.1 C 7.94 g/m*3 10.1 C 0 km/h
Sensor: Nr:Datum:Temp:Abs-Feuchte:Windchill:Wind:
Aussen-T/F 1426 16-11-2008 01:56:03 10 C 7.99 g/m*3 10 C 0 km/h
1427 16-11-2008 02:08:03 9.9 C 8.12 g/m*3 9.9 C 0 km/h
1428 16-11-2008 02:20:03 10 C 8.08 g/m*3 10 C 0 km/h
1429 16-11-2008 02:32:03 10.1 C 8.13 g/m*3 10.1 C 0 km/h
1430 16-11-2008 02:44:03 10.2 C 8.18 g/m*3 10.2 C 0 km/h
1431 16-11-2008 02:56:03 10.3 C 8.14 g/m*3 10.3 C 0 km/h
1432 16-11-2008 03:08:03 10.3 C 8.04 g/m*3 10.3 C 0 km/h
1433 16-11-2008 03:20:03 10.4 C 8 g/m*3 10.4 C 0 km/h
1434 16-11-2008 03:32:03 10.4 C 8 g/m*3 10.4 C 0 km/h
1435 16-11-2008 03:44:04 10.4 C 7.9 g/m*3 10.4 C 0 km/h
1436 16-11-2008 03:56:04 10.4 C 7.9 g/m*3 10.4 C 0 km/h
1437 16-11-2008 04:08:04 10.4 C 7.9 g/m*3 10.4 C 0 km/h
1438 16-11-2008 04:20:04 10.5 C 7.95 g/m*3 10.5 C 0 km/h
1439 16-11-2008 04:32:04 10.4 C 7.9 g/m*3 10.4 C 0 km/h
1440 16-11-2008 04:44:04 10.5 C 7.95 g/m*3 10.5 C 0 km/h
1441 16-11-2008 04:56:04 10.6 C 7.91 g/m*3 10.6 C 0 km/h
1442 16-11-2008 05:08:04 10.7 C 7.86 g/m*3 10.7 C 0 km/h
1443 16-11-2008 05:20:04 10.7 C 7.86 g/m*3 10.7 C 0 km/h
1444 16-11-2008 05:32:04 10.7 C 7.86 g/m*3 10.7 C 0 km/h
1445 16-11-2008 05:44:04 10.8 C 7.91 g/m*3 10.8 C 0 km/h
1446 16-11-2008 05:56:04 10.8 C 7.81 g/m*3 10.8 C 0 km/h
1447 16-11-2008 06:08:04 10.7 C 7.86 g/m*3 10.7 C 0 km/h
1448 16-11-2008 06:20:04 10.5 C 7.86 g/m*3 10.5 C 0 km/h
1449 16-11-2008 06:32:04 10.2 C 7.99 g/m*3 10.2 C 0 km/h
1450 16-11-2008 06:44:04 10.3 C 8.14 g/m*3 10.3 C 0 km/h
Sensor: Nr:Datum:Temp:Abs-Feuchte:Windchill:Wind:
Aussen-T/F 1451 16-11-2008 06:56:04 10.4 C 8.1 g/m*3 10.4 C 0 km/h
1452 16-11-2008 07:08:04 10.5 C 8.15 g/m*3 10.5 C 0 km/h
1453 16-11-2008 07:20:04 10.6 C 8.1 g/m*3 10.6 C 0 km/h
1454 16-11-2008 07:32:04 10.7 C 8.05 g/m*3 10.7 C 0 km/h
1455 16-11-2008 07:44:05 10.7 C 8.05 g/m*3 10.7 C 0 km/h
1456 16-11-2008 07:56:05 10.8 C 8.11 g/m*3 10.8 C 0 km/h
1457 16-11-2008 08:08:05 10.9 C 8.06 g/m*3 10.9 C 0 km/h
1458 16-11-2008 08:20:01 11 C 8.01 g/m*3 11 C 0 km/h
1459 16-11-2008 08:32:01 11.1 C 8.06 g/m*3 11.1 C 0 km/h
1460 16-11-2008 08:44:01 11.2 C 8.01 g/m*3 11.2 C 0 km/h
1461 16-11-2008 08:56:01 11.2 C 8.01 g/m*3 11.2 C 0 km/h
1462 16-11-2008 09:08:01 11.2 C 8.01 g/m*3 11.2 C 0 km/h
1463 16-11-2008 09:20:01 11.4 C 8.01 g/m*3 11.4 C 0 km/h
1464 16-11-2008 09:32:01 11.7 C 8.16 g/m*3 11.7 C 0 km/h
1465 16-11-2008 09:44:01 11.6 C 8.11 g/m*3 11.6 C 0 km/h
1466 16-11-2008 09:56:02 11.6 C 8.21 g/m*3 11.6 C 0 km/h
1467 16-11-2008 10:08:02 11.4 C 8.21 g/m*3 11.4 C 0 km/h
1468 16-11-2008 10:20:02 11.2 C 8.21 g/m*3 11.2 C 0 km/h
1469 16-11-2008 10:32:02 10.9 C 8.45 g/m*3 10.9 C 0 km/h
1470 16-11-2008 10:44:02 10.7 C 8.64 g/m*3 10.7 C 0 km/h
1471 16-11-2008 10:56:03 10.7 C 8.74 g/m*3 10.7 C 0 km/h
1472 16-11-2008 11:08:03 10.8 C 8.9 g/m*3 10.8 C 0 km/h
1473 16-11-2008 11:20:02 10.9 C 8.95 g/m*3 10.9 C 0 km/h
1474 16-11-2008 11:32:02 11.1 C 9.07 g/m*3 11.1 C 0 km/h
1475 16-11-2008 11:44:02 11.6 C 9.46 g/m*3 11.6 C 0 km/h
Sensor: Nr:Datum:Temp:Abs-Feuchte:Windchill:Wind:
Aussen-T/F 1476 16-11-2008 11:56:02 12.2 C 9.71 g/m*3 12.2 C 0 km/h
1477 16-11-2008 12:08:02 12.4 C 9.62 g/m*3 12.4 C 0 km/h
1478 16-11-2008 12:20:02 12.5 C 9.46 g/m*3 12.5 C 0 km/h
1479 16-11-2008 12:32:02 12.7 C 9.35 g/m*3 12.7 C 0 km/h
1480 16-11-2008 12:44:02 12.7 C 9.35 g/m*3 12.7 C 0 km/h
1481 16-11-2008 12:56:01 12.7 C 9.24 g/m*3 12.7 C 0 km/h
1482 16-11-2008 13:08:02 12.7 C 9.13 g/m*3 12.7 C 0 km/h
1483 16-11-2008 13:20:01 12.7 C 9.02 g/m*3 12.7 C 0 km/h
1484 16-11-2008 13:32:02 12.4 C 8.85 g/m*3 12.4 C 0 km/h
1485 16-11-2008 13:44:02 12.3 C 8.8 g/m*3 12.3 C 0 km/h
1486 16-11-2008 13:56:01 12.1 C 8.79 g/m*3 12.1 C 0 km/h
1487 16-11-2008 14:08:02 11.5 C 8.88 g/m*3 11.5 C 0 km/h
1488 16-11-2008 14:20:01 10.9 C 8.65 g/m*3 10.9 C 0 km/h
1489 16-11-2008 14:32:01 10.7 C 8.64 g/m*3 10.7 C 0 km/h
1490 16-11-2008 14:44:01 10.4 C 8.58 g/m*3 10.4 C 0 km/h
1491 16-11-2008 14:56:01 10.4 C 8.58 g/m*3 10.4 C 0 km/h
1492 16-11-2008 15:08:02 10.3 C 8.62 g/m*3 10.3 C 0 km/h
1493 16-11-2008 15:20:01 10.1 C 8.51 g/m*3 10.1 C 0 km/h
1494 16-11-2008 15:32:02 10.1 C 8.61 g/m*3 10.1 C 0 km/h
1495 16-11-2008 15:44:02 10 C 8.55 g/m*3 10 C 0 km/h
1496 16-11-2008 15:56:02 9.9 C 8.68 g/m*3 9.9 C 0 km/h
1497 16-11-2008 16:08:02 9.7 C 8.57 g/m*3 9.7 C 0 km/h
1498 16-11-2008 16:20:02 9.6 C 8.43 g/m*3 9.6 C 0 km/h
1499 16-11-2008 16:32:02 9.6 C 8.52 g/m*3 9.6 C 0 km/h
1500 16-11-2008 16:44:02 9.5 C 8.37 g/m*3 9.5 C 0 km/h
Sensor: Nr:Datum:Temp:Abs-Feuchte:Windchill:Wind:
Aussen-T/F 1501 16-11-2008 16:56:02 9.4 C 8.32 g/m*3 9.4 C 0 km/h
1502 16-11-2008 17:08:02 9.1 C 7.99 g/m*3 9.1 C 0 km/h
1503 16-11-2008 17:20:02 9.2 C 8.04 g/m*3 9.2 C 0 km/h
1504 16-11-2008 17:32:02 9.2 C 7.95 g/m*3 9.2 C 0 km/h
1505 16-11-2008 17:44:02 9.3 C 7.91 g/m*3 9.3 C 0 km/h
1506 16-11-2008 17:56:02 9.1 C 7.72 g/m*3 9.1 C 0 km/h
1507 16-11-2008 18:08:02 8.9 C 7.62 g/m*3 8.9 C 0 km/h
1508 16-11-2008 18:20:02 8.8 C 7.66 g/m*3 8.8 C 0 km/h
1509 16-11-2008 18:32:02 8.9 C 7.71 g/m*3 8.9 C 0 km/h
1510 16-11-2008 18:44:02 8.9 C 7.71 g/m*3 8.9 C 0 km/h
1511 16-11-2008 18:56:02 8.8 C 7.66 g/m*3 8.8 C 0 km/h
1512 16-11-2008 19:08:03 8.5 C 7.43 g/m*3 8.5 C 0 km/h
1513 16-11-2008 19:20:02 8.3 C 7.25 g/m*3 8.3 C 0 km/h
1514 16-11-2008 19:32:02 8.2 C 7.29 g/m*3 8.2 C 0 km/h
1515 16-11-2008 19:44:02 8.3 C 7.42 g/m*3 8.3 C 0 km/h
1516 16-11-2008 19:56:02 8.6 C 7.39 g/m*3 8.6 C 0 km/h
1517 16-11-2008 20:08:01 8.8 C 7.22 g/m*3 8.8 C 0 km/h
1518 16-11-2008 20:20:02 8.9 C 7.01 g/m*3 8.9 C 0 km/h
1519 16-11-2008 20:32:02 8.7 C 6.92 g/m*3 8.7 C 0 km/h
1520 16-11-2008 20:44:02 8.7 C 6.83 g/m*3 8.7 C 0 km/h
1521 16-11-2008 20:56:02 8.8 C 6.88 g/m*3 8.8 C 0 km/h
1522 16-11-2008 21:08:02 8.8 C 6.79 g/m*3 8.8 C 0 km/h
1523 16-11-2008 21:20:02 8.1 C 5.91 g/m*3 8.1 C 0 km/h
1524 16-11-2008 21:32:02 7.6 C 5.8 g/m*3 7.6 C 0 km/h
1525 16-11-2008 21:44:03 7.3 C 5.77 g/m*3 7.3 C 0 km/h
Sensor: Nr:Datum:Temp:Abs-Feuchte:Windchill:Wind:
Aussen-T/F 1526 16-11-2008 21:56:02 7 C 5.81 g/m*3 7 C 0 km/h
1527 16-11-2008 22:08:01 6.8 C 5.81 g/m*3 6.8 C 0 km/h
1528 16-11-2008 22:20:01 6.7 C 5.77 g/m*3 6.7 C 0 km/h
1529 16-11-2008 22:32:01 6.5 C 5.7 g/m*3 6.5 C 0 km/h
1530 16-11-2008 22:44:01 6.3 C 5.7 g/m*3 6.3 C 0 km/h
1531 16-11-2008 22:56:01 6.1 C 5.63 g/m*3 6.1 C 0 km/h
1532 16-11-2008 23:08:01 5.8 C 5.73 g/m*3 5.8 C 0 km/h
1533 16-11-2008 23:20:01 5.8 C 5.73 g/m*3 5.8 C 0 km/h
1534 16-11-2008 23:32:01 5.9 C 5.7 g/m*3 5.9 C 0 km/h
1535 16-11-2008 23:44:01 5.8 C 5.66 g/m*3 5.8 C 0 km/h
1536 16-11-2008 23:56:01 5.6 C 5.59 g/m*3 5.6 C 0 km/h
1537 17-11-2008 00:08:02 5.5 C 5.55 g/m*3 5.5 C 0 km/h
1538 17-11-2008 00:20:02 5.1 C 5.47 g/m*3 5.1 C 0 km/h
1539 17-11-2008 00:32:02 4.9 C 5.54 g/m*3 4.9 C 0 km/h
1540 17-11-2008 00:44:02 5 C 5.57 g/m*3 5 C 0 km/h
1541 17-11-2008 00:56:02 4.9 C 5.6 g/m*3 4.9 C 0 km/h
1542 17-11-2008 01:08:02 4.7 C 5.66 g/m*3 4.7 C 0 km/h
1543 17-11-2008 01:20:02 4.6 C 5.62 g/m*3 4.6 C 0 km/h
1544 17-11-2008 01:32:02 4.3 C 5.58 g/m*3 4.3 C 0 km/h
1545 17-11-2008 01:44:02 4.1 C 5.5 g/m*3 4.1 C 0 km/h
1546 17-11-2008 01:56:02 3.9 C 5.56 g/m*3 3.9 C 0 km/h
1547 17-11-2008 02:08:02 3.7 C 5.48 g/m*3 3.7 C 0 km/h
1548 17-11-2008 02:20:02 3.5 C 5.41 g/m*3 3.5 C 0 km/h
1549 17-11-2008 02:32:02 3.3 C 5.4 g/m*3 3.3 C 0 km/h
1550 17-11-2008 02:44:02 3 C 5.29 g/m*3 3 C 0 km/h
Sensor: Nr:Datum:Temp:Abs-Feuchte:Windchill:Wind:
Aussen-T/F 1551 17-11-2008 02:56:02 3 C 5.35 g/m*3 3 C 0 km/h
1552 17-11-2008 03:08:02 2.7 C 5.3 g/m*3 2.7 C 0 km/h
1553 17-11-2008 03:20:02 2.6 C 5.27 g/m*3 2.6 C 0 km/h
1554 17-11-2008 03:32:02 2.4 C 5.2 g/m*3 2.4 C 0 km/h
1555 17-11-2008 03:44:02 2.2 C 5.18 g/m*3 2.2 C 0 km/h
1556 17-11-2008 03:56:03 2.3 C 5.22 g/m*3 2.3 C 0 km/h
1557 17-11-2008 04:08:03 2.2 C 5.18 g/m*3 2.2 C 0 km/h
1558 17-11-2008 04:20:03 2.2 C 5.18 g/m*3 2.2 C 0 km/h
1559 17-11-2008 04:32:03 2.1 C 5.15 g/m*3 2.1 C 0 km/h
1560 17-11-2008 04:44:03 1.9 C 5.13 g/m*3 1.9 C 0 km/h
1561 17-11-2008 04:56:03 1.7 C 5.06 g/m*3 1.7 C 0 km/h
1562 17-11-2008 05:08:03 1.5 C 4.99 g/m*3 1.5 C 0 km/h
1563 17-11-2008 05:20:03 1.6 C 5.03 g/m*3 1.6 C 0 km/h
1564 17-11-2008 05:32:03 1.4 C 4.96 g/m*3 1.4 C 0 km/h
1565 17-11-2008 05:44:03 1.4 C 5.01 g/m*3 1.4 C 0 km/h
1566 17-11-2008 05:56:03 1.5 C 5.05 g/m*3 1.5 C 0 km/h
1567 17-11-2008 06:08:03 1.5 C 5.1 g/m*3 1.5 C 0 km/h
1568 17-11-2008 06:20:03 1.5 C 5.1 g/m*3 1.5 C 0 km/h
1569 17-11-2008 06:32:03 1.5 C 5.1 g/m*3 1.5 C 0 km/h
1570 17-11-2008 06:44:03 1.4 C 5.07 g/m*3 1.4 C 0 km/h
1571 17-11-2008 06:56:03 1.3 C 5.03 g/m*3 1.3 C 0 km/h
1572 17-11-2008 07:08:02 1.1 C 4.96 g/m*3 1.1 C 0 km/h
1573 17-11-2008 07:20:02 1.3 C 5.03 g/m*3 1.3 C 0 km/h
1574 17-11-2008 07:32:01 1.4 C 5.07 g/m*3 1.4 C 0 km/h
1575 17-11-2008 07:44:01 1.4 C 5.07 g/m*3 1.4 C 0 km/h
Sensor: Nr:Datum:Temp:Abs-Feuchte:Windchill:Wind:
Aussen-T/F 1576 17-11-2008 07:56:01 1.4 C 5.07 g/m*3 1.4 C 0 km/h
1577 17-11-2008 08:08:02 1.4 C 5.07 g/m*3 1.4 C 0 km/h
1578 17-11-2008 08:20:02 1.5 C 5.1 g/m*3 1.5 C 0 km/h
1579 17-11-2008 08:32:02 1.4 C 5.07 g/m*3 1.4 C 0 km/h
1580 17-11-2008 08:44:02 1.5 C 5.1 g/m*3 1.5 C 0 km/h
1581 17-11-2008 08:56:01 1.6 C 5.14 g/m*3 1.6 C 0 km/h
1582 17-11-2008 09:08:01 1.7 C 5.17 g/m*3 1.7 C 0 km/h
1583 17-11-2008 09:20:02 1.8 C 5.21 g/m*3 1.8 C 0 km/h
1584 17-11-2008 09:32:01 1.9 C 5.24 g/m*3 1.9 C 0 km/h
1585 17-11-2008 09:44:01 2 C 5.28 g/m*3 2 C 0 km/h
1586 17-11-2008 09:56:02 2 C 5.28 g/m*3 2 C 0 km/h
1587 17-11-2008 10:08:01 1.9 C 5.24 g/m*3 1.9 C 0 km/h
1588 17-11-2008 10:20:02 2 C 5.28 g/m*3 2 C 0 km/h
1589 17-11-2008 10:32:01 2.2 C 5.35 g/m*3 2.2 C 0 km/h
1590 17-11-2008 10:44:01 2.5 C 5.46 g/m*3 2.5 C 0 km/h
1591 17-11-2008 10:56:01 2.4 C 5.42 g/m*3 2.4 C 0 km/h
1592 17-11-2008 11:08:01 2.5 C 5.46 g/m*3 2.5 C 0 km/h
1593 17-11-2008 11:20:02 2.7 C 5.54 g/m*3 2.7 C 0 km/h
1594 17-11-2008 11:32:01 3.1 C 5.69 g/m*3 3.1 C 0 km/h
1595 17-11-2008 11:44:01 3.5 C 5.84 g/m*3 3.5 C 0 km/h
1596 17-11-2008 11:56:01 4 C 6.04 g/m*3 4 C 0 km/h
1597 17-11-2008 12:08:01 4.8 C 6.37 g/m*3 4.8 C 0 km/h
1598 17-11-2008 12:20:01 6.1 C 6.79 g/m*3 6.1 C 0 km/h
1599 17-11-2008 12:32:01 7 C 6.43 g/m*3 7 C 0 km/h
1600 17-11-2008 12:44:01 7.6 C 5.96 g/m*3 7.6 C 0 km/h
Sensor: Nr:Datum:Temp:Abs-Feuchte:Windchill:Wind:
Aussen-T/F 1601 17-11-2008 12:56:01 8 C 5.95 g/m*3 8 C 0 km/h
1602 17-11-2008 13:08:02 8.1 C 5.66 g/m*3 8.1 C 0 km/h
1603 17-11-2008 13:20:01 8.7 C 5.97 g/m*3 8.7 C 0 km/h
1604 17-11-2008 13:32:01 8.5 C 5.89 g/m*3 8.5 C 0 km/h
1605 17-11-2008 13:44:01 8.7 C 5.88 g/m*3 8.7 C 0 km/h
1606 17-11-2008 13:56:01 8.7 C 5.62 g/m*3 8.7 C 0 km/h
1607 17-11-2008 14:08:02 8.9 C 5.69 g/m*3 8.9 C 0 km/h
1608 17-11-2008 14:20:01 8.9 C 5.69 g/m*3 8.9 C 0 km/h
1609 17-11-2008 14:32:02 8.9 C 5.69 g/m*3 8.9 C 0 km/h
1610 17-11-2008 14:44:02 8.7 C 5.53 g/m*3 8.7 C 0 km/h
1611 17-11-2008 14:56:01 8.5 C 5.55 g/m*3 8.5 C 0 km/h
1612 17-11-2008 15:08:02 8.4 C 5.43 g/m*3 8.4 C 0 km/h
1613 17-11-2008 15:20:01 8.3 C 5.48 g/m*3 8.3 C 0 km/h
1614 17-11-2008 15:32:02 8.1 C 5.49 g/m*3 8.1 C 0 km/h
1615 17-11-2008 15:44:02 8 C 5.54 g/m*3 8 C 0 km/h
1616 17-11-2008 15:56:01 7.8 C 5.55 g/m*3 7.8 C 0 km/h
1617 17-11-2008 16:08:02 7.4 C 5.49 g/m*3 7.4 C 0 km/h
1618 17-11-2008 16:20:01 7 C 5.5 g/m*3 7 C 0 km/h
1619 17-11-2008 16:32:02 6.6 C 5.59 g/m*3 6.6 C 0 km/h
1620 17-11-2008 16:44:02 6.3 C 5.55 g/m*3 6.3 C 0 km/h
1621 17-11-2008 16:56:01 6.2 C 5.66 g/m*3 6.2 C 0 km/h
1622 17-11-2008 17:08:01 6.1 C 5.7 g/m*3 6.1 C 0 km/h
1623 17-11-2008 17:20:01 6 C 5.73 g/m*3 6 C 0 km/h
1624 17-11-2008 17:32:02 6 C 5.73 g/m*3 6 C 0 km/h
1625 17-11-2008 17:44:02 5.9 C 5.7 g/m*3 5.9 C 0 km/h
Sensor: Nr:Datum:Temp:Abs-Feuchte:Windchill:Wind:
Aussen-T/F 1626 17-11-2008 17:56:01 5.8 C 5.66 g/m*3 5.8 C 0 km/h
1627 17-11-2008 18:08:02 5.6 C 5.51 g/m*3 5.6 C 0 km/h
1628 17-11-2008 18:20:01 5.3 C 5.41 g/m*3 5.3 C 0 km/h
1629 17-11-2008 18:32:02 4.9 C 5.4 g/m*3 4.9 C 0 km/h
1630 17-11-2008 18:44:02 4.6 C 5.36 g/m*3 4.6 C 0 km/h
1631 17-11-2008 18:56:01 4.5 C 5.39 g/m*3 4.5 C 0 km/h
1632 17-11-2008 19:08:01 4.3 C 5.38 g/m*3 4.3 C 0 km/h
1633 17-11-2008 19:20:01 4.1 C 5.31 g/m*3 4.1 C 0 km/h
1634 17-11-2008 19:32:02 4 C 5.28 g/m*3 4 C 0 km/h
1635 17-11-2008 19:44:02 3.9 C 5.37 g/m*3 3.9 C 0 km/h
1636 17-11-2008 19:56:02 3.8 C 5.4 g/m*3 3.8 C 0 km/h
1637 17-11-2008 20:08:01 3.6 C 5.32 g/m*3 3.6 C 0 km/h
1638 17-11-2008 20:20:02 3.6 C 5.39 g/m*3 3.6 C 0 km/h
1639 17-11-2008 20:32:01 3.3 C 5.28 g/m*3 3.3 C 0 km/h
1640 17-11-2008 20:44:01 3.1 C 5.21 g/m*3 3.1 C 0 km/h
1641 17-11-2008 20:56:01 3.1 C 5.27 g/m*3 3.1 C 0 km/h
1642 17-11-2008 21:08:02 3 C 5.23 g/m*3 3 C 0 km/h
1643 17-11-2008 21:20:01 3 C 5.29 g/m*3 3 C 0 km/h
1644 17-11-2008 21:32:02 3.1 C 5.33 g/m*3 3.1 C 0 km/h
1645 17-11-2008 21:44:02 3.2 C 5.42 g/m*3 3.2 C 0 km/h
1646 17-11-2008 21:56:01 3.4 C 5.5 g/m*3 3.4 C 0 km/h
1647 17-11-2008 22:08:02 3.3 C 5.46 g/m*3 3.3 C 0 km/h
1648 17-11-2008 22:20:01 3.3 C 5.46 g/m*3 3.3 C 0 km/h
1649 17-11-2008 22:32:02 3.3 C 5.4 g/m*3 3.3 C 0 km/h
1650 17-11-2008 22:44:02 3.3 C 5.4 g/m*3 3.3 C 0 km/h
Sensor: Nr:Datum:Temp:Abs-Feuchte:Windchill:Wind:
Aussen-T/F 1651 17-11-2008 22:57:03 3.2 C 5.36 g/m*3 3.2 C 0 km/h
1652 17-11-2008 23:09:03 3.2 C 5.36 g/m*3 3.2 C 0 km/h
1653 17-11-2008 23:21:03 3.1 C 5.33 g/m*3 3.1 C 0 km/h
1654 17-11-2008 23:33:03 3.1 C 5.33 g/m*3 3.1 C 0 km/h
1655 17-11-2008 23:45:03 3 C 5.29 g/m*3 3 C 0 km/h
1656 17-11-2008 23:57:03 3 C 5.29 g/m*3 3 C 0 km/h
1657 18-11-2008 00:09:03 3 C 5.29 g/m*3 3 C 0 km/h
1658 18-11-2008 00:21:03 2.8 C 5.22 g/m*3 2.8 C 0 km/h
1659 18-11-2008 00:33:03 2.7 C 5.19 g/m*3 2.7 C 0 km/h
1660 18-11-2008 00:45:03 2.6 C 5.15 g/m*3 2.6 C 0 km/h
1661 18-11-2008 00:57:03 2.6 C 5.15 g/m*3 2.6 C 0 km/h
1662 18-11-2008 01:09:03 2.8 C 5.22 g/m*3 2.8 C 0 km/h
1663 18-11-2008 01:21:03 2.7 C 5.13 g/m*3 2.7 C 0 km/h
1664 18-11-2008 01:33:03 2.6 C 5.03 g/m*3 2.6 C 0 km/h
1665 18-11-2008 01:45:03 2.6 C 5.03 g/m*3 2.6 C 0 km/h
1666 18-11-2008 01:57:03 2.7 C 5.07 g/m*3 2.7 C 0 km/h
1667 18-11-2008 02:09:03 2.7 C 5.07 g/m*3 2.7 C 0 km/h
1668 18-11-2008 02:21:03 2.7 C 5.07 g/m*3 2.7 C 0 km/h
1669 18-11-2008 02:33:03 2.7 C 5.07 g/m*3 2.7 C 0 km/h
1670 18-11-2008 02:45:03 2.7 C 5.07 g/m*3 2.7 C 0 km/h
1671 18-11-2008 02:57:04 2.7 C 5.07 g/m*3 2.7 C 0 km/h
1672 18-11-2008 03:09:04 2.5 C 5 g/m*3 2.5 C 0 km/h
1673 18-11-2008 03:21:04 2.3 C 4.93 g/m*3 2.3 C 0 km/h
1674 18-11-2008 03:33:04 2.2 C 4.9 g/m*3 2.2 C 0 km/h
1675 18-11-2008 03:45:04 2.2 C 4.9 g/m*3 2.2 C 0 km/h
Sensor: Nr:Datum:Temp:Abs-Feuchte:Windchill:Wind:
Aussen-T/F 1676 18-11-2008 03:57:04 2.1 C 4.92 g/m*3 2.1 C 0 km/h
1677 18-11-2008 04:09:04 1.9 C 4.86 g/m*3 1.9 C 0 km/h
1678 18-11-2008 04:21:04 1.9 C 4.91 g/m*3 1.9 C 0 km/h
1679 18-11-2008 04:33:04 1.7 C 4.85 g/m*3 1.7 C 0 km/h
1680 18-11-2008 04:45:04 1.6 C 4.81 g/m*3 1.6 C 0 km/h
1681 18-11-2008 04:57:04 1.5 C 4.78 g/m*3 1.5 C 0 km/h
1682 18-11-2008 05:09:04 1.5 C 4.78 g/m*3 1.5 C 0 km/h
1683 18-11-2008 05:21:04 1.4 C 4.75 g/m*3 1.4 C 0 km/h
1684 18-11-2008 05:33:04 1.4 C 4.8 g/m*3 1.4 C 0 km/h
1685 18-11-2008 05:45:04 1.5 C 4.83 g/m*3 1.5 C 0 km/h
1686 18-11-2008 05:57:04 1.4 C 4.8 g/m*3 1.4 C 0 km/h
1687 18-11-2008 06:09:04 1.4 C 4.8 g/m*3 1.4 C 0 km/h
1688 18-11-2008 06:21:04 1.6 C 4.92 g/m*3 1.6 C 0 km/h
1689 18-11-2008 06:33:04 1.8 C 4.99 g/m*3 1.8 C 0 km/h
1690 18-11-2008 06:45:05 2 C 5.06 g/m*3 2 C 0 km/h
1691 18-11-2008 06:57:05 2 C 5.06 g/m*3 2 C 0 km/h
1692 18-11-2008 07:09:02 2 C 5 g/m*3 2 C 0 km/h
1693 18-11-2008 07:21:02 2.2 C 5.07 g/m*3 2.2 C 0 km/h
1694 18-11-2008 07:33:02 2.2 C 5.07 g/m*3 2.2 C 0 km/h
1695 18-11-2008 07:45:01 2.2 C 5.07 g/m*3 2.2 C 0 km/h
1696 18-11-2008 07:57:01 2.3 C 5.1 g/m*3 2.3 C 0 km/h
1697 18-11-2008 08:09:02 2.4 C 5.14 g/m*3 2.4 C 0 km/h
1698 18-11-2008 08:21:02 2.5 C 5.17 g/m*3 2.5 C 0 km/h
1699 18-11-2008 08:33:01 2.5 C 5.12 g/m*3 2.5 C 0 km/h
1700 18-11-2008 08:45:01 2.6 C 5.15 g/m*3 2.6 C 0 km/h
Sensor: Nr:Datum:Temp:Abs-Feuchte:Windchill:Wind:
Aussen-T/F 1701 18-11-2008 08:57:01 3 C 5.23 g/m*3 3 C 0 km/h
1702 18-11-2008 09:09:02 3.2 C 5.24 g/m*3 3.2 C 0 km/h
1703 18-11-2008 09:21:01 3.9 C 5.24 g/m*3 3.9 C 0 km/h
1704 18-11-2008 09:33:02 4.2 C 5.03 g/m*3 4.2 C 0 km/h
1705 18-11-2008 09:45:02 4.5 C 4.93 g/m*3 4.5 C 0 km/h
1706 18-11-2008 09:57:02 4.8 C 4.9 g/m*3 4.8 C 0 km/h
1707 18-11-2008 10:09:02 5 C 4.82 g/m*3 5 C 0 km/h
1708 18-11-2008 10:21:01 5.1 C 4.79 g/m*3 5.1 C 0 km/h
1709 18-11-2008 10:33:02 5.1 C 4.79 g/m*3 5.1 C 0 km/h
1710 18-11-2008 10:45:02 5 C 4.69 g/m*3 5 C 0 km/h
1711 18-11-2008 10:57:02 5 C 4.76 g/m*3 5 C 0 km/h
1712 18-11-2008 11:09:02 5.1 C 4.86 g/m*3 5.1 C 0 km/h
1713 18-11-2008 11:21:02 4.8 C 5.03 g/m*3 4.8 C 0 km/h
1714 18-11-2008 11:33:02 4.8 C 5.23 g/m*3 4.8 C 0 km/h
1715 18-11-2008 11:45:02 4.9 C 5.33 g/m*3 4.9 C 0 km/h
1716 18-11-2008 11:57:02 5.3 C 5.27 g/m*3 5.3 C 0 km/h
1717 18-11-2008 12:09:03 5.5 C 5.34 g/m*3 5.5 C 0 km/h
1718 18-11-2008 12:21:01 5.7 C 5.34 g/m*3 5.7 C 0 km/h
1719 18-11-2008 12:33:02 5.9 C 5.41 g/m*3 5.9 C 0 km/h
1720 18-11-2008 12:45:02 5.9 C 5.41 g/m*3 5.9 C 0 km/h
1721 18-11-2008 12:57:02 5.9 C 5.41 g/m*3 5.9 C 0 km/h
1722 18-11-2008 13:09:03 6.1 C 5.41 g/m*3 6.1 C 0 km/h
1723 18-11-2008 13:21:02 6.3 C 5.4 g/m*3 6.3 C 0 km/h
1724 18-11-2008 13:33:02 6.4 C 5.44 g/m*3 6.4 C 0 km/h
1725 18-11-2008 13:45:03 6.7 C 5.55 g/m*3 6.7 C 0 km/h
Sensor: Nr:Datum:Temp:Abs-Feuchte:Windchill:Wind:
Aussen-T/F 1726 18-11-2008 13:57:03 7.3 C 5.61 g/m*3 7.3 C 0 km/h
1727 18-11-2008 14:09:02 7.6 C 5.72 g/m*3 7.6 C 0 km/h
1728 18-11-2008 14:21:02 8.1 C 5.57 g/m*3 8.1 C 0 km/h
1729 18-11-2008 14:33:02 7.6 C 5.64 g/m*3 7.6 C 0 km/h
1730 18-11-2008 14:45:02 7.3 C 5.61 g/m*3 7.3 C 0 km/h
1731 18-11-2008 14:57:02 7.3 C 5.77 g/m*3 7.3 C 0 km/h
1732 18-11-2008 15:09:02 7.3 C 5.77 g/m*3 7.3 C 0 km/h
1733 18-11-2008 15:21:02 7.2 C 5.73 g/m*3 7.2 C 0 km/h
1734 18-11-2008 15:33:02 7.1 C 5.77 g/m*3 7.1 C 0 km/h
1735 18-11-2008 15:45:02 7 C 5.81 g/m*3 7 C 0 km/h
1736 18-11-2008 15:57:02 6.9 C 5.93 g/m*3 6.9 C 0 km/h
1737 18-11-2008 16:09:02 6.9 C 5.85 g/m*3 6.9 C 0 km/h
1738 18-11-2008 16:21:02 6.8 C 5.81 g/m*3 6.8 C 0 km/h
1739 18-11-2008 16:33:02 6.8 C 5.89 g/m*3 6.8 C 0 km/h
1740 18-11-2008 16:45:01 6.8 C 5.89 g/m*3 6.8 C 0 km/h
1741 18-11-2008 16:57:01 6.8 C 5.89 g/m*3 6.8 C 0 km/h
1742 18-11-2008 17:09:02 6.8 C 5.97 g/m*3 6.8 C 0 km/h
1743 18-11-2008 17:21:01 6.8 C 5.97 g/m*3 6.8 C 0 km/h
1744 18-11-2008 17:33:02 6.9 C 6 g/m*3 6.9 C 0 km/h
1745 18-11-2008 17:45:03 6.8 C 5.97 g/m*3 6.8 C 0 km/h
1746 18-11-2008 17:57:03 6.4 C 6.04 g/m*3 6.4 C 0 km/h
1747 18-11-2008 18:09:02 6.3 C 6.14 g/m*3 6.3 C 0 km/h
1748 18-11-2008 18:21:02 6.3 C 6.29 g/m*3 6.3 C 0 km/h
1749 18-11-2008 18:33:02 6.2 C 6.32 g/m*3 6.2 C 0 km/h
1750 18-11-2008 18:45:02 6.2 C 6.4 g/m*3 6.2 C 0 km/h
Sensor: Nr:Datum:Temp:Abs-Feuchte:Windchill:Wind:
Aussen-T/F 1751 18-11-2008 18:57:02 6.2 C 6.4 g/m*3 6.2 C 0 km/h
1752 18-11-2008 19:09:02 6.2 C 6.47 g/m*3 6.2 C 0 km/h
1753 18-11-2008 19:21:02 6.4 C 6.48 g/m*3 6.4 C 0 km/h
1754 18-11-2008 19:33:02 6.4 C 6.48 g/m*3 6.4 C 0 km/h
1755 18-11-2008 19:45:01 6.3 C 6.51 g/m*3 6.3 C 0 km/h
1756 18-11-2008 19:57:01 6.4 C 6.56 g/m*3 6.4 C 0 km/h
1757 18-11-2008 20:09:02 6.5 C 6.6 g/m*3 6.5 C 0 km/h
1758 18-11-2008 20:21:01 6.5 C 6.6 g/m*3 6.5 C 0 km/h
1759 18-11-2008 20:33:02 6.5 C 6.6 g/m*3 6.5 C 0 km/h
1760 18-11-2008 20:45:02 6.6 C 6.64 g/m*3 6.6 C 0 km/h
1761 18-11-2008 20:57:02 6.8 C 6.65 g/m*3 6.8 C 0 km/h
1762 18-11-2008 21:09:02 7 C 6.59 g/m*3 7 C 0 km/h
1763 18-11-2008 21:21:03 6.8 C 6.65 g/m*3 6.8 C 0 km/h
1764 18-11-2008 21:33:02 6.7 C 6.69 g/m*3 6.7 C 0 km/h
1765 18-11-2008 21:45:01 6.6 C 6.79 g/m*3 6.6 C 0 km/h
1766 18-11-2008 21:57:01 6.5 C 6.82 g/m*3 6.5 C 0 km/h
1767 18-11-2008 22:09:02 6.5 C 6.9 g/m*3 6.5 C 0 km/h
1768 18-11-2008 22:21:01 6.6 C 6.95 g/m*3 6.6 C 0 km/h
1769 18-11-2008 22:33:02 6.6 C 6.95 g/m*3 6.6 C 0 km/h
1770 18-11-2008 22:45:02 6.8 C 7.11 g/m*3 6.8 C 0 km/h
1771 18-11-2008 22:57:02 6.7 C 7.07 g/m*3 6.7 C 0 km/h
1772 18-11-2008 23:09:02 6.7 C 7.07 g/m*3 6.7 C 0 km/h
1773 18-11-2008 23:21:02 6.9 C 7.16 g/m*3 6.9 C 0 km/h
1774 18-11-2008 23:33:02 7.2 C 7.22 g/m*3 7.2 C 0 km/h
1775 18-11-2008 23:45:02 7 C 7.13 g/m*3 7 C 0 km/h
Sensor: Nr:Datum:Temp:Abs-Feuchte:Windchill:Wind:
Aussen-T/F 1776 18-11-2008 23:57:02 7.3 C 7.27 g/m*3 7.3 C 0 km/h
1777 19-11-2008 00:09:03 7.3 C 7.27 g/m*3 7.3 C 0 km/h
1778 19-11-2008 00:21:02 7.3 C 7.27 g/m*3 7.3 C 0 km/h
1779 19-11-2008 00:33:02 7.2 C 7.14 g/m*3 7.2 C 0 km/h
1780 19-11-2008 00:45:01 7 C 7.05 g/m*3 7 C 0 km/h
1781 19-11-2008 00:57:01 7.3 C 7.19 g/m*3 7.3 C 0 km/h
1782 19-11-2008 01:09:02 7.2 C 6.99 g/m*3 7.2 C 0 km/h
1783 19-11-2008 01:21:01 7 C 6.9 g/m*3 7 C 0 km/h
1784 19-11-2008 01:33:02 7.5 C 7.04 g/m*3 7.5 C 0 km/h
1785 19-11-2008 01:45:02 7.6 C 6.85 g/m*3 7.6 C 0 km/h
1786 19-11-2008 01:57:02 7.9 C 6.82 g/m*3 7.9 C 0 km/h
1787 19-11-2008 02:09:02 7.6 C 6.44 g/m*3 7.6 C 0 km/h
1788 19-11-2008 02:21:02 7.5 C 6.4 g/m*3 7.5 C 0 km/h
1789 19-11-2008 02:33:02 7.3 C 6.4 g/m*3 7.3 C 0 km/h
1790 19-11-2008 02:45:01 7.1 C 6.4 g/m*3 7.1 C 0 km/h
1791 19-11-2008 02:57:01 6.7 C 6.38 g/m*3 6.7 C 0 km/h
1792 19-11-2008 03:09:01 6.4 C 6.41 g/m*3 6.4 C 0 km/h
1793 19-11-2008 03:21:01 6 C 6.24 g/m*3 6 C 0 km/h
1794 19-11-2008 03:33:02 5.8 C 6.3 g/m*3 5.8 C 0 km/h
1795 19-11-2008 03:45:02 5.6 C 6.22 g/m*3 5.6 C 0 km/h
1796 19-11-2008 03:57:02 5.7 C 6.33 g/m*3 5.7 C 0 km/h
1797 19-11-2008 04:09:01 5.6 C 6.29 g/m*3 5.6 C 0 km/h
1798 19-11-2008 04:21:02 5.5 C 6.32 g/m*3 5.5 C 0 km/h
1799 19-11-2008 04:33:01 5.1 C 6.09 g/m*3 5.1 C 0 km/h
1800 19-11-2008 04:45:01 4.8 C 6.04 g/m*3 4.8 C 0 km/h
Sensor: Nr:Datum:Temp:Abs-Feuchte:Windchill:Wind:
Aussen-T/F 1801 19-11-2008 04:57:01 4.6 C 6.02 g/m*3 4.6 C 0 km/h
1802 19-11-2008 05:09:01 4.4 C 5.94 g/m*3 4.4 C 0 km/h
1803 19-11-2008 05:21:02 4.3 C 5.9 g/m*3 4.3 C 0 km/h
1804 19-11-2008 05:33:01 4.4 C 6.01 g/m*3 4.4 C 0 km/h
1805 19-11-2008 05:45:01 4.5 C 6.05 g/m*3 4.5 C 0 km/h
1806 19-11-2008 05:57:01 4.8 C 6.17 g/m*3 4.8 C 0 km/h
1807 19-11-2008 06:09:01 4.8 C 6.17 g/m*3 4.8 C 0 km/h
1808 19-11-2008 06:21:01 4.7 C 6.06 g/m*3 4.7 C 0 km/h
1809 19-11-2008 06:33:01 4.7 C 6 g/m*3 4.7 C 0 km/h
1810 19-11-2008 06:45:01 5 C 5.98 g/m*3 5 C 0 km/h
1811 19-11-2008 06:57:01 5.3 C 5.82 g/m*3 5.3 C 0 km/h
1812 19-11-2008 07:09:02 5.2 C 5.65 g/m*3 5.2 C 0 km/h
1813 19-11-2008 07:21:02 5.3 C 5.68 g/m*3 5.3 C 0 km/h
1814 19-11-2008 07:33:01 5.6 C 5.66 g/m*3 5.6 C 0 km/h
1815 19-11-2008 07:45:01 5.6 C 5.66 g/m*3 5.6 C 0 km/h
1816 19-11-2008 07:57:01 5.6 C 5.66 g/m*3 5.6 C 0 km/h
1817 19-11-2008 08:09:01 5.6 C 5.73 g/m*3 5.6 C 0 km/h
1818 19-11-2008 08:21:01 5.8 C 5.8 g/m*3 5.8 C 0 km/h
1819 19-11-2008 08:33:01 5.9 C 5.77 g/m*3 5.9 C 0 km/h
1820 19-11-2008 08:45:01 6.1 C 5.7 g/m*3 6.1 C 0 km/h
1821 19-11-2008 08:57:01 6.3 C 5.7 g/m*3 6.3 C 0 km/h
1822 19-11-2008 09:09:02 6.7 C 5.7 g/m*3 6.7 C 0 km/h
1823 19-11-2008 09:21:01 6.8 C 5.74 g/m*3 6.8 C 0 km/h
1824 19-11-2008 09:33:01 6.8 C 5.74 g/m*3 6.8 C 0 km/h
1825 19-11-2008 09:45:01 7 C 5.66 g/m*3 7 C 0 km/h
Sensor: Nr:Datum:Temp:Abs-Feuchte:Windchill:Wind:
Aussen-T/F 1826 19-11-2008 09:57:01 7.2 C 5.81 g/m*3 7.2 C 0 km/h
1827 19-11-2008 10:09:02 7.4 C 5.73 g/m*3 7.4 C 0 km/h
1828 19-11-2008 10:21:01 7.4 C 5.81 g/m*3 7.4 C 0 km/h
1829 19-11-2008 10:33:02 7.5 C 5.84 g/m*3 7.5 C 0 km/h
1830 19-11-2008 10:45:01 7.6 C 5.88 g/m*3 7.6 C 0 km/h
1831 19-11-2008 10:57:01 7.8 C 6.04 g/m*3 7.8 C 0 km/h
1832 19-11-2008 11:09:02 7.8 C 5.96 g/m*3 7.8 C 0 km/h
1833 19-11-2008 11:21:01 7.9 C 6 g/m*3 7.9 C 0 km/h
1834 19-11-2008 11:33:02 8.1 C 5.99 g/m*3 8.1 C 0 km/h
1835 19-11-2008 11:45:02 8.5 C 6.06 g/m*3 8.5 C 0 km/h
1836 19-11-2008 11:57:02 8.9 C 6.13 g/m*3 8.9 C 0 km/h
1837 19-11-2008 12:09:01 9.1 C 6.12 g/m*3 9.1 C 0 km/h
1838 19-11-2008 12:21:01 9 C 6.08 g/m*3 9 C 0 km/h
1839 19-11-2008 12:33:01 9.1 C 6.12 g/m*3 9.1 C 0 km/h
1840 19-11-2008 12:45:01 9.6 C 6.32 g/m*3 9.6 C 0 km/h
1841 19-11-2008 12:57:01 9.8 C 6.22 g/m*3 9.8 C 0 km/h
1842 19-11-2008 13:09:02 9.9 C 6.26 g/m*3 9.9 C 0 km/h
1843 19-11-2008 13:21:01 9.9 C 6.16 g/m*3 9.9 C 0 km/h
1844 19-11-2008 13:33:02 10 C 6.01 g/m*3 10 C 0 km/h
1845 19-11-2008 13:45:01 9.9 C 5.98 g/m*3 9.9 C 0 km/h
1846 19-11-2008 13:57:01 10 C 5.92 g/m*3 10 C 0 km/h
1847 19-11-2008 14:09:02 10.2 C 5.9 g/m*3 10.2 C 0 km/h
1848 19-11-2008 14:21:01 10 C 5.83 g/m*3 10 C 0 km/h
1849 19-11-2008 14:33:02 10.2 C 6 g/m*3 10.2 C 0 km/h
1850 19-11-2008 14:45:01 10.2 C 5.8 g/m*3 10.2 C 0 km/h
Sensor: Nr:Datum:Temp:Abs-Feuchte:Windchill:Wind:
Aussen-T/F 1851 19-11-2008 14:57:01 10.2 C 5.71 g/m*3 10.2 C 0 km/h
1852 19-11-2008 15:09:02 10.1 C 5.58 g/m*3 10.1 C 0 km/h
1853 19-11-2008 15:21:01 10 C 5.45 g/m*3 10 C 0 km/h
1854 19-11-2008 15:33:02 9.8 C 5.38 g/m*3 9.8 C 0 km/h
1855 19-11-2008 15:45:01 9.7 C 5.53 g/m*3 9.7 C 0 km/h
1856 19-11-2008 15:57:01 9.7 C 5.44 g/m*3 9.7 C 0 km/h
1857 19-11-2008 16:09:01 9.7 C 5.53 g/m*3 9.7 C 0 km/h
1858 19-11-2008 16:21:01 9.6 C 5.5 g/m*3 9.6 C 0 km/h
1859 19-11-2008 16:33:02 9.5 C 5.55 g/m*3 9.5 C 0 km/h
1860 19-11-2008 16:45:01 9.5 C 5.55 g/m*3 9.5 C 0 km/h
1861 19-11-2008 16:57:02 9.5 C 5.64 g/m*3 9.5 C 0 km/h
1862 19-11-2008 17:09:01 9.3 C 5.66 g/m*3 9.3 C 0 km/h
1863 19-11-2008 17:21:01 9.3 C 5.66 g/m*3 9.3 C 0 km/h
1864 19-11-2008 17:33:01 9.3 C 5.66 g/m*3 9.3 C 0 km/h
1865 19-11-2008 17:45:02 9.3 C 5.66 g/m*3 9.3 C 0 km/h
1866 19-11-2008 17:57:02 9.2 C 5.71 g/m*3 9.2 C 0 km/h
1867 19-11-2008 18:09:01 9.1 C 5.68 g/m*3 9.1 C 0 km/h
1868 19-11-2008 18:21:02 9.1 C 5.77 g/m*3 9.1 C 0 km/h
1869 19-11-2008 18:33:01 9 C 5.73 g/m*3 9 C 0 km/h
1870 19-11-2008 18:45:01 9 C 5.73 g/m*3 9 C 0 km/h
1871 19-11-2008 18:57:01 9 C 5.73 g/m*3 9 C 0 km/h
1872 19-11-2008 19:09:01 8.9 C 5.87 g/m*3 8.9 C 0 km/h
1873 19-11-2008 19:21:01 8.9 C 5.96 g/m*3 8.9 C 0 km/h
1874 19-11-2008 19:33:01 8.8 C 5.92 g/m*3 8.8 C 0 km/h
1875 19-11-2008 19:45:01 8.8 C 6.01 g/m*3 8.8 C 0 km/h
Sensor: Nr:Datum:Temp:Abs-Feuchte:Windchill:Wind:
Aussen-T/F 1876 19-11-2008 19:57:01 8.7 C 5.97 g/m*3 8.7 C 0 km/h
1877 19-11-2008 20:09:01 8.7 C 6.05 g/m*3 8.7 C 0 km/h
1878 19-11-2008 20:21:01 8.8 C 6.09 g/m*3 8.8 C 0 km/h
1879 19-11-2008 20:33:01 8.8 C 6.09 g/m*3 8.8 C 0 km/h
1880 19-11-2008 20:45:01 8.7 C 6.05 g/m*3 8.7 C 0 km/h
1881 19-11-2008 20:57:01 8.8 C 6.18 g/m*3 8.8 C 0 km/h
1882 19-11-2008 21:09:02 8.8 C 6.18 g/m*3 8.8 C 0 km/h
1883 19-11-2008 21:21:01 8.8 C 6.18 g/m*3 8.8 C 0 km/h
1884 19-11-2008 21:33:01 8.8 C 6.27 g/m*3 8.8 C 0 km/h
1885 19-11-2008 21:45:01 8.7 C 6.23 g/m*3 8.7 C 0 km/h
1886 19-11-2008 21:57:01 8.6 C 6.27 g/m*3 8.6 C 0 km/h
1887 19-11-2008 22:09:02 8.6 C 6.27 g/m*3 8.6 C 0 km/h
1888 19-11-2008 22:21:01 8.5 C 6.23 g/m*3 8.5 C 0 km/h
1889 19-11-2008 22:33:01 8.2 C 6.2 g/m*3 8.2 C 0 km/h
1890 19-11-2008 22:45:02 8.5 C 6.23 g/m*3 8.5 C 0 km/h
1891 19-11-2008 22:57:02 8.6 C 6.19 g/m*3 8.6 C 0 km/h
1892 19-11-2008 23:09:01 8.4 C 6.02 g/m*3 8.4 C 0 km/h
1893 19-11-2008 23:21:02 8.2 C 5.95 g/m*3 8.2 C 0 km/h
1894 19-11-2008 23:33:01 8.2 C 5.95 g/m*3 8.2 C 0 km/h
1895 19-11-2008 23:45:02 8.4 C 6.02 g/m*3 8.4 C 0 km/h
1896 19-11-2008 23:57:02 8.4 C 5.94 g/m*3 8.4 C 0 km/h

Legende:
   Min
   Max


Maximal/Minimal-Werte vom 17.04.2019 - 19.05.2019

Sensor Min Max Avg
Temp
(Aussen-T/F)
2.2 °C
13-05-2019  06:50:00
26.6 °C
24-04-2019  17:05:00
11.51 °C

Die Daten stammen von einer Davis Vantage Pro 2 Wetter-Station und werden unter Linux mit der Software wview2wettercgi und aufbereitet. Alle Angaben erfolgen ohne Gewähr für ihre Vollständigkeit oder Richtigkeit.
Kontakt: Rainer Krienke krienke@uni-koblenz.de . Meine Webseiten an der Uni Koblenz oder privat.
Version: $Revision: 0.78 $